<?xml version="1.0" encoding="UTF-8" standalone="no" ?><gpx xmlns="http://www.topografix.com/GPX/1/1" xmlns:gpxx="http://www.garmin.com/xmlschemas/GpxExtensions/v3" xmlns:wptx1="http://www.garmin.com/xmlschemas/WaypointExtension/v1" xmlns:gpxtpx="http://www.garmin.com/xmlschemas/TrackPointExtension/v1" creator="Astro 320" version="1.1" xmlns:xsi="http://www.w3.org/2001/XMLSchema-instance" xsi:schemaLocation="http://www.topografix.com/GPX/1/1 http://www.topografix.com/GPX/1/1/gpx.xsd http://www.garmin.com/xmlschemas/GpxExtensions/v3 http://www8.garmin.com/xmlschemas/GpxExtensionsv3.xsd http://www.garmin.com/xmlschemas/WaypointExtension/v1 http://www8.garmin.com/xmlschemas/WaypointExtensionv1.xsd http://www.garmin.com/xmlschemas/TrackPointExtension/v1 http://www.garmin.com/xmlschemas/TrackPointExtensionv1.xsd"><metadata><link href="http://www.garmin.com"><text>Garmin International</text></link><time>2026-04-22T14:27:22Z</time></metadata><trk><name>2026-04-22 17:27:17</name><extensions><gpxx:TrackExtension><gpxx:DisplayColor>Cyan</gpxx:DisplayColor></gpxx:TrackExtension></extensions><trkseg><trkpt lat="59.0922212228" lon="29.9866431579"><ele>102.04</ele><time>2026-04-22T07:54:40Z</time></trkpt><trkpt lat="59.0922380704" lon="29.9866719078"><ele>101.56</ele><time>2026-04-22T07:55:16Z</time></trkpt><trkpt lat="59.0922245756" lon="29.9866643641"><ele>102.04</ele><time>2026-04-22T07:55:29Z</time></trkpt><trkpt lat="59.0922261681" lon="29.9866591673"><ele>101.56</ele><time>2026-04-22T07:55:51Z</time></trkpt><trkpt lat="59.0922224801" lon="29.9866564013"><ele>101.56</ele><time>2026-04-22T07:56:21Z</time></trkpt><trkpt lat="59.0922187921" lon="29.9866483547"><ele>101.08</ele><time>2026-04-22T07:56:51Z</time></trkpt><trkpt lat="59.0922186244" lon="29.9866399728"><ele>101.08</ele><time>2026-04-22T07:57:19Z</time></trkpt><trkpt lat="59.0922109131" lon="29.9866244663"><ele>100.60</ele><time>2026-04-22T07:57:44Z</time></trkpt><trkpt lat="59.0922140144" lon="29.9866260588"><ele>100.60</ele><time>2026-04-22T07:58:01Z</time></trkpt><trkpt lat="59.0922159422" lon="29.9866280705"><ele>99.15</ele><time>2026-04-22T07:58:27Z</time></trkpt><trkpt lat="59.0922183730" lon="29.9866229575"><ele>98.67</ele><time>2026-04-22T07:58:40Z</time></trkpt><trkpt lat="59.0922149364" lon="29.9866302498"><ele>98.67</ele><time>2026-04-22T07:58:50Z</time></trkpt><trkpt lat="59.0922190435" lon="29.9866420683"><ele>98.67</ele><time>2026-04-22T07:59:04Z</time></trkpt><trkpt lat="59.0922274254" lon="29.9866198562"><ele>98.19</ele><time>2026-04-22T07:59:17Z</time></trkpt><trkpt lat="59.0922251623" lon="29.9866113067"><ele>98.19</ele><time>2026-04-22T07:59:29Z</time></trkpt><trkpt lat="59.0922141820" lon="29.9866116419"><ele>98.19</ele><time>2026-04-22T07:59:44Z</time></trkpt><trkpt lat="59.0922282636" lon="29.9866417330"><ele>99.15</ele><time>2026-04-22T07:59:59Z</time></trkpt><trkpt lat="59.0922280122" lon="29.9866465107"><ele>99.15</ele><time>2026-04-22T08:00:00Z</time></trkpt><trkpt lat="59.0922180377" lon="29.9866399728"><ele>98.67</ele><time>2026-04-22T08:00:31Z</time></trkpt><trkpt lat="59.0922120027" lon="29.9865460116"><ele>98.67</ele><time>2026-04-22T08:00:43Z</time></trkpt><trkpt lat="59.0922275092" lon="29.9866298307"><ele>98.19</ele><time>2026-04-22T08:01:00Z</time></trkpt><trkpt lat="59.0922332089" lon="29.9866583291"><ele>97.71</ele><time>2026-04-22T08:01:35Z</time></trkpt><trkpt lat="59.0922302753" lon="29.9866439123"><ele>97.71</ele><time>2026-04-22T08:01:48Z</time></trkpt><trkpt lat="59.0922304429" lon="29.9866352789"><ele>97.23</ele><time>2026-04-22T08:02:03Z</time></trkpt><trkpt lat="59.0922336280" lon="29.9866197724"><ele>97.23</ele><time>2026-04-22T08:02:15Z</time></trkpt><trkpt lat="59.0922243241" lon="29.9865998235"><ele>97.23</ele><time>2026-04-22T08:02:19Z</time></trkpt><trkpt lat="59.0922102425" lon="29.9865431618"><ele>97.23</ele><time>2026-04-22T08:02:31Z</time></trkpt><trkpt lat="59.0922131762" lon="29.9865357857"><ele>96.75</ele><time>2026-04-22T08:02:52Z</time></trkpt><trkpt lat="59.0922056325" lon="29.9865595065"><ele>96.75</ele><time>2026-04-22T08:02:57Z</time></trkpt><trkpt lat="59.0922149364" lon="29.9866532162"><ele>96.75</ele><time>2026-04-22T08:03:08Z</time></trkpt><trkpt lat="59.0922211390" lon="29.9866844807"><ele>96.27</ele><time>2026-04-22T08:03:18Z</time></trkpt><trkpt lat="59.0922223963" lon="29.9866802059"><ele>96.27</ele><time>2026-04-22T08:03:24Z</time></trkpt><trkpt lat="59.0922460333" lon="29.9867830519"><ele>96.27</ele><time>2026-04-22T08:03:34Z</time></trkpt><trkpt lat="59.0922677424" lon="29.9868745822"><ele>96.27</ele><time>2026-04-22T08:03:43Z</time></trkpt><trkpt lat="59.0922679938" lon="29.9868736602"><ele>96.27</ele><time>2026-04-22T08:03:44Z</time></trkpt><trkpt lat="59.0922446083" lon="29.9867345206"><ele>96.27</ele><time>2026-04-22T08:03:50Z</time></trkpt><trkpt lat="59.0922243241" lon="29.9866739195"><ele>95.79</ele><time>2026-04-22T08:04:01Z</time></trkpt><trkpt lat="59.0922343824" lon="29.9867069442"><ele>95.79</ele><time>2026-04-22T08:04:03Z</time></trkpt><trkpt lat="59.0922520682" lon="29.9867994804"><ele>95.79</ele><time>2026-04-22T08:04:11Z</time></trkpt><trkpt lat="59.0922649764" lon="29.9868564773"><ele>95.79</ele><time>2026-04-22T08:04:23Z</time></trkpt><trkpt lat="59.0922843385" lon="29.9869740754"><ele>95.79</ele><time>2026-04-22T08:04:31Z</time></trkpt><trkpt lat="59.0923072211" lon="29.9871366844"><ele>95.31</ele><time>2026-04-22T08:04:38Z</time></trkpt><trkpt lat="59.0923182014" lon="29.9871792644"><ele>95.31</ele><time>2026-04-22T08:04:40Z</time></trkpt><trkpt lat="59.0923710912" lon="29.9874522630"><ele>95.31</ele><time>2026-04-22T08:04:53Z</time></trkpt><trkpt lat="59.0923766233" lon="29.9874724634"><ele>95.31</ele><time>2026-04-22T08:04:54Z</time></trkpt><trkpt lat="59.0923851728" lon="29.9875650834"><ele>95.31</ele><time>2026-04-22T08:04:58Z</time></trkpt><trkpt lat="59.0924522281" lon="29.9879072327"><ele>96.27</ele><time>2026-04-22T08:05:15Z</time></trkpt><trkpt lat="59.0925218817" lon="29.9882423412"><ele>95.79</ele><time>2026-04-22T08:05:31Z</time></trkpt><trkpt lat="59.0925439261" lon="29.9883471988"><ele>95.79</ele><time>2026-04-22T08:05:36Z</time></trkpt><trkpt lat="59.0926101431" lon="29.9887038488"><ele>95.79</ele><time>2026-04-22T08:05:53Z</time></trkpt><trkpt lat="59.0926578362" lon="29.9888632726"><ele>95.31</ele><time>2026-04-22T08:06:05Z</time></trkpt><trkpt lat="59.0927004162" lon="29.9890817050"><ele>95.31</ele><time>2026-04-22T08:06:15Z</time></trkpt><trkpt lat="59.0927257296" lon="29.9892080203"><ele>94.83</ele><time>2026-04-22T08:06:25Z</time></trkpt><trkpt lat="59.0927590895" lon="29.9894992076"><ele>94.83</ele><time>2026-04-22T08:06:38Z</time></trkpt><trkpt lat="59.0927905217" lon="29.9895617366"><ele>94.83</ele><time>2026-04-22T08:06:40Z</time></trkpt><trkpt lat="59.0928030945" lon="29.9896002095"><ele>94.83</ele><time>2026-04-22T08:06:41Z</time></trkpt><trkpt lat="59.0928129014" lon="29.9896387663"><ele>94.83</ele><time>2026-04-22T08:06:42Z</time></trkpt><trkpt lat="59.0928461775" lon="29.9898132775"><ele>94.83</ele><time>2026-04-22T08:06:52Z</time></trkpt><trkpt lat="59.0928782802" lon="29.9899149500"><ele>94.83</ele><time>2026-04-22T08:06:55Z</time></trkpt><trkpt lat="59.0929108858" lon="29.9901118409"><ele>94.35</ele><time>2026-04-22T08:07:05Z</time></trkpt><trkpt lat="59.0929140709" lon="29.9901415128"><ele>94.35</ele><time>2026-04-22T08:07:06Z</time></trkpt><trkpt lat="59.0929187648" lon="29.9903682433"><ele>94.35</ele><time>2026-04-22T08:07:16Z</time></trkpt><trkpt lat="59.0929633565" lon="29.9905425869"><ele>94.35</ele><time>2026-04-22T08:07:25Z</time></trkpt><trkpt lat="59.0929683857" lon="29.9905875977"><ele>93.87</ele><time>2026-04-22T08:07:32Z</time></trkpt><trkpt lat="59.0929815453" lon="29.9906061217"><ele>93.87</ele><time>2026-04-22T08:07:33Z</time></trkpt><trkpt lat="59.0929925255" lon="29.9906308483"><ele>93.87</ele><time>2026-04-22T08:07:34Z</time></trkpt><trkpt lat="59.0930122230" lon="29.9907061178"><ele>93.87</ele><time>2026-04-22T08:07:38Z</time></trkpt><trkpt lat="59.0930335131" lon="29.9908474367"><ele>93.87</ele><time>2026-04-22T08:07:47Z</time></trkpt><trkpt lat="59.0930563956" lon="29.9909679685"><ele>93.87</ele><time>2026-04-22T08:07:54Z</time></trkpt><trkpt lat="59.0930668730" lon="29.9910439085"><ele>93.39</ele><time>2026-04-22T08:08:07Z</time></trkpt><trkpt lat="59.0930815414" lon="29.9911047611"><ele>93.39</ele><time>2026-04-22T08:08:22Z</time></trkpt><trkpt lat="59.0931068547" lon="29.9912651908"><ele>93.39</ele><time>2026-04-22T08:08:32Z</time></trkpt><trkpt lat="59.0931571461" lon="29.9914832879"><ele>92.90</ele><time>2026-04-22T08:08:45Z</time></trkpt><trkpt lat="59.0931740776" lon="29.9915979523"><ele>92.90</ele><time>2026-04-22T08:08:51Z</time></trkpt><trkpt lat="59.0932128858" lon="29.9918097630"><ele>92.90</ele><time>2026-04-22T08:09:01Z</time></trkpt><trkpt lat="59.0932433121" lon="29.9920690991"><ele>92.90</ele><time>2026-04-22T08:09:13Z</time></trkpt><trkpt lat="59.0932955313" lon="29.9922676664"><ele>92.42</ele><time>2026-04-22T08:09:25Z</time></trkpt><trkpt lat="59.0933489241" lon="29.9925047066"><ele>92.42</ele><time>2026-04-22T08:09:37Z</time></trkpt><trkpt lat="59.0933519416" lon="29.9925445206"><ele>92.42</ele><time>2026-04-22T08:09:38Z</time></trkpt><trkpt lat="59.0933645144" lon="29.9926893599"><ele>92.42</ele><time>2026-04-22T08:09:47Z</time></trkpt><trkpt lat="59.0933583956" lon="29.9927174393"><ele>91.94</ele><time>2026-04-22T08:09:50Z</time></trkpt><trkpt lat="59.0933605749" lon="29.9927532300"><ele>91.94</ele><time>2026-04-22T08:09:51Z</time></trkpt><trkpt lat="59.0933668613" lon="29.9927800521"><ele>91.94</ele><time>2026-04-22T08:09:52Z</time></trkpt><trkpt lat="59.0933718905" lon="29.9928497057"><ele>91.94</ele><time>2026-04-22T08:09:56Z</time></trkpt><trkpt lat="59.0933734830" lon="29.9928750191"><ele>91.94</ele><time>2026-04-22T08:09:57Z</time></trkpt><trkpt lat="59.0933891572" lon="29.9930191878"><ele>92.42</ele><time>2026-04-22T08:10:07Z</time></trkpt><trkpt lat="59.0934079327" lon="29.9930840638"><ele>92.90</ele><time>2026-04-22T08:10:18Z</time></trkpt><trkpt lat="59.0934148058" lon="29.9930848181"><ele>92.42</ele><time>2026-04-22T08:10:34Z</time></trkpt><trkpt lat="59.0934288036" lon="29.9931600038"><ele>92.42</ele><time>2026-04-22T08:10:43Z</time></trkpt><trkpt lat="59.0934455674" lon="29.9932232872"><ele>92.42</ele><time>2026-04-22T08:10:47Z</time></trkpt><trkpt lat="59.0934555419" lon="29.9932528753"><ele>92.42</ele><time>2026-04-22T08:11:00Z</time></trkpt><trkpt lat="59.0934616607" lon="29.9932822119"><ele>91.94</ele><time>2026-04-22T08:11:21Z</time></trkpt><trkpt lat="59.0934704617" lon="29.9933178350"><ele>91.94</ele><time>2026-04-22T08:11:23Z</time></trkpt><trkpt lat="59.0934773348" lon="29.9933352694"><ele>91.94</ele><time>2026-04-22T08:11:24Z</time></trkpt><trkpt lat="59.0935150534" lon="29.9934304878"><ele>91.94</ele><time>2026-04-22T08:11:30Z</time></trkpt><trkpt lat="59.0935220104" lon="29.9934520293"><ele>91.94</ele><time>2026-04-22T08:11:31Z</time></trkpt><trkpt lat="59.0935809352" lon="29.9936481658"><ele>91.94</ele><time>2026-04-22T08:11:42Z</time></trkpt><trkpt lat="59.0936125349" lon="29.9938722979"><ele>90.50</ele><time>2026-04-22T08:11:55Z</time></trkpt><trkpt lat="59.0936267842" lon="29.9939757306"><ele>90.50</ele><time>2026-04-22T08:12:01Z</time></trkpt><trkpt lat="59.0936400276" lon="29.9940297101"><ele>90.50</ele><time>2026-04-22T08:12:04Z</time></trkpt><trkpt lat="59.0936712921" lon="29.9942563567"><ele>90.02</ele><time>2026-04-22T08:12:17Z</time></trkpt><trkpt lat="59.0936657600" lon="29.9943011161"><ele>90.02</ele><time>2026-04-22T08:12:19Z</time></trkpt><trkpt lat="59.0936422069" lon="29.9944891222"><ele>90.02</ele><time>2026-04-22T08:12:33Z</time></trkpt><trkpt lat="59.0936362557" lon="29.9945226498"><ele>90.98</ele><time>2026-04-22T08:12:50Z</time></trkpt><trkpt lat="59.0936149657" lon="29.9945366476"><ele>90.98</ele><time>2026-04-22T08:13:10Z</time></trkpt><trkpt lat="59.0936051589" lon="29.9945234042"><ele>90.98</ele><time>2026-04-22T08:13:16Z</time></trkpt><trkpt lat="59.0935473237" lon="29.9946460314"><ele>90.98</ele><time>2026-04-22T08:13:28Z</time></trkpt><trkpt lat="59.0935393609" lon="29.9947749451"><ele>90.50</ele><time>2026-04-22T08:13:37Z</time></trkpt><trkpt lat="59.0935300570" lon="29.9949459359"><ele>90.50</ele><time>2026-04-22T08:13:50Z</time></trkpt><trkpt lat="59.0935792588" lon="29.9951577466"><ele>90.50</ele><time>2026-04-22T08:14:05Z</time></trkpt><trkpt lat="59.0936346631" lon="29.9953036755"><ele>90.02</ele><time>2026-04-22T08:14:20Z</time></trkpt><trkpt lat="59.0936461464" lon="29.9953540508"><ele>90.02</ele><time>2026-04-22T08:14:43Z</time></trkpt><trkpt lat="59.0936474875" lon="29.9954006542"><ele>89.54</ele><time>2026-04-22T08:15:09Z</time></trkpt><trkpt lat="59.0936324839" lon="29.9954051804"><ele>89.06</ele><time>2026-04-22T08:15:33Z</time></trkpt><trkpt lat="59.0936325677" lon="29.9953910988"><ele>89.06</ele><time>2026-04-22T08:15:55Z</time></trkpt><trkpt lat="59.0936313942" lon="29.9953807890"><ele>89.54</ele><time>2026-04-22T08:16:20Z</time></trkpt><trkpt lat="59.0936307237" lon="29.9953739159"><ele>89.06</ele><time>2026-04-22T08:16:45Z</time></trkpt><trkpt lat="59.0936313942" lon="29.9953597505"><ele>89.06</ele><time>2026-04-22T08:17:05Z</time></trkpt><trkpt lat="59.0936241020" lon="29.9953414779"><ele>89.06</ele><time>2026-04-22T08:17:22Z</time></trkpt><trkpt lat="59.0936131217" lon="29.9953353591"><ele>89.06</ele><time>2026-04-22T08:17:38Z</time></trkpt><trkpt lat="59.0935901552" lon="29.9953299109"><ele>88.58</ele><time>2026-04-22T08:18:04Z</time></trkpt><trkpt lat="59.0935753193" lon="29.9953252170"><ele>88.58</ele><time>2026-04-22T08:18:38Z</time></trkpt><trkpt lat="59.0935060848" lon="29.9953475129"><ele>88.10</ele><time>2026-04-22T08:18:54Z</time></trkpt><trkpt lat="59.0932124667" lon="29.9953382928"><ele>88.10</ele><time>2026-04-22T08:19:12Z</time></trkpt><trkpt lat="59.0931506921" lon="29.9953185115"><ele>88.10</ele><time>2026-04-22T08:19:25Z</time></trkpt><trkpt lat="59.0930799488" lon="29.9952692259"><ele>88.10</ele><time>2026-04-22T08:19:36Z</time></trkpt><trkpt lat="59.0929765161" lon="29.9952584133"><ele>87.62</ele><time>2026-04-22T08:19:54Z</time></trkpt><trkpt lat="59.0928947087" lon="29.9952930305"><ele>88.58</ele><time>2026-04-22T08:20:09Z</time></trkpt><trkpt lat="59.0928243008" lon="29.9952774402"><ele>88.58</ele><time>2026-04-22T08:20:22Z</time></trkpt><trkpt lat="59.0926856641" lon="29.9952577427"><ele>88.10</ele><time>2026-04-22T08:20:35Z</time></trkpt><trkpt lat="59.0925758611" lon="29.9953320902"><ele>88.10</ele><time>2026-04-22T08:20:51Z</time></trkpt><trkpt lat="59.0925337840" lon="29.9953535479"><ele>87.62</ele><time>2026-04-22T08:21:09Z</time></trkpt><trkpt lat="59.0924952272" lon="29.9953054357"><ele>87.62</ele><time>2026-04-22T08:21:24Z</time></trkpt><trkpt lat="59.0924067143" lon="29.9952753447"><ele>87.62</ele><time>2026-04-22T08:21:39Z</time></trkpt><trkpt lat="59.0923787188" lon="29.9952418171"><ele>87.14</ele><time>2026-04-22T08:21:51Z</time></trkpt><trkpt lat="59.0923500527" lon="29.9952060264"><ele>87.62</ele><time>2026-04-22T08:22:07Z</time></trkpt><trkpt lat="59.0923126694" lon="29.9951533042"><ele>88.10</ele><time>2026-04-22T08:22:33Z</time></trkpt><trkpt lat="59.0923150163" lon="29.9951294996"><ele>88.10</ele><time>2026-04-22T08:23:02Z</time></trkpt><trkpt lat="59.0923005156" lon="29.9951162562"><ele>87.62</ele><time>2026-04-22T08:23:27Z</time></trkpt><trkpt lat="59.0922070574" lon="29.9950779509"><ele>87.62</ele><time>2026-04-22T08:23:43Z</time></trkpt><trkpt lat="59.0920625534" lon="29.9950414896"><ele>87.62</ele><time>2026-04-22T08:23:58Z</time></trkpt><trkpt lat="59.0919465479" lon="29.9950647913"><ele>87.62</ele><time>2026-04-22T08:24:15Z</time></trkpt><trkpt lat="59.0918592922" lon="29.9950653780"><ele>88.10</ele><time>2026-04-22T08:24:26Z</time></trkpt><trkpt lat="59.0917577874" lon="29.9951108918"><ele>87.62</ele><time>2026-04-22T08:24:39Z</time></trkpt><trkpt lat="59.0917129442" lon="29.9951132387"><ele>87.62</ele><time>2026-04-22T08:24:52Z</time></trkpt><trkpt lat="59.0916271135" lon="29.9950108957"><ele>87.62</ele><time>2026-04-22T08:25:06Z</time></trkpt><trkpt lat="59.0915188193" lon="29.9949802179"><ele>87.62</ele><time>2026-04-22T08:25:20Z</time></trkpt><trkpt lat="59.0914222598" lon="29.9949564971"><ele>87.14</ele><time>2026-04-22T08:25:35Z</time></trkpt><trkpt lat="59.0913623292" lon="29.9948647153"><ele>87.14</ele><time>2026-04-22T08:25:49Z</time></trkpt><trkpt lat="59.0913182404" lon="29.9948167708"><ele>87.14</ele><time>2026-04-22T08:26:03Z</time></trkpt><trkpt lat="59.0912325773" lon="29.9946831632"><ele>86.66</ele><time>2026-04-22T08:26:18Z</time></trkpt><trkpt lat="59.0911744069" lon="29.9946160242"><ele>87.14</ele><time>2026-04-22T08:26:31Z</time></trkpt><trkpt lat="59.0911433939" lon="29.9946135934"><ele>87.14</ele><time>2026-04-22T08:26:50Z</time></trkpt><trkpt lat="59.0910793561" lon="29.9945566803"><ele>87.62</ele><time>2026-04-22T08:27:04Z</time></trkpt><trkpt lat="59.0909983031" lon="29.9945664871"><ele>87.62</ele><time>2026-04-22T08:27:20Z</time></trkpt><trkpt lat="59.0908958763" lon="29.9945846759"><ele>87.14</ele><time>2026-04-22T08:27:33Z</time></trkpt><trkpt lat="59.0907685552" lon="29.9945887830"><ele>87.14</ele><time>2026-04-22T08:27:49Z</time></trkpt><trkpt lat="59.0906376299" lon="29.9945415929"><ele>87.14</ele><time>2026-04-22T08:28:03Z</time></trkpt><trkpt lat="59.0905828122" lon="29.9944711011"><ele>87.62</ele><time>2026-04-22T08:28:19Z</time></trkpt><trkpt lat="59.0905637015" lon="29.9944648147"><ele>87.14</ele><time>2026-04-22T08:28:36Z</time></trkpt><trkpt lat="59.0905649588" lon="29.9944612943"><ele>87.14</ele><time>2026-04-22T08:28:42Z</time></trkpt><trkpt lat="59.0905756876" lon="29.9944557622"><ele>87.14</ele><time>2026-04-22T08:28:54Z</time></trkpt><trkpt lat="59.0905162599" lon="29.9943449534"><ele>87.14</ele><time>2026-04-22T08:29:08Z</time></trkpt><trkpt lat="59.0904787090" lon="29.9943043850"><ele>87.62</ele><time>2026-04-22T08:29:23Z</time></trkpt><trkpt lat="59.0904018469" lon="29.9941733759"><ele>87.14</ele><time>2026-04-22T08:29:37Z</time></trkpt><trkpt lat="59.0903356299" lon="29.9942038860"><ele>87.14</ele><time>2026-04-22T08:29:49Z</time></trkpt><trkpt lat="59.0902866796" lon="29.9942801613"><ele>87.14</ele><time>2026-04-22T08:30:05Z</time></trkpt><trkpt lat="59.0901807323" lon="29.9943047203"><ele>87.14</ele><time>2026-04-22T08:30:19Z</time></trkpt><trkpt lat="59.0901008528" lon="29.9942989368"><ele>87.62</ele><time>2026-04-22T08:30:35Z</time></trkpt><trkpt lat="59.0900460351" lon="29.9942908064"><ele>87.62</ele><time>2026-04-22T08:30:50Z</time></trkpt><trkpt lat="59.0899897926" lon="29.9943000264"><ele>87.62</ele><time>2026-04-22T08:30:57Z</time></trkpt><trkpt lat="59.0898735356" lon="29.9942271039"><ele>87.14</ele><time>2026-04-22T08:31:11Z</time></trkpt><trkpt lat="59.0898281056" lon="29.9941578694"><ele>87.14</ele><time>2026-04-22T08:31:27Z</time></trkpt><trkpt lat="59.0897682589" lon="29.9940973520"><ele>86.18</ele><time>2026-04-22T08:31:41Z</time></trkpt><trkpt lat="59.0897069871" lon="29.9940446299"><ele>85.69</ele><time>2026-04-22T08:31:53Z</time></trkpt><trkpt lat="59.0896619763" lon="29.9940253515"><ele>85.69</ele><time>2026-04-22T08:32:09Z</time></trkpt><trkpt lat="59.0896551870" lon="29.9940219987"><ele>87.14</ele><time>2026-04-22T08:32:20Z</time></trkpt><trkpt lat="59.0896446258" lon="29.9940163828"><ele>86.66</ele><time>2026-04-22T08:32:45Z</time></trkpt><trkpt lat="59.0896032192" lon="29.9940124433"><ele>86.66</ele><time>2026-04-22T08:33:03Z</time></trkpt><trkpt lat="59.0894971043" lon="29.9939717073"><ele>86.66</ele><time>2026-04-22T08:33:17Z</time></trkpt><trkpt lat="59.0894005448" lon="29.9939519260"><ele>86.18</ele><time>2026-04-22T08:33:32Z</time></trkpt><trkpt lat="59.0893291309" lon="29.9939230923"><ele>86.18</ele><time>2026-04-22T08:33:46Z</time></trkpt><trkpt lat="59.0892593935" lon="29.9939528480"><ele>86.18</ele><time>2026-04-22T08:34:01Z</time></trkpt><trkpt lat="59.0891180746" lon="29.9939748924"><ele>85.69</ele><time>2026-04-22T08:34:17Z</time></trkpt><trkpt lat="59.0889915079" lon="29.9940138683"><ele>86.66</ele><time>2026-04-22T08:34:32Z</time></trkpt><trkpt lat="59.0888546314" lon="29.9940066598"><ele>86.18</ele><time>2026-04-22T08:34:46Z</time></trkpt><trkpt lat="59.0887362789" lon="29.9939511716"><ele>86.18</ele><time>2026-04-22T08:35:01Z</time></trkpt><trkpt lat="59.0886433236" lon="29.9938836973"><ele>86.18</ele><time>2026-04-22T08:35:18Z</time></trkpt><trkpt lat="59.0885488596" lon="29.9938741419"><ele>86.18</ele><time>2026-04-22T08:35:31Z</time></trkpt><trkpt lat="59.0884248912" lon="29.9937668536"><ele>86.18</ele><time>2026-04-22T08:35:46Z</time></trkpt><trkpt lat="59.0883057844" lon="29.9937464017"><ele>86.18</ele><time>2026-04-22T08:36:00Z</time></trkpt><trkpt lat="59.0881850012" lon="29.9936729763"><ele>86.18</ele><time>2026-04-22T08:36:16Z</time></trkpt><trkpt lat="59.0881108213" lon="29.9936249480"><ele>86.18</ele><time>2026-04-22T08:36:28Z</time></trkpt><trkpt lat="59.0881151799" lon="29.9935861398"><ele>86.18</ele><time>2026-04-22T08:36:44Z</time></trkpt><trkpt lat="59.0881122462" lon="29.9935633410"><ele>85.69</ele><time>2026-04-22T08:37:05Z</time></trkpt><trkpt lat="59.0880557522" lon="29.9935778417"><ele>85.69</ele><time>2026-04-22T08:37:21Z</time></trkpt><trkpt lat="59.0880066343" lon="29.9935487565"><ele>85.69</ele><time>2026-04-22T08:37:36Z</time></trkpt><trkpt lat="59.0879581030" lon="29.9935460743"><ele>85.69</ele><time>2026-04-22T08:37:45Z</time></trkpt><trkpt lat="59.0878551733" lon="29.9935562164"><ele>85.69</ele><time>2026-04-22T08:37:57Z</time></trkpt><trkpt lat="59.0878563467" lon="29.9935369380"><ele>85.69</ele><time>2026-04-22T08:38:21Z</time></trkpt><trkpt lat="59.0878405888" lon="29.9935225211"><ele>85.69</ele><time>2026-04-22T08:38:36Z</time></trkpt><trkpt lat="59.0878165327" lon="29.9935035780"><ele>85.69</ele><time>2026-04-22T08:38:48Z</time></trkpt><trkpt lat="59.0877500642" lon="29.9934386183"><ele>85.69</ele><time>2026-04-22T08:38:59Z</time></trkpt><trkpt lat="59.0876343939" lon="29.9933865666"><ele>85.69</ele><time>2026-04-22T08:39:14Z</time></trkpt><trkpt lat="59.0875572804" lon="29.9933504406"><ele>85.21</ele><time>2026-04-22T08:39:27Z</time></trkpt><trkpt lat="59.0874546021" lon="29.9932989758"><ele>85.21</ele><time>2026-04-22T08:39:40Z</time></trkpt><trkpt lat="59.0873668436" lon="29.9932773504"><ele>85.21</ele><time>2026-04-22T08:39:55Z</time></trkpt><trkpt lat="59.0872847009" lon="29.9932387099"><ele>85.21</ele><time>2026-04-22T08:40:06Z</time></trkpt><trkpt lat="59.0871987026" lon="29.9932311662"><ele>84.73</ele><time>2026-04-22T08:40:23Z</time></trkpt><trkpt lat="59.0870909952" lon="29.9932377040"><ele>84.73</ele><time>2026-04-22T08:40:35Z</time></trkpt><trkpt lat="59.0870023146" lon="29.9933158234"><ele>84.73</ele><time>2026-04-22T08:40:50Z</time></trkpt><trkpt lat="59.0868483391" lon="29.9934065156"><ele>84.73</ele><time>2026-04-22T08:41:05Z</time></trkpt><trkpt lat="59.0867542103" lon="29.9934561364"><ele>84.73</ele><time>2026-04-22T08:41:18Z</time></trkpt><trkpt lat="59.0866614226" lon="29.9935112894"><ele>84.25</ele><time>2026-04-22T08:41:31Z</time></trkpt><trkpt lat="59.0865741670" lon="29.9935220182"><ele>85.21</ele><time>2026-04-22T08:41:47Z</time></trkpt><trkpt lat="59.0864817146" lon="29.9935434759"><ele>84.73</ele><time>2026-04-22T08:42:01Z</time></trkpt><trkpt lat="59.0863910224" lon="29.9935452361"><ele>84.73</ele><time>2026-04-22T08:42:15Z</time></trkpt><trkpt lat="59.0863107238" lon="29.9935787637"><ele>84.73</ele><time>2026-04-22T08:42:26Z</time></trkpt><trkpt lat="59.0862440877" lon="29.9934951961"><ele>84.73</ele><time>2026-04-22T08:42:42Z</time></trkpt><trkpt lat="59.0861318540" lon="29.9934551306"><ele>85.21</ele><time>2026-04-22T08:42:57Z</time></trkpt><trkpt lat="59.0859657247" lon="29.9934197590"><ele>84.73</ele><time>2026-04-22T08:43:12Z</time></trkpt><trkpt lat="59.0858983342" lon="29.9933829624"><ele>84.73</ele><time>2026-04-22T08:43:25Z</time></trkpt><trkpt lat="59.0857544169" lon="29.9933738261"><ele>84.73</ele><time>2026-04-22T08:43:38Z</time></trkpt><trkpt lat="59.0856755432" lon="29.9933922663"><ele>84.73</ele><time>2026-04-22T08:43:50Z</time></trkpt><trkpt lat="59.0856131818" lon="29.9933563080"><ele>85.69</ele><time>2026-04-22T08:44:04Z</time></trkpt><trkpt lat="59.0855690092" lon="29.9933502730"><ele>85.69</ele><time>2026-04-22T08:44:16Z</time></trkpt><trkpt lat="59.0854601283" lon="29.9933696352"><ele>85.69</ele><time>2026-04-22T08:44:31Z</time></trkpt><trkpt lat="59.0853858646" lon="29.9933263846"><ele>85.69</ele><time>2026-04-22T08:44:44Z</time></trkpt><trkpt lat="59.0852940828" lon="29.9932263885"><ele>85.21</ele><time>2026-04-22T08:45:00Z</time></trkpt><trkpt lat="59.0852085035" lon="29.9931672122"><ele>85.69</ele><time>2026-04-22T08:45:13Z</time></trkpt><trkpt lat="59.0851725452" lon="29.9931325950"><ele>86.18</ele><time>2026-04-22T08:45:39Z</time></trkpt><trkpt lat="59.0851411130" lon="29.9931304995"><ele>86.18</ele><time>2026-04-22T08:46:02Z</time></trkpt><trkpt lat="59.0850929171" lon="29.9931415636"><ele>86.18</ele><time>2026-04-22T08:46:35Z</time></trkpt><trkpt lat="59.0850778297" lon="29.9930646177"><ele>85.69</ele><time>2026-04-22T08:46:49Z</time></trkpt><trkpt lat="59.0850646701" lon="29.9929015897"><ele>85.69</ele><time>2026-04-22T08:47:06Z</time></trkpt><trkpt lat="59.0849784203" lon="29.9927207083"><ele>85.69</ele><time>2026-04-22T08:47:20Z</time></trkpt><trkpt lat="59.0848925896" lon="29.9926456902"><ele>85.69</ele><time>2026-04-22T08:47:33Z</time></trkpt><trkpt lat="59.0847500134" lon="29.9925322831"><ele>85.69</ele><time>2026-04-22T08:47:45Z</time></trkpt><trkpt lat="59.0847148933" lon="29.9924262520"><ele>85.69</ele><time>2026-04-22T08:47:58Z</time></trkpt><trkpt lat="59.0847364347" lon="29.9925376475"><ele>85.69</ele><time>2026-04-22T08:48:12Z</time></trkpt><trkpt lat="59.0847314056" lon="29.9925972428"><ele>85.69</ele><time>2026-04-22T08:48:29Z</time></trkpt><trkpt lat="59.0846760850" lon="29.9926247355"><ele>85.21</ele><time>2026-04-22T08:48:42Z</time></trkpt><trkpt lat="59.0846338402" lon="29.9925881065"><ele>85.21</ele><time>2026-04-22T08:48:58Z</time></trkpt><trkpt lat="59.0845594928" lon="29.9925311934"><ele>85.21</ele><time>2026-04-22T08:49:13Z</time></trkpt><trkpt lat="59.0845247917" lon="29.9924784712"><ele>85.21</ele><time>2026-04-22T08:49:26Z</time></trkpt><trkpt lat="59.0844758414" lon="29.9924685806"><ele>85.69</ele><time>2026-04-22T08:49:35Z</time></trkpt><trkpt lat="59.0844037570" lon="29.9924666528"><ele>85.69</ele><time>2026-04-22T08:49:48Z</time></trkpt><trkpt lat="59.0843652003" lon="29.9925025273"><ele>85.69</ele><time>2026-04-22T08:50:00Z</time></trkpt><trkpt lat="59.0843060240" lon="29.9925790541"><ele>84.25</ele><time>2026-04-22T08:50:14Z</time></trkpt><trkpt lat="59.0842649527" lon="29.9926318601"><ele>84.25</ele><time>2026-04-22T08:50:25Z</time></trkpt><trkpt lat="59.0841721650" lon="29.9925760366"><ele>84.25</ele><time>2026-04-22T08:50:36Z</time></trkpt><trkpt lat="59.0841073729" lon="29.9925769586"><ele>85.21</ele><time>2026-04-22T08:50:49Z</time></trkpt><trkpt lat="59.0840554889" lon="29.9925250746"><ele>85.21</ele><time>2026-04-22T08:51:03Z</time></trkpt><trkpt lat="59.0840391442" lon="29.9924978334"><ele>85.21</ele><time>2026-04-22T08:51:18Z</time></trkpt><trkpt lat="59.0840185247" lon="29.9924651440"><ele>85.69</ele><time>2026-04-22T08:51:41Z</time></trkpt><trkpt lat="59.0839984920" lon="29.9924819078"><ele>85.69</ele><time>2026-04-22T08:51:56Z</time></trkpt><trkpt lat="59.0839557443" lon="29.9925025273"><ele>86.18</ele><time>2026-04-22T08:52:09Z</time></trkpt><trkpt lat="59.0838769544" lon="29.9923915509"><ele>86.66</ele><time>2026-04-22T08:52:23Z</time></trkpt><trkpt lat="59.0838567540" lon="29.9923218973"><ele>87.14</ele><time>2026-04-22T08:52:36Z</time></trkpt><trkpt lat="59.0838484559" lon="29.9923212267"><ele>87.14</ele><time>2026-04-22T08:52:56Z</time></trkpt><trkpt lat="59.0837909561" lon="29.9922083225"><ele>87.14</ele><time>2026-04-22T08:53:11Z</time></trkpt><trkpt lat="59.0837042872" lon="29.9922219850"><ele>87.14</ele><time>2026-04-22T08:53:22Z</time></trkpt><trkpt lat="59.0836016089" lon="29.9922137707"><ele>87.14</ele><time>2026-04-22T08:53:38Z</time></trkpt><trkpt lat="59.0835012775" lon="29.9921248388"><ele>87.14</ele><time>2026-04-22T08:53:52Z</time></trkpt><trkpt lat="59.0834246669" lon="29.9920873716"><ele>86.66</ele><time>2026-04-22T08:54:05Z</time></trkpt><trkpt lat="59.0833640657" lon="29.9920665007"><ele>86.66</ele><time>2026-04-22T08:54:19Z</time></trkpt><trkpt lat="59.0832618065" lon="29.9920704402"><ele>86.66</ele><time>2026-04-22T08:54:34Z</time></trkpt><trkpt lat="59.0832108445" lon="29.9920945801"><ele>87.14</ele><time>2026-04-22T08:54:54Z</time></trkpt><trkpt lat="59.0832022112" lon="29.9921042193"><ele>87.14</ele><time>2026-04-22T08:55:16Z</time></trkpt><trkpt lat="59.0831803344" lon="29.9921226595"><ele>87.14</ele><time>2026-04-22T08:55:32Z</time></trkpt><trkpt lat="59.0831303783" lon="29.9921570253"><ele>86.66</ele><time>2026-04-22T08:55:46Z</time></trkpt><trkpt lat="59.0830767341" lon="29.9921523314"><ele>87.14</ele><time>2026-04-22T08:55:54Z</time></trkpt><trkpt lat="59.0830422007" lon="29.9921219889"><ele>86.66</ele><time>2026-04-22T08:55:57Z</time></trkpt><trkpt lat="59.0829369240" lon="29.9921774771"><ele>86.66</ele><time>2026-04-22T08:56:07Z</time></trkpt><trkpt lat="59.0828764066" lon="29.9921319634"><ele>86.66</ele><time>2026-04-22T08:56:24Z</time></trkpt><trkpt lat="59.0828350838" lon="29.9921259284"><ele>86.66</ele><time>2026-04-22T08:56:41Z</time></trkpt><trkpt lat="59.0828282107" lon="29.9921175465"><ele>86.18</ele><time>2026-04-22T08:57:09Z</time></trkpt><trkpt lat="59.0828080103" lon="29.9921086617"><ele>86.18</ele><time>2026-04-22T08:57:41Z</time></trkpt><trkpt lat="59.0828125365" lon="29.9921044707"><ele>86.18</ele><time>2026-04-22T08:58:12Z</time></trkpt><trkpt lat="59.0828068368" lon="29.9920944963"><ele>86.18</ele><time>2026-04-22T08:58:46Z</time></trkpt><trkpt lat="59.0828016400" lon="29.9921033811"><ele>86.18</ele><time>2026-04-22T08:59:10Z</time></trkpt><trkpt lat="59.0827963594" lon="29.9921114277"><ele>86.18</ele><time>2026-04-22T08:59:39Z</time></trkpt><trkpt lat="59.0827847924" lon="29.9921277724"><ele>85.69</ele><time>2026-04-22T09:00:01Z</time></trkpt><trkpt lat="59.0827494208" lon="29.9921214022"><ele>85.69</ele><time>2026-04-22T09:00:27Z</time></trkpt><trkpt lat="59.0828035679" lon="29.9922361504"><ele>85.69</ele><time>2026-04-22T09:00:48Z</time></trkpt><trkpt lat="59.0827713814" lon="29.9921389204"><ele>86.18</ele><time>2026-04-22T09:01:10Z</time></trkpt><trkpt lat="59.0827252809" lon="29.9921566062"><ele>86.18</ele><time>2026-04-22T09:01:30Z</time></trkpt><trkpt lat="59.0827058349" lon="29.9922084063"><ele>86.18</ele><time>2026-04-22T09:01:55Z</time></trkpt><trkpt lat="59.0827170666" lon="29.9922756292"><ele>86.18</ele><time>2026-04-22T09:02:09Z</time></trkpt><trkpt lat="59.0827154741" lon="29.9923018645"><ele>86.18</ele><time>2026-04-22T09:02:11Z</time></trkpt><trkpt lat="59.0826996323" lon="29.9924893677"><ele>86.18</ele><time>2026-04-22T09:02:24Z</time></trkpt><trkpt lat="59.0826740675" lon="29.9926048703"><ele>86.18</ele><time>2026-04-22T09:02:38Z</time></trkpt><trkpt lat="59.0826854669" lon="29.9928676430"><ele>86.18</ele><time>2026-04-22T09:02:52Z</time></trkpt><trkpt lat="59.0826676134" lon="29.9930100515"><ele>86.66</ele><time>2026-04-22T09:03:04Z</time></trkpt><trkpt lat="59.0826801024" lon="29.9931169208"><ele>86.66</ele><time>2026-04-22T09:03:18Z</time></trkpt><trkpt lat="59.0827130433" lon="29.9933434837"><ele>86.66</ele><time>2026-04-22T09:03:32Z</time></trkpt><trkpt lat="59.0827088524" lon="29.9934782647"><ele>86.66</ele><time>2026-04-22T09:03:44Z</time></trkpt><trkpt lat="59.0826981235" lon="29.9936170690"><ele>86.66</ele><time>2026-04-22T09:04:01Z</time></trkpt><trkpt lat="59.0826886520" lon="29.9937431328"><ele>87.14</ele><time>2026-04-22T09:04:17Z</time></trkpt><trkpt lat="59.0826942679" lon="29.9937674403"><ele>88.10</ele><time>2026-04-22T09:04:40Z</time></trkpt><trkpt lat="59.0827126242" lon="29.9939928297"><ele>88.58</ele><time>2026-04-22T09:04:55Z</time></trkpt><trkpt lat="59.0826987103" lon="29.9941380881"><ele>88.58</ele><time>2026-04-22T09:05:06Z</time></trkpt><trkpt lat="59.0827014763" lon="29.9941727892"><ele>88.58</ele><time>2026-04-22T09:05:08Z</time></trkpt><trkpt lat="59.0826812759" lon="29.9943241663"><ele>87.62</ele><time>2026-04-22T09:05:20Z</time></trkpt><trkpt lat="59.0826511011" lon="29.9944865238"><ele>87.14</ele><time>2026-04-22T09:05:34Z</time></trkpt><trkpt lat="59.0826746542" lon="29.9946919642"><ele>87.14</ele><time>2026-04-22T09:05:48Z</time></trkpt><trkpt lat="59.0826798510" lon="29.9948666431"><ele>87.14</ele><time>2026-04-22T09:06:01Z</time></trkpt><trkpt lat="59.0826573037" lon="29.9950226303"><ele>87.14</ele><time>2026-04-22T09:06:13Z</time></trkpt><trkpt lat="59.0826176573" lon="29.9952839781"><ele>87.14</ele><time>2026-04-22T09:06:26Z</time></trkpt><trkpt lat="59.0826604050" lon="29.9953576550"><ele>87.14</ele><time>2026-04-22T09:06:38Z</time></trkpt><trkpt lat="59.0826705471" lon="29.9954116344"><ele>87.14</ele><time>2026-04-22T09:06:50Z</time></trkpt><trkpt lat="59.0826740675" lon="29.9954911787"><ele>87.14</ele><time>2026-04-22T09:07:05Z</time></trkpt><trkpt lat="59.0826636739" lon="29.9956054240"><ele>87.14</ele><time>2026-04-22T09:07:20Z</time></trkpt><trkpt lat="59.0827694535" lon="29.9956253730"><ele>88.10</ele><time>2026-04-22T09:07:34Z</time></trkpt><trkpt lat="59.0828018915" lon="29.9956261273"><ele>88.10</ele><time>2026-04-22T09:07:47Z</time></trkpt><trkpt lat="59.0829220042" lon="29.9955446552"><ele>88.10</ele><time>2026-04-22T09:08:00Z</time></trkpt><trkpt lat="59.0829888918" lon="29.9956266303"><ele>88.10</ele><time>2026-04-22T09:08:13Z</time></trkpt><trkpt lat="59.0830161329" lon="29.9956361856"><ele>88.10</ele><time>2026-04-22T09:08:26Z</time></trkpt><trkpt lat="59.0830144566" lon="29.9957659375"><ele>88.10</ele><time>2026-04-22T09:08:39Z</time></trkpt><trkpt lat="59.0829965193" lon="29.9958920851"><ele>88.10</ele><time>2026-04-22T09:08:54Z</time></trkpt><trkpt lat="59.0829964355" lon="29.9960308895"><ele>88.10</ele><time>2026-04-22T09:09:06Z</time></trkpt><trkpt lat="59.0829758160" lon="29.9961765669"><ele>88.10</ele><time>2026-04-22T09:09:22Z</time></trkpt><trkpt lat="59.0829656739" lon="29.9961743876"><ele>86.66</ele><time>2026-04-22T09:09:29Z</time></trkpt><trkpt lat="59.0829636622" lon="29.9961971026"><ele>86.66</ele><time>2026-04-22T09:09:52Z</time></trkpt><trkpt lat="59.0829536878" lon="29.9961660057"><ele>86.66</ele><time>2026-04-22T09:10:14Z</time></trkpt><trkpt lat="59.0829379298" lon="29.9961312208"><ele>86.66</ele><time>2026-04-22T09:10:32Z</time></trkpt><trkpt lat="59.0829263628" lon="29.9961398542"><ele>86.66</ele><time>2026-04-22T09:10:55Z</time></trkpt><trkpt lat="59.0828448068" lon="29.9963526707"><ele>86.66</ele><time>2026-04-22T09:11:10Z</time></trkpt><trkpt lat="59.0828292165" lon="29.9965762161"><ele>86.66</ele><time>2026-04-22T09:11:25Z</time></trkpt><trkpt lat="59.0828332398" lon="29.9968513940"><ele>86.66</ele><time>2026-04-22T09:11:38Z</time></trkpt><trkpt lat="59.0828419570" lon="29.9971230514"><ele>86.66</ele><time>2026-04-22T09:11:56Z</time></trkpt><trkpt lat="59.0828335751" lon="29.9972219579"><ele>86.66</ele><time>2026-04-22T09:12:11Z</time></trkpt><trkpt lat="59.0828888956" lon="29.9973715749"><ele>86.66</ele><time>2026-04-22T09:12:24Z</time></trkpt><trkpt lat="59.0829077549" lon="29.9975184258"><ele>86.66</ele><time>2026-04-22T09:12:37Z</time></trkpt><trkpt lat="59.0829298832" lon="29.9975278135"><ele>86.66</ele><time>2026-04-22T09:12:53Z</time></trkpt><trkpt lat="59.0829707868" lon="29.9975045957"><ele>86.66</ele><time>2026-04-22T09:12:55Z</time></trkpt><trkpt lat="59.0830709506" lon="29.9976109620"><ele>86.66</ele><time>2026-04-22T09:13:08Z</time></trkpt><trkpt lat="59.0831701923" lon="29.9977895804"><ele>86.66</ele><time>2026-04-22T09:13:19Z</time></trkpt><trkpt lat="59.0831930749" lon="29.9979746528"><ele>86.66</ele><time>2026-04-22T09:13:32Z</time></trkpt><trkpt lat="59.0832481440" lon="29.9980937596"><ele>86.66</ele><time>2026-04-22T09:13:49Z</time></trkpt><trkpt lat="59.0832743794" lon="29.9982674327"><ele>86.66</ele><time>2026-04-22T09:14:04Z</time></trkpt><trkpt lat="59.0833060630" lon="29.9984350707"><ele>86.66</ele><time>2026-04-22T09:14:16Z</time></trkpt><trkpt lat="59.0833676700" lon="29.9986429419"><ele>86.66</ele><time>2026-04-22T09:14:31Z</time></trkpt><trkpt lat="59.0834611282" lon="29.9987411778"><ele>86.66</ele><time>2026-04-22T09:14:44Z</time></trkpt><trkpt lat="59.0835142694" lon="29.9987260066"><ele>86.66</ele><time>2026-04-22T09:14:58Z</time></trkpt><trkpt lat="59.0834920574" lon="29.9988483824"><ele>86.66</ele><time>2026-04-22T09:15:14Z</time></trkpt><trkpt lat="59.0834584460" lon="29.9989814870"><ele>86.66</ele><time>2026-04-22T09:15:28Z</time></trkpt><trkpt lat="59.0834149439" lon="29.9991938844"><ele>86.66</ele><time>2026-04-22T09:15:42Z</time></trkpt><trkpt lat="59.0833457094" lon="29.9993264861"><ele>86.66</ele><time>2026-04-22T09:15:55Z</time></trkpt><trkpt lat="59.0832810011" lon="29.9994595069"><ele>86.18</ele><time>2026-04-22T09:16:09Z</time></trkpt><trkpt lat="59.0832231659" lon="29.9996361975"><ele>86.18</ele><time>2026-04-22T09:16:22Z</time></trkpt><trkpt lat="59.0831711143" lon="29.9996929429"><ele>86.18</ele><time>2026-04-22T09:16:38Z</time></trkpt><trkpt lat="59.0831323061" lon="29.9997141492"><ele>87.62</ele><time>2026-04-22T09:16:45Z</time></trkpt><trkpt lat="59.0831390955" lon="29.9996773526"><ele>87.62</ele><time>2026-04-22T09:17:02Z</time></trkpt><trkpt lat="59.0832442883" lon="29.9997509457"><ele>87.14</ele><time>2026-04-22T09:17:17Z</time></trkpt><trkpt lat="59.0833082423" lon="29.9998117145"><ele>87.14</ele><time>2026-04-22T09:17:30Z</time></trkpt><trkpt lat="59.0833214857" lon="29.9998314120"><ele>87.14</ele><time>2026-04-22T09:17:44Z</time></trkpt><trkpt lat="59.0833452065" lon="29.9998366088"><ele>86.66</ele><time>2026-04-22T09:18:07Z</time></trkpt><trkpt lat="59.0833661612" lon="29.9998020753"><ele>86.18</ele><time>2026-04-22T09:18:30Z</time></trkpt><trkpt lat="59.0834005270" lon="29.9998123851"><ele>89.54</ele><time>2026-04-22T09:18:48Z</time></trkpt><trkpt lat="59.0834071487" lon="29.9998346809"><ele>86.18</ele><time>2026-04-22T09:19:09Z</time></trkpt><trkpt lat="59.0834088251" lon="29.9998337589"><ele>84.25</ele><time>2026-04-22T09:19:11Z</time></trkpt><trkpt lat="59.0834204759" lon="29.9998244550"><ele>87.62</ele><time>2026-04-22T09:19:27Z</time></trkpt><trkpt lat="59.0834108368" lon="29.9998361059"><ele>85.69</ele><time>2026-04-22T09:19:53Z</time></trkpt><trkpt lat="59.0834483877" lon="29.9998462480"><ele>85.69</ele><time>2026-04-22T09:20:08Z</time></trkpt><trkpt lat="59.0835096594" lon="29.9999416340"><ele>85.21</ele><time>2026-04-22T09:20:21Z</time></trkpt><trkpt lat="59.0835866891" lon="29.9999171589"><ele>84.73</ele><time>2026-04-22T09:20:35Z</time></trkpt><trkpt lat="59.0836574323" lon="29.9999806099"><ele>84.25</ele><time>2026-04-22T09:20:53Z</time></trkpt><trkpt lat="59.0836775489" lon="30.0000199210"><ele>83.77</ele><time>2026-04-22T09:21:14Z</time></trkpt><trkpt lat="59.0837149322" lon="30.0000221841"><ele>83.77</ele><time>2026-04-22T09:21:30Z</time></trkpt><trkpt lat="59.0837756172" lon="30.0000588968"><ele>83.77</ele><time>2026-04-22T09:21:45Z</time></trkpt><trkpt lat="59.0838375594" lon="30.0000689551"><ele>83.29</ele><time>2026-04-22T09:21:58Z</time></trkpt><trkpt lat="59.0838551614" lon="30.0001080148"><ele>83.29</ele><time>2026-04-22T09:22:12Z</time></trkpt><trkpt lat="59.0839054529" lon="30.0001282152"><ele>84.25</ele><time>2026-04-22T09:22:30Z</time></trkpt><trkpt lat="59.0839609411" lon="30.0001629163"><ele>84.25</ele><time>2026-04-22T09:22:46Z</time></trkpt><trkpt lat="59.0839911997" lon="30.0001045782"><ele>84.25</ele><time>2026-04-22T09:23:04Z</time></trkpt><trkpt lat="59.0841016732" lon="29.9999454897"><ele>84.25</ele><time>2026-04-22T09:23:18Z</time></trkpt><trkpt lat="59.0842478536" lon="29.9999946076"><ele>84.73</ele><time>2026-04-22T09:23:37Z</time></trkpt><trkpt lat="59.0843840595" lon="30.0001963601"><ele>84.73</ele><time>2026-04-22T09:23:56Z</time></trkpt><trkpt lat="59.0844090376" lon="30.0002391916"><ele>84.25</ele><time>2026-04-22T09:24:12Z</time></trkpt><trkpt lat="59.0844445769" lon="30.0001915824"><ele>84.25</ele><time>2026-04-22T09:24:26Z</time></trkpt><trkpt lat="59.0845313296" lon="30.0000391994"><ele>84.25</ele><time>2026-04-22T09:24:40Z</time></trkpt><trkpt lat="59.0846313257" lon="29.9999392033"><ele>84.25</ele><time>2026-04-22T09:24:55Z</time></trkpt><trkpt lat="59.0847129654" lon="29.9999401253"><ele>83.77</ele><time>2026-04-22T09:25:09Z</time></trkpt><trkpt lat="59.0848118719" lon="30.0000091922"><ele>83.77</ele><time>2026-04-22T09:25:21Z</time></trkpt><trkpt lat="59.0848960262" lon="30.0000791810"><ele>83.77</ele><time>2026-04-22T09:25:35Z</time></trkpt><trkpt lat="59.0850088466" lon="30.0000899937"><ele>83.77</ele><time>2026-04-22T09:25:50Z</time></trkpt><trkpt lat="59.0850761533" lon="30.0000883173"><ele>83.29</ele><time>2026-04-22T09:26:02Z</time></trkpt><trkpt lat="59.0851191524" lon="30.0001459848"><ele>83.29</ele><time>2026-04-22T09:26:16Z</time></trkpt><trkpt lat="59.0851322282" lon="30.0002387725"><ele>82.33</ele><time>2026-04-22T09:26:34Z</time></trkpt><trkpt lat="59.0851699468" lon="30.0002593920"><ele>82.33</ele><time>2026-04-22T09:26:45Z</time></trkpt><trkpt lat="59.0851924103" lon="30.0002764910"><ele>82.33</ele><time>2026-04-22T09:26:59Z</time></trkpt><trkpt lat="59.0851996187" lon="30.0002861302"><ele>81.85</ele><time>2026-04-22T09:27:16Z</time></trkpt><trkpt lat="59.0852128621" lon="30.0002955180"><ele>81.85</ele><time>2026-04-22T09:27:35Z</time></trkpt><trkpt lat="59.0852363314" lon="30.0002865493"><ele>81.85</ele><time>2026-04-22T09:27:49Z</time></trkpt><trkpt lat="59.0852833539" lon="30.0003033131"><ele>81.85</ele><time>2026-04-22T09:28:02Z</time></trkpt><trkpt lat="59.0853017103" lon="30.0003381819"><ele>81.85</ele><time>2026-04-22T09:28:21Z</time></trkpt><trkpt lat="59.0853188094" lon="30.0003603939"><ele>81.85</ele><time>2026-04-22T09:28:32Z</time></trkpt><trkpt lat="59.0853333101" lon="30.0003956817"><ele>81.85</ele><time>2026-04-22T09:28:47Z</time></trkpt><trkpt lat="59.0853468888" lon="30.0004190672"><ele>81.85</ele><time>2026-04-22T09:29:04Z</time></trkpt><trkpt lat="59.0853572823" lon="30.0004396029"><ele>81.37</ele><time>2026-04-22T09:29:20Z</time></trkpt><trkpt lat="59.0853475593" lon="30.0005021319"><ele>81.37</ele><time>2026-04-22T09:29:34Z</time></trkpt><trkpt lat="59.0853613056" lon="30.0005447119"><ele>81.37</ele><time>2026-04-22T09:29:54Z</time></trkpt><trkpt lat="59.0853607189" lon="30.0005972665"><ele>81.37</ele><time>2026-04-22T09:30:09Z</time></trkpt><trkpt lat="59.0853312984" lon="30.0006631482"><ele>81.37</ele><time>2026-04-22T09:30:27Z</time></trkpt><trkpt lat="59.0853522532" lon="30.0007342268"><ele>80.89</ele><time>2026-04-22T09:30:39Z</time></trkpt><trkpt lat="59.0853680950" lon="30.0006846059"><ele>80.89</ele><time>2026-04-22T09:30:56Z</time></trkpt><trkpt lat="59.0853974316" lon="30.0006859470"><ele>80.89</ele><time>2026-04-22T09:31:11Z</time></trkpt><trkpt lat="59.0854218230" lon="30.0006964244"><ele>80.89</ele><time>2026-04-22T09:31:25Z</time></trkpt><trkpt lat="59.0854565240" lon="30.0007021241"><ele>80.89</ele><time>2026-04-22T09:31:39Z</time></trkpt><trkpt lat="59.0854857769" lon="30.0007088296"><ele>80.89</ele><time>2026-04-22T09:31:54Z</time></trkpt><trkpt lat="59.0854909737" lon="30.0007117633"><ele>80.89</ele><time>2026-04-22T09:32:17Z</time></trkpt><trkpt lat="59.0855193883" lon="30.0006954186"><ele>80.41</ele><time>2026-04-22T09:32:40Z</time></trkpt><trkpt lat="59.0856274310" lon="30.0006760564"><ele>80.41</ele><time>2026-04-22T09:32:54Z</time></trkpt><trkpt lat="59.0856524929" lon="30.0005379226"><ele>80.41</ele><time>2026-04-22T09:33:10Z</time></trkpt><trkpt lat="59.0857208893" lon="30.0005170517"><ele>80.41</ele><time>2026-04-22T09:33:27Z</time></trkpt><trkpt lat="59.0858178679" lon="30.0004527625"><ele>80.41</ele><time>2026-04-22T09:33:43Z</time></trkpt><trkpt lat="59.0858601965" lon="30.0004422851"><ele>79.93</ele><time>2026-04-22T09:33:59Z</time></trkpt><trkpt lat="59.0859327000" lon="30.0004389323"><ele>79.93</ele><time>2026-04-22T09:34:15Z</time></trkpt><trkpt lat="59.0860105678" lon="30.0005010422"><ele>79.93</ele><time>2026-04-22T09:34:28Z</time></trkpt><trkpt lat="59.0860503819" lon="30.0005064066"><ele>79.93</ele><time>2026-04-22T09:34:40Z</time></trkpt><trkpt lat="59.0861367993" lon="30.0004947558"><ele>80.89</ele><time>2026-04-22T09:34:54Z</time></trkpt><trkpt lat="59.0861989092" lon="30.0005395152"><ele>81.37</ele><time>2026-04-22T09:35:09Z</time></trkpt><trkpt lat="59.0862402320" lon="30.0006157905"><ele>80.89</ele><time>2026-04-22T09:35:22Z</time></trkpt><trkpt lat="59.0862885956" lon="30.0006490666"><ele>80.89</ele><time>2026-04-22T09:35:34Z</time></trkpt><trkpt lat="59.0863226261" lon="30.0006398465"><ele>80.89</ele><time>2026-04-22T09:35:55Z</time></trkpt><trkpt lat="59.0863294154" lon="30.0006457139"><ele>80.89</ele><time>2026-04-22T09:36:16Z</time></trkpt><trkpt lat="59.0863543097" lon="30.0006447919"><ele>80.89</ele><time>2026-04-22T09:36:44Z</time></trkpt><trkpt lat="59.0863634460" lon="30.0006395951"><ele>80.41</ele><time>2026-04-22T09:37:11Z</time></trkpt><trkpt lat="59.0864136536" lon="30.0007127691"><ele>80.41</ele><time>2026-04-22T09:37:28Z</time></trkpt><trkpt lat="59.0864517912" lon="30.0006618910"><ele>80.41</ele><time>2026-04-22T09:37:34Z</time></trkpt><trkpt lat="59.0865186788" lon="30.0006695185"><ele>80.41</ele><time>2026-04-22T09:37:45Z</time></trkpt><trkpt lat="59.0865537152" lon="30.0006204005"><ele>80.41</ele><time>2026-04-22T09:37:58Z</time></trkpt><trkpt lat="59.0866599977" lon="30.0005864538"><ele>80.41</ele><time>2026-04-22T09:38:13Z</time></trkpt><trkpt lat="59.0867184196" lon="30.0006172992"><ele>80.41</ele><time>2026-04-22T09:38:26Z</time></trkpt><trkpt lat="59.0868127998" lon="30.0006044749"><ele>80.41</ele><time>2026-04-22T09:38:41Z</time></trkpt><trkpt lat="59.0869342536" lon="30.0007779803"><ele>80.41</ele><time>2026-04-22T09:38:55Z</time></trkpt><trkpt lat="59.0870266221" lon="30.0007640664"><ele>80.41</ele><time>2026-04-22T09:39:10Z</time></trkpt><trkpt lat="59.0870613232" lon="30.0007887930"><ele>79.93</ele><time>2026-04-22T09:39:23Z</time></trkpt><trkpt lat="59.0870485827" lon="30.0007936545"><ele>79.93</ele><time>2026-04-22T09:39:56Z</time></trkpt><trkpt lat="59.0870396979" lon="30.0008136872"><ele>79.93</ele><time>2026-04-22T09:40:30Z</time></trkpt><trkpt lat="59.0871316474" lon="30.0008649845"><ele>79.93</ele><time>2026-04-22T09:40:47Z</time></trkpt><trkpt lat="59.0872400254" lon="30.0008769706"><ele>79.45</ele><time>2026-04-22T09:41:03Z</time></trkpt><trkpt lat="59.0873874631" lon="30.0008374918"><ele>79.45</ele><time>2026-04-22T09:41:19Z</time></trkpt><trkpt lat="59.0874853637" lon="30.0008613802"><ele>79.45</ele><time>2026-04-22T09:41:32Z</time></trkpt><trkpt lat="59.0875644051" lon="30.0009027869"><ele>79.45</ele><time>2026-04-22T09:41:48Z</time></trkpt><trkpt lat="59.0876271855" lon="30.0009172037"><ele>79.93</ele><time>2026-04-22T09:42:07Z</time></trkpt><trkpt lat="59.0877278522" lon="30.0009804871"><ele>79.93</ele><time>2026-04-22T09:42:22Z</time></trkpt><trkpt lat="59.0877845138" lon="30.0010100752"><ele>79.93</ele><time>2026-04-22T09:42:33Z</time></trkpt><trkpt lat="59.0878643095" lon="30.0010524038"><ele>79.93</ele><time>2026-04-22T09:42:47Z</time></trkpt><trkpt lat="59.0879041236" lon="30.0010810699"><ele>79.93</ele><time>2026-04-22T09:43:02Z</time></trkpt><trkpt lat="59.0879430994" lon="30.0010931399"><ele>79.45</ele><time>2026-04-22T09:43:15Z</time></trkpt><trkpt lat="59.0880053770" lon="30.0011244882"><ele>79.45</ele><time>2026-04-22T09:43:30Z</time></trkpt><trkpt lat="59.0880725998" lon="30.0011920463"><ele>79.45</ele><time>2026-04-22T09:43:42Z</time></trkpt><trkpt lat="59.0881363023" lon="30.0012332853"><ele>79.45</ele><time>2026-04-22T09:43:53Z</time></trkpt><trkpt lat="59.0881802235" lon="30.0012015179"><ele>79.45</ele><time>2026-04-22T09:44:03Z</time></trkpt><trkpt lat="59.0882402379" lon="30.0011615362"><ele>79.45</ele><time>2026-04-22T09:44:15Z</time></trkpt><trkpt lat="59.0882630367" lon="30.0011394918"><ele>78.97</ele><time>2026-04-22T09:44:30Z</time></trkpt><trkpt lat="59.0882810578" lon="30.0011444371"><ele>78.97</ele><time>2026-04-22T09:44:49Z</time></trkpt><trkpt lat="59.0883805510" lon="30.0011222251"><ele>78.97</ele><time>2026-04-22T09:45:04Z</time></trkpt><trkpt lat="59.0884321835" lon="30.0010948163"><ele>78.97</ele><time>2026-04-22T09:45:17Z</time></trkpt><trkpt lat="59.0884999093" lon="30.0011201296"><ele>77.52</ele><time>2026-04-22T09:45:29Z</time></trkpt><trkpt lat="59.0885351133" lon="30.0011458620"><ele>77.52</ele><time>2026-04-22T09:45:44Z</time></trkpt><trkpt lat="59.0885927808" lon="30.0011712592"><ele>77.52</ele><time>2026-04-22T09:45:59Z</time></trkpt><trkpt lat="59.0886025038" lon="30.0011658110"><ele>77.04</ele><time>2026-04-22T09:46:23Z</time></trkpt><trkpt lat="59.0886403061" lon="30.0011500530"><ele>77.04</ele><time>2026-04-22T09:46:36Z</time></trkpt><trkpt lat="59.0886798687" lon="30.0011632964"><ele>77.04</ele><time>2026-04-22T09:46:51Z</time></trkpt><trkpt lat="59.0887255501" lon="30.0011612847"><ele>77.04</ele><time>2026-04-22T09:47:05Z</time></trkpt><trkpt lat="59.0887686331" lon="30.0011972431"><ele>77.04</ele><time>2026-04-22T09:47:23Z</time></trkpt><trkpt lat="59.0888231155" lon="30.0012483727"><ele>77.04</ele><time>2026-04-22T09:47:40Z</time></trkpt><trkpt lat="59.0888263006" lon="30.0012671482"><ele>77.04</ele><time>2026-04-22T09:48:00Z</time></trkpt><trkpt lat="59.0888697188" lon="30.0012728479"><ele>76.56</ele><time>2026-04-22T09:48:32Z</time></trkpt><trkpt lat="59.0888734907" lon="30.0012917910"><ele>76.56</ele><time>2026-04-22T09:48:52Z</time></trkpt><trkpt lat="59.0888779331" lon="30.0013373047"><ele>77.52</ele><time>2026-04-22T09:49:06Z</time></trkpt><trkpt lat="59.0889206808" lon="30.0013598520"><ele>77.52</ele><time>2026-04-22T09:49:22Z</time></trkpt><trkpt lat="59.0889832936" lon="30.0013981573"><ele>77.52</ele><time>2026-04-22T09:49:37Z</time></trkpt><trkpt lat="59.0890047513" lon="30.0014361273"><ele>77.52</ele><time>2026-04-22T09:49:50Z</time></trkpt><trkpt lat="59.0890392009" lon="30.0014825631"><ele>77.52</ele><time>2026-04-22T09:50:03Z</time></trkpt><trkpt lat="59.0890953597" lon="30.0015665498"><ele>77.52</ele><time>2026-04-22T09:50:17Z</time></trkpt><trkpt lat="59.0891246125" lon="30.0015916955"><ele>77.52</ele><time>2026-04-22T09:50:34Z</time></trkpt><trkpt lat="59.0891462378" lon="30.0016680546"><ele>77.52</ele><time>2026-04-22T09:50:49Z</time></trkpt><trkpt lat="59.0891870577" lon="30.0017263927"><ele>77.52</ele><time>2026-04-22T09:51:05Z</time></trkpt><trkpt lat="59.0892235190" lon="30.0017714873"><ele>77.52</ele><time>2026-04-22T09:51:21Z</time></trkpt><trkpt lat="59.0892681945" lon="30.0019278936"><ele>77.52</ele><time>2026-04-22T09:51:34Z</time></trkpt><trkpt lat="59.0892792586" lon="30.0021271314"><ele>77.04</ele><time>2026-04-22T09:51:50Z</time></trkpt><trkpt lat="59.0892875567" lon="30.0021761656"><ele>77.04</ele><time>2026-04-22T09:52:06Z</time></trkpt><trkpt lat="59.0893226769" lon="30.0022320729"><ele>77.04</ele><time>2026-04-22T09:52:18Z</time></trkpt><trkpt lat="59.0893327352" lon="30.0022448972"><ele>77.04</ele><time>2026-04-22T09:52:35Z</time></trkpt><trkpt lat="59.0894117765" lon="30.0023829471"><ele>77.04</ele><time>2026-04-22T09:52:49Z</time></trkpt><trkpt lat="59.0894826036" lon="30.0024611503"><ele>77.04</ele><time>2026-04-22T09:53:05Z</time></trkpt><trkpt lat="59.0895536821" lon="30.0025056582"><ele>77.04</ele><time>2026-04-22T09:53:17Z</time></trkpt><trkpt lat="59.0896272752" lon="30.0025321450"><ele>77.04</ele><time>2026-04-22T09:53:30Z</time></trkpt><trkpt lat="59.0896820929" lon="30.0025699474"><ele>77.04</ele><time>2026-04-22T09:53:46Z</time></trkpt><trkpt lat="59.0897482261" lon="30.0026141200"><ele>77.04</ele><time>2026-04-22T09:54:00Z</time></trkpt><trkpt lat="59.0898298658" lon="30.0024336576"><ele>76.56</ele><time>2026-04-22T09:54:16Z</time></trkpt><trkpt lat="59.0898658242" lon="30.0023433845"><ele>76.56</ele><time>2026-04-22T09:54:29Z</time></trkpt><trkpt lat="59.0898808278" lon="30.0022261217"><ele>76.56</ele><time>2026-04-22T09:54:43Z</time></trkpt><trkpt lat="59.0898949932" lon="30.0021852180"><ele>76.56</ele><time>2026-04-22T09:54:59Z</time></trkpt><trkpt lat="59.0899391659" lon="30.0021418836"><ele>76.56</ele><time>2026-04-22T09:55:13Z</time></trkpt><trkpt lat="59.0899872780" lon="30.0020247046"><ele>76.56</ele><time>2026-04-22T09:55:28Z</time></trkpt><trkpt lat="59.0900581051" lon="30.0018660352"><ele>77.52</ele><time>2026-04-22T09:55:41Z</time></trkpt><trkpt lat="59.0900872741" lon="30.0017510355"><ele>77.04</ele><time>2026-04-22T09:55:50Z</time></trkpt><trkpt lat="59.0901200473" lon="30.0016343594"><ele>77.04</ele><time>2026-04-22T09:56:04Z</time></trkpt><trkpt lat="59.0902170260" lon="30.0016968045"><ele>77.04</ele><time>2026-04-22T09:56:20Z</time></trkpt><trkpt lat="59.0902659763" lon="30.0016849861"><ele>78.00</ele><time>2026-04-22T09:56:38Z</time></trkpt><trkpt lat="59.0902800579" lon="30.0016743410"><ele>78.00</ele><time>2026-04-22T09:57:02Z</time></trkpt><trkpt lat="59.0902824048" lon="30.0016688090"><ele>78.00</ele><time>2026-04-22T09:57:34Z</time></trkpt><trkpt lat="59.0902996715" lon="30.0016674679"><ele>77.52</ele><time>2026-04-22T09:58:07Z</time></trkpt><trkpt lat="59.0903129987" lon="30.0016641989"><ele>77.52</ele><time>2026-04-22T09:58:37Z</time></trkpt><trkpt lat="59.0903190337" lon="30.0016609300"><ele>77.52</ele><time>2026-04-22T09:59:04Z</time></trkpt><trkpt lat="59.0903181117" lon="30.0016396400"><ele>77.52</ele><time>2026-04-22T09:59:29Z</time></trkpt><trkpt lat="59.0903472807" lon="30.0016590860"><ele>78.00</ele><time>2026-04-22T09:59:53Z</time></trkpt><trkpt lat="59.0904112346" lon="30.0016748440"><ele>78.00</ele><time>2026-04-22T10:00:10Z</time></trkpt><trkpt lat="59.0904870909" lon="30.0017285720"><ele>78.00</ele><time>2026-04-22T10:00:25Z</time></trkpt><trkpt lat="59.0905071236" lon="30.0017184298"><ele>78.48</ele><time>2026-04-22T10:00:40Z</time></trkpt><trkpt lat="59.0905209538" lon="30.0017328467"><ele>78.48</ele><time>2026-04-22T10:00:45Z</time></trkpt><trkpt lat="59.0906340256" lon="30.0017155800"><ele>78.48</ele><time>2026-04-22T10:00:57Z</time></trkpt><trkpt lat="59.0907049365" lon="30.0017184298"><ele>78.48</ele><time>2026-04-22T10:01:10Z</time></trkpt><trkpt lat="59.0907657053" lon="30.0016541407"><ele>78.00</ele><time>2026-04-22T10:01:26Z</time></trkpt><trkpt lat="59.0908324253" lon="30.0016890094"><ele>78.00</ele><time>2026-04-22T10:01:42Z</time></trkpt><trkpt lat="59.0909510292" lon="30.0016445853"><ele>78.00</ele><time>2026-04-22T10:01:57Z</time></trkpt><trkpt lat="59.0910409670" lon="30.0016408972"><ele>78.00</ele><time>2026-04-22T10:02:11Z</time></trkpt><trkpt lat="59.0910999756" lon="30.0016076211"><ele>78.00</ele><time>2026-04-22T10:02:24Z</time></trkpt><trkpt lat="59.0911967028" lon="30.0016370416"><ele>78.00</ele><time>2026-04-22T10:02:37Z</time></trkpt><trkpt lat="59.0912886523" lon="30.0016351137"><ele>77.52</ele><time>2026-04-22T10:02:52Z</time></trkpt><trkpt lat="59.0913914144" lon="30.0015655439"><ele>77.52</ele><time>2026-04-22T10:03:05Z</time></trkpt><trkpt lat="59.0915187355" lon="30.0015804637"><ele>77.52</ele><time>2026-04-22T10:03:17Z</time></trkpt><trkpt lat="59.0916208271" lon="30.0016814657"><ele>77.52</ele><time>2026-04-22T10:03:30Z</time></trkpt><trkpt lat="59.0917290375" lon="30.0017143227"><ele>77.52</ele><time>2026-04-22T10:03:42Z</time></trkpt><trkpt lat="59.0918049775" lon="30.0017427374"><ele>77.52</ele><time>2026-04-22T10:03:55Z</time></trkpt><trkpt lat="59.0918483958" lon="30.0017900113"><ele>77.52</ele><time>2026-04-22T10:04:11Z</time></trkpt><trkpt lat="59.0919549298" lon="30.0018440746"><ele>77.52</ele><time>2026-04-22T10:04:25Z</time></trkpt><trkpt lat="59.0920493938" lon="30.0018966291"><ele>76.56</ele><time>2026-04-22T10:04:38Z</time></trkpt><trkpt lat="59.0921089053" lon="30.0019489322"><ele>76.56</ele><time>2026-04-22T10:04:53Z</time></trkpt><trkpt lat="59.0921706799" lon="30.0019937754"><ele>76.56</ele><time>2026-04-22T10:05:09Z</time></trkpt><trkpt lat="59.0922180377" lon="30.0020079408"><ele>76.56</ele><time>2026-04-22T10:05:25Z</time></trkpt><trkpt lat="59.0922921337" lon="30.0020491797"><ele>76.08</ele><time>2026-04-22T10:05:41Z</time></trkpt><trkpt lat="59.0923386533" lon="30.0021360163"><ele>76.08</ele><time>2026-04-22T10:05:56Z</time></trkpt><trkpt lat="59.0923556685" lon="30.0021215994"><ele>76.08</ele><time>2026-04-22T10:06:09Z</time></trkpt><trkpt lat="59.0923874360" lon="30.0021514390"><ele>76.08</ele><time>2026-04-22T10:06:27Z</time></trkpt><trkpt lat="59.0923902858" lon="30.0021952763"><ele>76.08</ele><time>2026-04-22T10:06:46Z</time></trkpt><trkpt lat="59.0924602747" lon="30.0022144709"><ele>76.08</ele><time>2026-04-22T10:07:00Z</time></trkpt><trkpt lat="59.0925030224" lon="30.0022568833"><ele>76.08</ele><time>2026-04-22T10:07:15Z</time></trkpt><trkpt lat="59.0925235581" lon="30.0022839569"><ele>76.08</ele><time>2026-04-22T10:07:33Z</time></trkpt><trkpt lat="59.0925274976" lon="30.0023178197"><ele>76.08</ele><time>2026-04-22T10:07:55Z</time></trkpt><trkpt lat="59.0925334487" lon="30.0023429655"><ele>76.08</ele><time>2026-04-22T10:08:13Z</time></trkpt><trkpt lat="59.0925347898" lon="30.0023653451"><ele>75.60</ele><time>2026-04-22T10:08:33Z</time></trkpt><trkpt lat="59.0925295092" lon="30.0023609027"><ele>75.60</ele><time>2026-04-22T10:08:47Z</time></trkpt><trkpt lat="59.0925682336" lon="30.0023633335"><ele>75.60</ele><time>2026-04-22T10:09:02Z</time></trkpt><trkpt lat="59.0926459339" lon="30.0022932608"><ele>75.60</ele><time>2026-04-22T10:09:18Z</time></trkpt><trkpt lat="59.0927616879" lon="30.0022761617"><ele>75.12</ele><time>2026-04-22T10:09:33Z</time></trkpt><trkpt lat="59.0928408131" lon="30.0021559652"><ele>75.12</ele><time>2026-04-22T10:09:48Z</time></trkpt><trkpt lat="59.0929114725" lon="30.0021259580"><ele>76.08</ele><time>2026-04-22T10:10:03Z</time></trkpt><trkpt lat="59.0930245444" lon="30.0021318253"><ele>76.08</ele><time>2026-04-22T10:10:18Z</time></trkpt><trkpt lat="59.0930900909" lon="30.0021526124"><ele>75.60</ele><time>2026-04-22T10:10:36Z</time></trkpt><trkpt lat="59.0931605827" lon="30.0021834578"><ele>75.60</ele><time>2026-04-22T10:10:54Z</time></trkpt><trkpt lat="59.0933044162" lon="30.0022744015"><ele>75.60</ele><time>2026-04-22T10:11:11Z</time></trkpt><trkpt lat="59.0933913365" lon="30.0023692846"><ele>75.60</ele><time>2026-04-22T10:11:27Z</time></trkpt><trkpt lat="59.0934552904" lon="30.0024140440"><ele>75.60</ele><time>2026-04-22T10:11:44Z</time></trkpt><trkpt lat="59.0934886504" lon="30.0024145469"><ele>75.12</ele><time>2026-04-22T10:12:05Z</time></trkpt><trkpt lat="59.0934907459" lon="30.0024318974"><ele>75.12</ele><time>2026-04-22T10:12:32Z</time></trkpt><trkpt lat="59.0934991278" lon="30.0024509244"><ele>75.12</ele><time>2026-04-22T10:12:53Z</time></trkpt><trkpt lat="59.0935127065" lon="30.0024826918"><ele>75.12</ele><time>2026-04-22T10:13:12Z</time></trkpt><trkpt lat="59.0935428813" lon="30.0025218353"><ele>75.12</ele><time>2026-04-22T10:13:30Z</time></trkpt><trkpt lat="59.0936268680" lon="30.0025666784"><ele>75.12</ele><time>2026-04-22T10:13:46Z</time></trkpt><trkpt lat="59.0937732998" lon="30.0025064964"><ele>74.64</ele><time>2026-04-22T10:14:01Z</time></trkpt><trkpt lat="59.0938682668" lon="30.0024545286"><ele>74.64</ele><time>2026-04-22T10:14:16Z</time></trkpt><trkpt lat="59.0940214042" lon="30.0023126230"><ele>74.64</ele><time>2026-04-22T10:14:31Z</time></trkpt><trkpt lat="59.0940810833" lon="30.0023147184"><ele>74.64</ele><time>2026-04-22T10:14:48Z</time></trkpt><trkpt lat="59.0941528324" lon="30.0022949371"><ele>74.64</ele><time>2026-04-22T10:15:00Z</time></trkpt><trkpt lat="59.0942322928" lon="30.0022956915"><ele>74.64</ele><time>2026-04-22T10:15:11Z</time></trkpt><trkpt lat="59.0943196323" lon="30.0022312347"><ele>74.64</ele><time>2026-04-22T10:15:27Z</time></trkpt><trkpt lat="59.0943798982" lon="30.0021540374"><ele>74.64</ele><time>2026-04-22T10:15:44Z</time></trkpt><trkpt lat="59.0944264177" lon="30.0021242816"><ele>74.64</ele><time>2026-04-22T10:16:01Z</time></trkpt><trkpt lat="59.0945283417" lon="30.0021049194"><ele>74.64</ele><time>2026-04-22T10:16:16Z</time></trkpt><trkpt lat="59.0946062095" lon="30.0020299852"><ele>74.64</ele><time>2026-04-22T10:16:30Z</time></trkpt><trkpt lat="59.0946216322" lon="30.0019423943"><ele>74.64</ele><time>2026-04-22T10:16:43Z</time></trkpt><trkpt lat="59.0946218837" lon="30.0017775223"><ele>74.64</ele><time>2026-04-22T10:16:55Z</time></trkpt><trkpt lat="59.0945787169" lon="30.0016332697"><ele>74.64</ele><time>2026-04-22T10:17:07Z</time></trkpt><trkpt lat="59.0945371427" lon="30.0014024321"><ele>75.60</ele><time>2026-04-22T10:17:22Z</time></trkpt><trkpt lat="59.0945173614" lon="30.0013294257"><ele>77.04</ele><time>2026-04-22T10:17:35Z</time></trkpt><trkpt lat="59.0945321973" lon="30.0013803039"><ele>75.60</ele><time>2026-04-22T10:17:50Z</time></trkpt><trkpt lat="59.0944904555" lon="30.0014179386"><ele>75.60</ele><time>2026-04-22T10:18:05Z</time></trkpt><trkpt lat="59.0944004338" lon="30.0014393125"><ele>75.60</ele><time>2026-04-22T10:18:15Z</time></trkpt><trkpt lat="59.0942981746" lon="30.0015310105"><ele>75.60</ele><time>2026-04-22T10:18:28Z</time></trkpt><trkpt lat="59.0942890383" lon="30.0016195234"><ele>75.60</ele><time>2026-04-22T10:18:41Z</time></trkpt><trkpt lat="59.0942498948" lon="30.0017435756"><ele>75.60</ele><time>2026-04-22T10:18:56Z</time></trkpt><trkpt lat="59.0941970889" lon="30.0017604232"><ele>75.12</ele><time>2026-04-22T10:19:09Z</time></trkpt><trkpt lat="59.0940860286" lon="30.0017872453"><ele>75.12</ele><time>2026-04-22T10:19:21Z</time></trkpt><trkpt lat="59.0940453764" lon="30.0017901789"><ele>75.12</ele><time>2026-04-22T10:19:37Z</time></trkpt><trkpt lat="59.0939807519" lon="30.0018202700"><ele>75.12</ele><time>2026-04-22T10:19:50Z</time></trkpt><trkpt lat="59.0939685144" lon="30.0018211920"><ele>71.76</ele><time>2026-04-22T10:19:55Z</time></trkpt><trkpt lat="59.0939588752" lon="30.0018242933"><ele>71.76</ele><time>2026-04-22T10:20:00Z</time></trkpt><trkpt lat="59.0939586237" lon="30.0017804559"><ele>75.60</ele><time>2026-04-22T10:20:04Z</time></trkpt><trkpt lat="59.0939713642" lon="30.0017117243"><ele>77.04</ele><time>2026-04-22T10:20:18Z</time></trkpt><trkpt lat="59.0939820930" lon="30.0016128179"><ele>75.60</ele><time>2026-04-22T10:20:37Z</time></trkpt><trkpt lat="59.0939908102" lon="30.0015735067"><ele>75.60</ele><time>2026-04-22T10:20:55Z</time></trkpt><trkpt lat="59.0939919837" lon="30.0015129056"><ele>75.60</ele><time>2026-04-22T10:21:15Z</time></trkpt><trkpt lat="59.0940020420" lon="30.0015092175"><ele>75.60</ele><time>2026-04-22T10:21:28Z</time></trkpt><trkpt lat="59.0940082446" lon="30.0015014224"><ele>75.60</ele><time>2026-04-22T10:21:39Z</time></trkpt><trkpt lat="59.0940070711" lon="30.0014466885"><ele>75.60</ele><time>2026-04-22T10:21:55Z</time></trkpt><trkpt lat="59.0940252598" lon="30.0014412403"><ele>75.60</ele><time>2026-04-22T10:22:14Z</time></trkpt><trkpt lat="59.0940342285" lon="30.0014000013"><ele>75.60</ele><time>2026-04-22T10:22:26Z</time></trkpt><trkpt lat="59.0940676723" lon="30.0013177749"><ele>75.60</ele><time>2026-04-22T10:22:42Z</time></trkpt><trkpt lat="59.0941374935" lon="30.0011671521"><ele>75.60</ele><time>2026-04-22T10:22:56Z</time></trkpt><trkpt lat="59.0941723622" lon="30.0010040402"><ele>76.56</ele><time>2026-04-22T10:23:09Z</time></trkpt><trkpt lat="59.0942471288" lon="30.0007919781"><ele>76.08</ele><time>2026-04-22T10:23:23Z</time></trkpt><trkpt lat="59.0943192970" lon="30.0007587019"><ele>76.08</ele><time>2026-04-22T10:23:39Z</time></trkpt><trkpt lat="59.0944494680" lon="30.0005769823"><ele>76.08</ele><time>2026-04-22T10:23:55Z</time></trkpt><trkpt lat="59.0945243184" lon="30.0004199892"><ele>76.56</ele><time>2026-04-22T10:24:12Z</time></trkpt><trkpt lat="59.0945767891" lon="30.0003225077"><ele>76.56</ele><time>2026-04-22T10:24:26Z</time></trkpt><trkpt lat="59.0945941396" lon="29.9999989662"><ele>76.56</ele><time>2026-04-22T10:24:39Z</time></trkpt><trkpt lat="59.0945669822" lon="29.9997422285"><ele>77.52</ele><time>2026-04-22T10:24:51Z</time></trkpt><trkpt lat="59.0945647191" lon="29.9996962119"><ele>77.52</ele><time>2026-04-22T10:24:53Z</time></trkpt><trkpt lat="59.0945349634" lon="29.9993958045"><ele>77.52</ele><time>2026-04-22T10:25:06Z</time></trkpt><trkpt lat="59.0945198759" lon="29.9993306771"><ele>77.52</ele><time>2026-04-22T10:25:09Z</time></trkpt><trkpt lat="59.0944855101" lon="29.9992054515"><ele>77.52</ele><time>2026-04-22T10:25:15Z</time></trkpt><trkpt lat="59.0944376495" lon="29.9988826644"><ele>77.52</ele><time>2026-04-22T10:25:30Z</time></trkpt><trkpt lat="59.0943701752" lon="29.9985908065"><ele>77.52</ele><time>2026-04-22T10:25:43Z</time></trkpt><trkpt lat="59.0943140164" lon="29.9982947577"><ele>77.52</ele><time>2026-04-22T10:25:55Z</time></trkpt><trkpt lat="59.0943038743" lon="29.9982251879"><ele>77.52</ele><time>2026-04-22T10:25:58Z</time></trkpt><trkpt lat="59.0942575224" lon="29.9978877325"><ele>77.52</ele><time>2026-04-22T10:26:13Z</time></trkpt><trkpt lat="59.0941403434" lon="29.9973978940"><ele>77.52</ele><time>2026-04-22T10:26:31Z</time></trkpt><trkpt lat="59.0941015352" lon="29.9970898591"><ele>78.00</ele><time>2026-04-22T10:26:46Z</time></trkpt><trkpt lat="59.0940648224" lon="29.9969126657"><ele>78.00</ele><time>2026-04-22T10:26:55Z</time></trkpt><trkpt lat="59.0940247569" lon="29.9966746196"><ele>78.00</ele><time>2026-04-22T10:27:06Z</time></trkpt><trkpt lat="59.0939922351" lon="29.9964856077"><ele>78.00</ele><time>2026-04-22T10:27:15Z</time></trkpt><trkpt lat="59.0939028002" lon="29.9960591365"><ele>78.48</ele><time>2026-04-22T10:27:33Z</time></trkpt><trkpt lat="59.0938888025" lon="29.9959492497"><ele>78.48</ele><time>2026-04-22T10:27:39Z</time></trkpt><trkpt lat="59.0938320570" lon="29.9956659414"><ele>78.48</ele><time>2026-04-22T10:27:54Z</time></trkpt><trkpt lat="59.0938026365" lon="29.9953506142"><ele>78.97</ele><time>2026-04-22T10:28:08Z</time></trkpt><trkpt lat="59.0937370900" lon="29.9950487819"><ele>78.97</ele><time>2026-04-22T10:28:24Z</time></trkpt><trkpt lat="59.0937108546" lon="29.9948630389"><ele>78.97</ele><time>2026-04-22T10:28:37Z</time></trkpt><trkpt lat="59.0936356690" lon="29.9945194647"><ele>79.45</ele><time>2026-04-22T10:28:54Z</time></trkpt><trkpt lat="59.0936129540" lon="29.9942795746"><ele>79.45</ele><time>2026-04-22T10:29:06Z</time></trkpt><trkpt lat="59.0936066676" lon="29.9939516746"><ele>79.45</ele><time>2026-04-22T10:29:20Z</time></trkpt><trkpt lat="59.0935769118" lon="29.9937199149"><ele>79.45</ele><time>2026-04-22T10:29:32Z</time></trkpt><trkpt lat="59.0935100242" lon="29.9934902508"><ele>79.45</ele><time>2026-04-22T10:29:43Z</time></trkpt><trkpt lat="59.0934534464" lon="29.9933418911"><ele>79.45</ele><time>2026-04-22T10:29:51Z</time></trkpt><trkpt lat="59.0934293903" lon="29.9932140671"><ele>79.45</ele><time>2026-04-22T10:29:57Z</time></trkpt><trkpt lat="59.0933731478" lon="29.9929935392"><ele>79.45</ele><time>2026-04-22T10:30:09Z</time></trkpt><trkpt lat="59.0933645144" lon="29.9929190241"><ele>79.45</ele><time>2026-04-22T10:30:13Z</time></trkpt><trkpt lat="59.0933273826" lon="29.9925691634"><ele>79.93</ele><time>2026-04-22T10:30:29Z</time></trkpt><trkpt lat="59.0932832938" lon="29.9922897108"><ele>79.93</ele><time>2026-04-22T10:30:44Z</time></trkpt><trkpt lat="59.0932563879" lon="29.9921521638"><ele>79.93</ele><time>2026-04-22T10:30:50Z</time></trkpt><trkpt lat="59.0932146460" lon="29.9919637386"><ele>79.93</ele><time>2026-04-22T10:30:59Z</time></trkpt><trkpt lat="59.0931537095" lon="29.9917076714"><ele>79.93</ele><time>2026-04-22T10:31:11Z</time></trkpt><trkpt lat="59.0931522008" lon="29.9916407000"><ele>79.93</ele><time>2026-04-22T10:31:15Z</time></trkpt><trkpt lat="59.0931180865" lon="29.9913798552"><ele>79.93</ele><time>2026-04-22T10:31:27Z</time></trkpt><trkpt lat="59.0931180026" lon="29.9913355149"><ele>79.93</ele><time>2026-04-22T10:31:29Z</time></trkpt><trkpt lat="59.0930704772" lon="29.9911538791"><ele>79.93</ele><time>2026-04-22T10:31:37Z</time></trkpt><trkpt lat="59.0930613410" lon="29.9910787772"><ele>79.93</ele><time>2026-04-22T10:31:41Z</time></trkpt><trkpt lat="59.0930529591" lon="29.9910382088"><ele>78.97</ele><time>2026-04-22T10:31:43Z</time></trkpt><trkpt lat="59.0930306632" lon="29.9908398092"><ele>78.97</ele><time>2026-04-22T10:31:52Z</time></trkpt><trkpt lat="59.0930151567" lon="29.9907414056"><ele>78.97</ele><time>2026-04-22T10:31:57Z</time></trkpt><trkpt lat="59.0929859038" lon="29.9905114900"><ele>78.97</ele><time>2026-04-22T10:32:09Z</time></trkpt><trkpt lat="59.0929835569" lon="29.9904751126"><ele>78.48</ele><time>2026-04-22T10:32:11Z</time></trkpt><trkpt lat="59.0929962136" lon="29.9901825842"><ele>78.48</ele><time>2026-04-22T10:32:26Z</time></trkpt><trkpt lat="59.0929425694" lon="29.9899919797"><ele>78.48</ele><time>2026-04-22T10:32:35Z</time></trkpt><trkpt lat="59.0929158311" lon="29.9898087513"><ele>78.48</ele><time>2026-04-22T10:32:44Z</time></trkpt><trkpt lat="59.0929048508" lon="29.9897067435"><ele>78.48</ele><time>2026-04-22T10:32:49Z</time></trkpt><trkpt lat="59.0929059405" lon="29.9896658398"><ele>78.48</ele><time>2026-04-22T10:32:51Z</time></trkpt><trkpt lat="59.0928780288" lon="29.9895406980"><ele>78.00</ele><time>2026-04-22T10:32:58Z</time></trkpt><trkpt lat="59.0928434953" lon="29.9894196633"><ele>78.00</ele><time>2026-04-22T10:33:04Z</time></trkpt><trkpt lat="59.0928467643" lon="29.9893614091"><ele>78.00</ele><time>2026-04-22T10:33:07Z</time></trkpt><trkpt lat="59.0927381348" lon="29.9890402146"><ele>78.00</ele><time>2026-04-22T10:33:20Z</time></trkpt><trkpt lat="59.0927056968" lon="29.9889022484"><ele>78.00</ele><time>2026-04-22T10:33:26Z</time></trkpt><trkpt lat="59.0925997496" lon="29.9886053614"><ele>77.52</ele><time>2026-04-22T10:33:40Z</time></trkpt><trkpt lat="59.0925712511" lon="29.9883970711"><ele>77.52</ele><time>2026-04-22T10:33:49Z</time></trkpt><trkpt lat="59.0924984124" lon="29.9881568458"><ele>77.52</ele><time>2026-04-22T10:34:00Z</time></trkpt><trkpt lat="59.0924505517" lon="29.9878924806"><ele>77.52</ele><time>2026-04-22T10:34:11Z</time></trkpt><trkpt lat="59.0924296807" lon="29.9878071528"><ele>77.52</ele><time>2026-04-22T10:34:15Z</time></trkpt><trkpt lat="59.0924005955" lon="29.9876590446"><ele>77.52</ele><time>2026-04-22T10:34:22Z</time></trkpt><trkpt lat="59.0923425090" lon="29.9873216730"><ele>77.52</ele><time>2026-04-22T10:34:38Z</time></trkpt><trkpt lat="59.0923056286" lon="29.9871088564"><ele>77.52</ele><time>2026-04-22T10:34:48Z</time></trkpt><trkpt lat="59.0923026949" lon="29.9870877340"><ele>77.52</ele><time>2026-04-22T10:34:49Z</time></trkpt><trkpt lat="59.0922539961" lon="29.9868406355"><ele>77.52</ele><time>2026-04-22T10:35:01Z</time></trkpt><trkpt lat="59.0922228992" lon="29.9866587482"><ele>77.52</ele><time>2026-04-22T10:35:14Z</time></trkpt><trkpt lat="59.0922254138" lon="29.9866697285"><ele>77.52</ele><time>2026-04-22T10:35:31Z</time></trkpt><trkpt lat="59.0922297724" lon="29.9866612628"><ele>77.52</ele><time>2026-04-22T10:35:46Z</time></trkpt><trkpt lat="59.0922370646" lon="29.9866610114"><ele>78.48</ele><time>2026-04-22T10:36:14Z</time></trkpt><trkpt lat="59.0922367293" lon="29.9866597541"><ele>78.48</ele><time>2026-04-22T10:36:35Z</time></trkpt><trkpt lat="59.0922469553" lon="29.9866719078"><ele>78.97</ele><time>2026-04-22T10:37:02Z</time></trkpt><trkpt lat="59.0922388248" lon="29.9866940361"><ele>78.97</ele><time>2026-04-22T10:37:16Z</time></trkpt><trkpt lat="59.0922327060" lon="29.9867102131"><ele>78.97</ele><time>2026-04-22T10:37:38Z</time></trkpt><trkpt lat="59.0922345500" lon="29.9867210258"><ele>78.97</ele><time>2026-04-22T10:38:08Z</time></trkpt><trkpt lat="59.0922387410" lon="29.9867283180"><ele>78.97</ele><time>2026-04-22T10:38:42Z</time></trkpt><trkpt lat="59.0922391601" lon="29.9867298268"><ele>78.00</ele><time>2026-04-22T10:39:18Z</time></trkpt><trkpt lat="59.0922336280" lon="29.9867285695"><ele>77.52</ele><time>2026-04-22T10:39:55Z</time></trkpt><trkpt lat="59.0922332089" lon="29.9867332634"><ele>77.52</ele><time>2026-04-22T10:40:19Z</time></trkpt><trkpt lat="59.0922328737" lon="29.9867305811"><ele>77.52</ele><time>2026-04-22T10:40:58Z</time></trkpt><trkpt lat="59.0922297724" lon="29.9867315032"><ele>77.52</ele><time>2026-04-22T10:41:31Z</time></trkpt><trkpt lat="59.0922296885" lon="29.9867351074"><ele>77.52</ele><time>2026-04-22T10:41:59Z</time></trkpt><trkpt lat="59.0922285151" lon="29.9867360294"><ele>77.52</ele><time>2026-04-22T10:42:29Z</time></trkpt><trkpt lat="59.0922263358" lon="29.9867350236"><ele>78.48</ele><time>2026-04-22T10:43:01Z</time></trkpt><trkpt lat="59.0922215581" lon="29.9867294077"><ele>78.48</ele><time>2026-04-22T10:43:22Z</time></trkpt><trkpt lat="59.0922199655" lon="29.9866995681"><ele>78.97</ele><time>2026-04-22T10:43:36Z</time></trkpt><trkpt lat="59.0922166966" lon="29.9866894260"><ele>78.97</ele><time>2026-04-22T10:44:04Z</time></trkpt><trkpt lat="59.0922182053" lon="29.9866789486"><ele>78.97</ele><time>2026-04-22T10:44:28Z</time></trkpt><trkpt lat="59.0922089852" lon="29.9866722431"><ele>78.97</ele><time>2026-04-22T10:44:47Z</time></trkpt><trkpt lat="59.0922089852" lon="29.9866577424"><ele>79.45</ele><time>2026-04-22T10:45:16Z</time></trkpt><trkpt lat="59.0922234859" lon="29.9867040943"><ele>79.45</ele><time>2026-04-22T10:45:34Z</time></trkpt><trkpt lat="59.0922347177" lon="29.9867037591"><ele>79.93</ele><time>2026-04-22T10:45:55Z</time></trkpt><trkpt lat="59.0922298562" lon="29.9866880011"><ele>79.93</ele><time>2026-04-22T10:46:12Z</time></trkpt><trkpt lat="59.0922291856" lon="29.9866833072"><ele>79.93</ele><time>2026-04-22T10:46:33Z</time></trkpt><trkpt lat="59.0922126733" lon="29.9866730813"><ele>79.93</ele><time>2026-04-22T10:46:50Z</time></trkpt><trkpt lat="59.0922117513" lon="29.9866603408"><ele>79.93</ele><time>2026-04-22T10:47:08Z</time></trkpt><trkpt lat="59.0922104102" lon="29.9866496120"><ele>79.45</ele><time>2026-04-22T10:47:32Z</time></trkpt><trkpt lat="59.0922096558" lon="29.9866460077"><ele>79.45</ele><time>2026-04-22T10:47:46Z</time></trkpt><trkpt lat="59.0922159422" lon="29.9866198562"><ele>79.45</ele><time>2026-04-22T10:47:53Z</time></trkpt><trkpt lat="59.0922151878" lon="29.9866216164"><ele>79.45</ele><time>2026-04-22T10:48:01Z</time></trkpt><trkpt lat="59.0922162775" lon="29.9866196048"><ele>79.45</ele><time>2026-04-22T10:48:03Z</time></trkpt><trkpt lat="59.0922112484" lon="29.9866279028"><ele>79.45</ele><time>2026-04-22T10:48:12Z</time></trkpt><trkpt lat="59.0922016092" lon="29.9866340216"><ele>79.93</ele><time>2026-04-22T10:48:27Z</time></trkpt><trkpt lat="59.0922066383" lon="29.9866573233"><ele>79.93</ele><time>2026-04-22T10:48:40Z</time></trkpt><trkpt lat="59.0922272578" lon="29.9866952095"><ele>79.93</ele><time>2026-04-22T10:48:55Z</time></trkpt><trkpt lat="59.0922616236" lon="29.9868500233"><ele>79.93</ele><time>2026-04-22T10:49:09Z</time></trkpt><trkpt lat="59.0922845062" lon="29.9869458284"><ele>79.93</ele><time>2026-04-22T10:49:15Z</time></trkpt><trkpt lat="59.0922888648" lon="29.9869651068"><ele>79.93</ele><time>2026-04-22T10:49:16Z</time></trkpt><trkpt lat="59.0922940616" lon="29.9869880732"><ele>79.93</ele><time>2026-04-22T10:49:17Z</time></trkpt><trkpt lat="59.0923669841" lon="29.9873739760"><ele>79.93</ele><time>2026-04-22T10:49:35Z</time></trkpt><trkpt lat="59.0924262442" lon="29.9876710307"><ele>79.93</ele><time>2026-04-22T10:49:50Z</time></trkpt><trkpt lat="59.0924844146" lon="29.9879752938"><ele>79.93</ele><time>2026-04-22T10:50:05Z</time></trkpt><trkpt lat="59.0925344545" lon="29.9882896990"><ele>79.93</ele><time>2026-04-22T10:50:18Z</time></trkpt><trkpt lat="59.0925972350" lon="29.9885487836"><ele>79.93</ele><time>2026-04-22T10:50:31Z</time></trkpt><trkpt lat="59.0926022641" lon="29.9885836523"><ele>79.93</ele><time>2026-04-22T10:50:33Z</time></trkpt><trkpt lat="59.0926821437" lon="29.9888882507"><ele>79.45</ele><time>2026-04-22T10:50:49Z</time></trkpt><trkpt lat="59.0927349497" lon="29.9890965410"><ele>79.45</ele><time>2026-04-22T10:51:01Z</time></trkpt><trkpt lat="59.0927945450" lon="29.9893631693"><ele>79.45</ele><time>2026-04-22T10:51:16Z</time></trkpt><trkpt lat="59.0928126499" lon="29.9894369300"><ele>79.45</ele><time>2026-04-22T10:51:20Z</time></trkpt><trkpt lat="59.0928933676" lon="29.9895995390"><ele>79.45</ele><time>2026-04-22T10:51:33Z</time></trkpt><trkpt lat="59.0929289907" lon="29.9899668340"><ele>79.45</ele><time>2026-04-22T10:51:48Z</time></trkpt><trkpt lat="59.0929358639" lon="29.9901993480"><ele>79.45</ele><time>2026-04-22T10:52:03Z</time></trkpt><trkpt lat="59.0929061081" lon="29.9902592786"><ele>78.97</ele><time>2026-04-22T10:52:16Z</time></trkpt><trkpt lat="59.0929040127" lon="29.9901626352"><ele>78.97</ele><time>2026-04-22T10:52:21Z</time></trkpt><trkpt lat="59.0929354448" lon="29.9900559336"><ele>78.97</ele><time>2026-04-22T10:52:34Z</time></trkpt><trkpt lat="59.0929539688" lon="29.9900327995"><ele>78.97</ele><time>2026-04-22T10:52:49Z</time></trkpt><trkpt lat="59.0929726604" lon="29.9900019541"><ele>78.97</ele><time>2026-04-22T10:53:07Z</time></trkpt><trkpt lat="59.0930232871" lon="29.9899957515"><ele>78.97</ele><time>2026-04-22T10:53:24Z</time></trkpt><trkpt lat="59.0930540487" lon="29.9899834301"><ele>78.48</ele><time>2026-04-22T10:53:53Z</time></trkpt><trkpt lat="59.0930199344" lon="29.9900895450"><ele>78.48</ele><time>2026-04-22T10:54:06Z</time></trkpt><trkpt lat="59.0930342674" lon="29.9901609588"><ele>78.48</ele><time>2026-04-22T10:54:22Z</time></trkpt><trkpt lat="59.0930602513" lon="29.9903565925"><ele>78.48</ele><time>2026-04-22T10:54:39Z</time></trkpt><trkpt lat="59.0930472594" lon="29.9905270804"><ele>78.48</ele><time>2026-04-22T10:54:50Z</time></trkpt><trkpt lat="59.0930383746" lon="29.9905409105"><ele>78.48</ele><time>2026-04-22T10:54:51Z</time></trkpt><trkpt lat="59.0930106305" lon="29.9906007573"><ele>78.48</ele><time>2026-04-22T10:54:53Z</time></trkpt><trkpt lat="59.0930035897" lon="29.9906297587"><ele>78.48</ele><time>2026-04-22T10:54:54Z</time></trkpt><trkpt lat="59.0930028353" lon="29.9906549044"><ele>78.48</ele><time>2026-04-22T10:54:55Z</time></trkpt><trkpt lat="59.0930430684" lon="29.9909662083"><ele>78.48</ele><time>2026-04-22T10:55:09Z</time></trkpt><trkpt lat="59.0930646099" lon="29.9911581539"><ele>78.00</ele><time>2026-04-22T10:55:25Z</time></trkpt><trkpt lat="59.0931024123" lon="29.9913189188"><ele>78.00</ele><time>2026-04-22T10:55:37Z</time></trkpt><trkpt lat="59.0931756701" lon="29.9915054999"><ele>78.00</ele><time>2026-04-22T10:55:49Z</time></trkpt><trkpt lat="59.0932261292" lon="29.9918881338"><ele>78.00</ele><time>2026-04-22T10:56:05Z</time></trkpt><trkpt lat="59.0932961181" lon="29.9921382498"><ele>78.00</ele><time>2026-04-22T10:56:19Z</time></trkpt><trkpt lat="59.0933060087" lon="29.9921853561"><ele>78.00</ele><time>2026-04-22T10:56:22Z</time></trkpt><trkpt lat="59.0933466610" lon="29.9924068898"><ele>77.04</ele><time>2026-04-22T10:56:33Z</time></trkpt><trkpt lat="59.0933528636" lon="29.9928503763"><ele>76.56</ele><time>2026-04-22T10:56:48Z</time></trkpt><trkpt lat="59.0933503490" lon="29.9929103907"><ele>76.56</ele><time>2026-04-22T10:56:50Z</time></trkpt><trkpt lat="59.0934117883" lon="29.9932054337"><ele>77.52</ele><time>2026-04-22T10:57:03Z</time></trkpt><trkpt lat="59.0934317373" lon="29.9933119677"><ele>77.52</ele><time>2026-04-22T10:57:08Z</time></trkpt><trkpt lat="59.0934412926" lon="29.9933708925"><ele>77.52</ele><time>2026-04-22T10:57:11Z</time></trkpt><trkpt lat="59.0935238544" lon="29.9935195874"><ele>77.52</ele><time>2026-04-22T10:57:21Z</time></trkpt><trkpt lat="59.0936008841" lon="29.9937392771"><ele>77.52</ele><time>2026-04-22T10:57:34Z</time></trkpt><trkpt lat="59.0936441347" lon="29.9940493237"><ele>77.52</ele><time>2026-04-22T10:57:45Z</time></trkpt><trkpt lat="59.0936862119" lon="29.9942322168"><ele>77.52</ele><time>2026-04-22T10:57:55Z</time></trkpt><trkpt lat="59.0936871339" lon="29.9944023695"><ele>77.52</ele><time>2026-04-22T10:58:05Z</time></trkpt><trkpt lat="59.0936559532" lon="29.9944944028"><ele>77.04</ele><time>2026-04-22T10:58:11Z</time></trkpt><trkpt lat="59.0935202502" lon="29.9946292676"><ele>77.04</ele><time>2026-04-22T10:58:26Z</time></trkpt><trkpt lat="59.0935093537" lon="29.9948224705"><ele>77.04</ele><time>2026-04-22T10:58:41Z</time></trkpt><trkpt lat="59.0935098566" lon="29.9950575829"><ele>77.04</ele><time>2026-04-22T10:58:57Z</time></trkpt><trkpt lat="59.0935078450" lon="29.9952536356"><ele>77.52</ele><time>2026-04-22T10:59:11Z</time></trkpt><trkpt lat="59.0934968647" lon="29.9955190904"><ele>77.52</ele><time>2026-04-22T10:59:27Z</time></trkpt><trkpt lat="59.0934961103" lon="29.9956589844"><ele>77.52</ele><time>2026-04-22T10:59:44Z</time></trkpt><trkpt lat="59.0934925061" lon="29.9956827890"><ele>77.52</ele><time>2026-04-22T10:59:46Z</time></trkpt><trkpt lat="59.0935042407" lon="29.9958630838"><ele>77.52</ele><time>2026-04-22T10:59:58Z</time></trkpt><trkpt lat="59.0934863873" lon="29.9959941767"><ele>77.52</ele><time>2026-04-22T11:00:11Z</time></trkpt><trkpt lat="59.0934253670" lon="29.9962539319"><ele>77.52</ele><time>2026-04-22T11:00:24Z</time></trkpt><trkpt lat="59.0934070945" lon="29.9963953346"><ele>77.52</ele><time>2026-04-22T11:00:38Z</time></trkpt><trkpt lat="59.0934024006" lon="29.9965104181"><ele>77.52</ele><time>2026-04-22T11:00:50Z</time></trkpt><trkpt lat="59.0933887381" lon="29.9967017770"><ele>77.52</ele><time>2026-04-22T11:01:04Z</time></trkpt><trkpt lat="59.0933818650" lon="29.9967508111"><ele>78.00</ele><time>2026-04-22T11:01:27Z</time></trkpt><trkpt lat="59.0933842957" lon="29.9967600312"><ele>78.48</ele><time>2026-04-22T11:01:53Z</time></trkpt><trkpt lat="59.0933853015" lon="29.9967745319"><ele>78.48</ele><time>2026-04-22T11:02:11Z</time></trkpt><trkpt lat="59.0933990479" lon="29.9968218897"><ele>78.48</ele><time>2026-04-22T11:02:24Z</time></trkpt><trkpt lat="59.0934284683" lon="29.9968779646"><ele>78.48</ele><time>2026-04-22T11:02:41Z</time></trkpt><trkpt lat="59.0934263729" lon="29.9968875200"><ele>78.48</ele><time>2026-04-22T11:02:43Z</time></trkpt><trkpt lat="59.0934277978" lon="29.9969910365"><ele>78.48</ele><time>2026-04-22T11:02:57Z</time></trkpt><trkpt lat="59.0934365150" lon="29.9970655516"><ele>78.48</ele><time>2026-04-22T11:03:11Z</time></trkpt><trkpt lat="59.0934527759" lon="29.9971065391"><ele>78.48</ele><time>2026-04-22T11:03:26Z</time></trkpt><trkpt lat="59.0934631694" lon="29.9971222132"><ele>78.97</ele><time>2026-04-22T11:03:40Z</time></trkpt><trkpt lat="59.0935439710" lon="29.9972102232"><ele>78.97</ele><time>2026-04-22T11:03:56Z</time></trkpt><trkpt lat="59.0936331544" lon="29.9972421583"><ele>78.97</ele><time>2026-04-22T11:04:09Z</time></trkpt><trkpt lat="59.0936959349" lon="29.9973674677"><ele>78.97</ele><time>2026-04-22T11:04:20Z</time></trkpt><trkpt lat="59.0936938394" lon="29.9974928610"><ele>78.97</ele><time>2026-04-22T11:04:35Z</time></trkpt><trkpt lat="59.0936389379" lon="29.9975991435"><ele>78.97</ele><time>2026-04-22T11:04:50Z</time></trkpt><trkpt lat="59.0935390256" lon="29.9977171607"><ele>79.45</ele><time>2026-04-22T11:05:04Z</time></trkpt><trkpt lat="59.0935154725" lon="29.9978683703"><ele>79.45</ele><time>2026-04-22T11:05:18Z</time></trkpt><trkpt lat="59.0934705455" lon="29.9980645068"><ele>79.45</ele><time>2026-04-22T11:05:31Z</time></trkpt><trkpt lat="59.0934183262" lon="29.9981743935"><ele>79.45</ele><time>2026-04-22T11:05:46Z</time></trkpt><trkpt lat="59.0934053343" lon="29.9983323924"><ele>79.45</ele><time>2026-04-22T11:06:01Z</time></trkpt><trkpt lat="59.0934224334" lon="29.9985049758"><ele>79.93</ele><time>2026-04-22T11:06:13Z</time></trkpt><trkpt lat="59.0934215952" lon="29.9985659961"><ele>79.93</ele><time>2026-04-22T11:06:27Z</time></trkpt><trkpt lat="59.0934920870" lon="29.9986342248"><ele>80.41</ele><time>2026-04-22T11:06:41Z</time></trkpt><trkpt lat="59.0935836174" lon="29.9987013638"><ele>80.41</ele><time>2026-04-22T11:06:56Z</time></trkpt><trkpt lat="59.0936837811" lon="29.9987675808"><ele>80.41</ele><time>2026-04-22T11:07:11Z</time></trkpt><trkpt lat="59.0937452205" lon="29.9988635536"><ele>80.41</ele><time>2026-04-22T11:07:27Z</time></trkpt><trkpt lat="59.0937985294" lon="29.9990276713"><ele>80.41</ele><time>2026-04-22T11:07:41Z</time></trkpt><trkpt lat="59.0938410256" lon="29.9992495403"><ele>80.41</ele><time>2026-04-22T11:07:54Z</time></trkpt><trkpt lat="59.0938475635" lon="29.9993212055"><ele>80.41</ele><time>2026-04-22T11:08:09Z</time></trkpt><trkpt lat="59.0938615613" lon="29.9994065333"><ele>80.41</ele><time>2026-04-22T11:08:25Z</time></trkpt><trkpt lat="59.0938432049" lon="29.9995584972"><ele>80.41</ele><time>2026-04-22T11:08:39Z</time></trkpt><trkpt lat="59.0938183945" lon="29.9996881653"><ele>80.41</ele><time>2026-04-22T11:08:52Z</time></trkpt><trkpt lat="59.0938084200" lon="29.9998055957"><ele>80.41</ele><time>2026-04-22T11:09:03Z</time></trkpt><trkpt lat="59.0937774908" lon="30.0000530295"><ele>80.41</ele><time>2026-04-22T11:09:16Z</time></trkpt><trkpt lat="59.0937380958" lon="30.0002774969"><ele>80.41</ele><time>2026-04-22T11:09:32Z</time></trkpt><trkpt lat="59.0937346593" lon="30.0004634075"><ele>80.41</ele><time>2026-04-22T11:09:47Z</time></trkpt><trkpt lat="59.0937691927" lon="30.0006024633"><ele>80.41</ele><time>2026-04-22T11:10:01Z</time></trkpt><trkpt lat="59.0938130300" lon="30.0006133597"><ele>80.41</ele><time>2026-04-22T11:10:13Z</time></trkpt><trkpt lat="59.0938401036" lon="30.0006048940"><ele>80.41</ele><time>2026-04-22T11:10:28Z</time></trkpt><trkpt lat="59.0938721225" lon="30.0007044710"><ele>80.41</ele><time>2026-04-22T11:10:43Z</time></trkpt><trkpt lat="59.0938831028" lon="30.0007617194"><ele>80.41</ele><time>2026-04-22T11:10:54Z</time></trkpt><trkpt lat="59.0939294547" lon="30.0007843506"><ele>80.41</ele><time>2026-04-22T11:11:16Z</time></trkpt><trkpt lat="59.0939828474" lon="30.0008177105"><ele>80.41</ele><time>2026-04-22T11:11:32Z</time></trkpt><trkpt lat="59.0940029640" lon="30.0008322112"><ele>80.41</ele><time>2026-04-22T11:11:57Z</time></trkpt><trkpt lat="59.0940213203" lon="30.0008317083"><ele>79.93</ele><time>2026-04-22T11:12:22Z</time></trkpt><trkpt lat="59.0940186381" lon="30.0008274335"><ele>79.93</ele><time>2026-04-22T11:12:41Z</time></trkpt><trkpt lat="59.0940155368" lon="30.0008196384"><ele>80.41</ele><time>2026-04-22T11:13:06Z</time></trkpt><trkpt lat="59.0939562768" lon="30.0007816684"><ele>80.41</ele><time>2026-04-22T11:13:20Z</time></trkpt><trkpt lat="59.0938770678" lon="30.0007724483"><ele>80.41</ele><time>2026-04-22T11:13:33Z</time></trkpt><trkpt lat="59.0938264411" lon="30.0007593725"><ele>80.41</ele><time>2026-04-22T11:13:50Z</time></trkpt><trkpt lat="59.0937561169" lon="30.0007667486"><ele>80.41</ele><time>2026-04-22T11:14:04Z</time></trkpt><trkpt lat="59.0937565360" lon="30.0006577838"><ele>80.41</ele><time>2026-04-22T11:14:19Z</time></trkpt><trkpt lat="59.0937060770" lon="30.0004127808"><ele>79.93</ele><time>2026-04-22T11:14:32Z</time></trkpt><trkpt lat="59.0936305560" lon="30.0002441369"><ele>79.93</ele><time>2026-04-22T11:14:45Z</time></trkpt><trkpt lat="59.0935867187" lon="30.0002445560"><ele>80.41</ele><time>2026-04-22T11:14:59Z</time></trkpt><trkpt lat="59.0935496707" lon="30.0002852920"><ele>79.93</ele><time>2026-04-22T11:15:14Z</time></trkpt><trkpt lat="59.0934996307" lon="30.0002911594"><ele>79.93</ele><time>2026-04-22T11:15:26Z</time></trkpt><trkpt lat="59.0934364311" lon="30.0003033970"><ele>79.93</ele><time>2026-04-22T11:15:38Z</time></trkpt><trkpt lat="59.0933662746" lon="30.0002958532"><ele>79.93</ele><time>2026-04-22T11:15:50Z</time></trkpt><trkpt lat="59.0932988003" lon="30.0003199093"><ele>79.93</ele><time>2026-04-22T11:16:06Z</time></trkpt><trkpt lat="59.0932676196" lon="30.0003937539"><ele>79.93</ele><time>2026-04-22T11:16:21Z</time></trkpt><trkpt lat="59.0932159033" lon="30.0004910678"><ele>79.93</ele><time>2026-04-22T11:16:35Z</time></trkpt><trkpt lat="59.0931886621" lon="30.0005848613"><ele>80.41</ele><time>2026-04-22T11:16:50Z</time></trkpt><trkpt lat="59.0931565594" lon="30.0006504916"><ele>80.89</ele><time>2026-04-22T11:17:08Z</time></trkpt><trkpt lat="59.0931215230" lon="30.0006931555"><ele>80.89</ele><time>2026-04-22T11:17:20Z</time></trkpt><trkpt lat="59.0930399671" lon="30.0007825904"><ele>79.93</ele><time>2026-04-22T11:17:35Z</time></trkpt><trkpt lat="59.0929724090" lon="30.0007744599"><ele>79.93</ele><time>2026-04-22T11:17:48Z</time></trkpt><trkpt lat="59.0929105505" lon="30.0006961729"><ele>79.93</ele><time>2026-04-22T11:18:01Z</time></trkpt><trkpt lat="59.0928533021" lon="30.0007234979"><ele>79.93</ele><time>2026-04-22T11:18:14Z</time></trkpt><trkpt lat="59.0928345267" lon="30.0007193908"><ele>79.93</ele><time>2026-04-22T11:18:29Z</time></trkpt><trkpt lat="59.0928091295" lon="30.0007136073"><ele>79.45</ele><time>2026-04-22T11:18:38Z</time></trkpt><trkpt lat="59.0927869175" lon="30.0006802473"><ele>79.45</ele><time>2026-04-22T11:18:50Z</time></trkpt><trkpt lat="59.0927271545" lon="30.0007168762"><ele>79.45</ele><time>2026-04-22T11:19:03Z</time></trkpt><trkpt lat="59.0927066188" lon="30.0007186364"><ele>79.45</ele><time>2026-04-22T11:19:14Z</time></trkpt><trkpt lat="59.0926876757" lon="30.0006985199"><ele>79.45</ele><time>2026-04-22T11:19:25Z</time></trkpt><trkpt lat="59.0926509630" lon="30.0006619748"><ele>79.45</ele><time>2026-04-22T11:19:38Z</time></trkpt><trkpt lat="59.0926289186" lon="30.0006441213"><ele>80.89</ele><time>2026-04-22T11:19:49Z</time></trkpt><trkpt lat="59.0925996657" lon="30.0006122701"><ele>80.89</ele><time>2026-04-22T11:20:13Z</time></trkpt><trkpt lat="59.0925436746" lon="30.0005354919"><ele>80.41</ele><time>2026-04-22T11:20:25Z</time></trkpt><trkpt lat="59.0925031900" lon="30.0004748069"><ele>80.41</ele><time>2026-04-22T11:20:36Z</time></trkpt><trkpt lat="59.0924500488" lon="30.0003557000"><ele>80.41</ele><time>2026-04-22T11:20:51Z</time></trkpt><trkpt lat="59.0923867654" lon="30.0002278760"><ele>80.41</ele><time>2026-04-22T11:21:06Z</time></trkpt><trkpt lat="59.0922876913" lon="30.0001608208"><ele>80.41</ele><time>2026-04-22T11:21:19Z</time></trkpt><trkpt lat="59.0922284313" lon="30.0001307297"><ele>80.41</ele><time>2026-04-22T11:21:31Z</time></trkpt><trkpt lat="59.0921418462" lon="30.0001568813"><ele>79.93</ele><time>2026-04-22T11:21:42Z</time></trkpt><trkpt lat="59.0920732822" lon="30.0001921691"><ele>79.93</ele><time>2026-04-22T11:21:57Z</time></trkpt><trkpt lat="59.0920412634" lon="30.0002156384"><ele>80.41</ele><time>2026-04-22T11:22:12Z</time></trkpt><trkpt lat="59.0919673350" lon="30.0002242718"><ele>80.41</ele><time>2026-04-22T11:22:23Z</time></trkpt><trkpt lat="59.0918466356" lon="30.0002311449"><ele>80.41</ele><time>2026-04-22T11:22:36Z</time></trkpt><trkpt lat="59.0918122698" lon="30.0002392754"><ele>78.97</ele><time>2026-04-22T11:22:59Z</time></trkpt><trkpt lat="59.0917985234" lon="30.0002224278"><ele>80.41</ele><time>2026-04-22T11:23:23Z</time></trkpt><trkpt lat="59.0917977691" lon="30.0002218410"><ele>80.41</ele><time>2026-04-22T11:23:24Z</time></trkpt><trkpt lat="59.0917940810" lon="30.0002245232"><ele>80.41</ele><time>2026-04-22T11:23:43Z</time></trkpt><trkpt lat="59.0917341504" lon="30.0001536123"><ele>80.41</ele><time>2026-04-22T11:23:57Z</time></trkpt><trkpt lat="59.0916496608" lon="30.0001191627"><ele>80.41</ele><time>2026-04-22T11:24:09Z</time></trkpt><trkpt lat="59.0915865451" lon="30.0000793487"><ele>79.93</ele><time>2026-04-22T11:24:22Z</time></trkpt><trkpt lat="59.0915396903" lon="30.0000233576"><ele>79.93</ele><time>2026-04-22T11:24:36Z</time></trkpt><trkpt lat="59.0914925002" lon="29.9999567214"><ele>79.93</ele><time>2026-04-22T11:24:51Z</time></trkpt><trkpt lat="59.0914708748" lon="29.9998844694"><ele>79.93</ele><time>2026-04-22T11:25:04Z</time></trkpt><trkpt lat="59.0914251935" lon="29.9998872355"><ele>79.93</ele><time>2026-04-22T11:25:16Z</time></trkpt><trkpt lat="59.0914085973" lon="29.9998502713"><ele>79.93</ele><time>2026-04-22T11:25:35Z</time></trkpt><trkpt lat="59.0913210902" lon="29.9999093637"><ele>79.45</ele><time>2026-04-22T11:25:50Z</time></trkpt><trkpt lat="59.0912541188" lon="29.9999647681"><ele>79.45</ele><time>2026-04-22T11:26:02Z</time></trkpt><trkpt lat="59.0911740717" lon="29.9999875668"><ele>79.93</ele><time>2026-04-22T11:26:16Z</time></trkpt><trkpt lat="59.0910983831" lon="29.9999550451"><ele>79.93</ele><time>2026-04-22T11:26:29Z</time></trkpt><trkpt lat="59.0910944436" lon="29.9999576434"><ele>79.93</ele><time>2026-04-22T11:26:31Z</time></trkpt><trkpt lat="59.0910117142" lon="29.9999321625"><ele>79.93</ele><time>2026-04-22T11:26:42Z</time></trkpt><trkpt lat="59.0909242071" lon="29.9999291450"><ele>79.93</ele><time>2026-04-22T11:26:53Z</time></trkpt><trkpt lat="59.0908437409" lon="29.9999242835"><ele>79.45</ele><time>2026-04-22T11:27:08Z</time></trkpt><trkpt lat="59.0907668788" lon="29.9999475013"><ele>79.45</ele><time>2026-04-22T11:27:21Z</time></trkpt><trkpt lat="59.0907092113" lon="29.9998724833"><ele>79.45</ele><time>2026-04-22T11:27:33Z</time></trkpt><trkpt lat="59.0905958880" lon="29.9998950306"><ele>79.45</ele><time>2026-04-22T11:27:44Z</time></trkpt><trkpt lat="59.0905225463" lon="29.9999309052"><ele>78.97</ele><time>2026-04-22T11:27:56Z</time></trkpt><trkpt lat="59.0904480312" lon="29.9999520276"><ele>78.97</ele><time>2026-04-22T11:28:09Z</time></trkpt><trkpt lat="59.0903840773" lon="29.9999613315"><ele>78.97</ele><time>2026-04-22T11:28:23Z</time></trkpt><trkpt lat="59.0902980790" lon="29.9999681208"><ele>78.48</ele><time>2026-04-22T11:28:36Z</time></trkpt><trkpt lat="59.0902337898" lon="29.9999227747"><ele>78.48</ele><time>2026-04-22T11:28:50Z</time></trkpt><trkpt lat="59.0901539102" lon="29.9998860620"><ele>78.48</ele><time>2026-04-22T11:29:02Z</time></trkpt><trkpt lat="59.0901421756" lon="29.9998742435"><ele>78.48</ele><time>2026-04-22T11:29:16Z</time></trkpt><trkpt lat="59.0900984220" lon="29.9999126326"><ele>78.00</ele><time>2026-04-22T11:29:28Z</time></trkpt><trkpt lat="59.0900392458" lon="29.9999994691"><ele>78.48</ele><time>2026-04-22T11:29:39Z</time></trkpt><trkpt lat="59.0900177043" lon="30.0001313165"><ele>78.48</ele><time>2026-04-22T11:29:52Z</time></trkpt><trkpt lat="59.0900332108" lon="30.0002602302"><ele>78.97</ele><time>2026-04-22T11:30:06Z</time></trkpt><trkpt lat="59.0900316183" lon="30.0004390161"><ele>78.97</ele><time>2026-04-22T11:30:21Z</time></trkpt><trkpt lat="59.0900297742" lon="30.0005199015"><ele>78.97</ele><time>2026-04-22T11:30:33Z</time></trkpt><trkpt lat="59.0900251642" lon="30.0006424449"><ele>78.48</ele><time>2026-04-22T11:30:46Z</time></trkpt><trkpt lat="59.0900084004" lon="30.0006155390"><ele>78.48</ele><time>2026-04-22T11:31:01Z</time></trkpt><trkpt lat="59.0899710171" lon="30.0005785748"><ele>78.48</ele><time>2026-04-22T11:31:16Z</time></trkpt><trkpt lat="59.0898952447" lon="30.0005516689"><ele>78.48</ele><time>2026-04-22T11:31:28Z</time></trkpt><trkpt lat="59.0898456238" lon="30.0005163811"><ele>78.48</ele><time>2026-04-22T11:31:42Z</time></trkpt><trkpt lat="59.0897877887" lon="30.0004829373"><ele>78.48</ele><time>2026-04-22T11:31:56Z</time></trkpt><trkpt lat="59.0897255950" lon="30.0005067419"><ele>78.48</ele><time>2026-04-22T11:32:16Z</time></trkpt><trkpt lat="59.0896755550" lon="30.0006075762"><ele>78.00</ele><time>2026-04-22T11:32:28Z</time></trkpt><trkpt lat="59.0896298736" lon="30.0006500725"><ele>78.00</ele><time>2026-04-22T11:32:39Z</time></trkpt><trkpt lat="59.0895879641" lon="30.0006925687"><ele>78.00</ele><time>2026-04-22T11:32:51Z</time></trkpt><trkpt lat="59.0895462222" lon="30.0007821713"><ele>78.00</ele><time>2026-04-22T11:33:03Z</time></trkpt><trkpt lat="59.0895352419" lon="30.0008415151"><ele>78.00</ele><time>2026-04-22T11:33:19Z</time></trkpt><trkpt lat="59.0895418637" lon="30.0009073131"><ele>78.00</ele><time>2026-04-22T11:33:33Z</time></trkpt><trkpt lat="59.0895454679" lon="30.0009606220"><ele>78.00</ele><time>2026-04-22T11:33:51Z</time></trkpt><trkpt lat="59.0895815101" lon="30.0010487996"><ele>78.00</ele><time>2026-04-22T11:34:03Z</time></trkpt><trkpt lat="59.0895934962" lon="30.0010839198"><ele>78.00</ele><time>2026-04-22T11:34:17Z</time></trkpt><trkpt lat="59.0896263532" lon="30.0011797249"><ele>78.00</ele><time>2026-04-22T11:34:31Z</time></trkpt><trkpt lat="59.0896505769" lon="30.0012762845"><ele>77.52</ele><time>2026-04-22T11:34:41Z</time></trkpt><trkpt lat="59.0896447096" lon="30.0014051143"><ele>77.52</ele><time>2026-04-22T11:34:52Z</time></trkpt><trkpt lat="59.0896131936" lon="30.0014190283"><ele>77.52</ele><time>2026-04-22T11:35:03Z</time></trkpt><trkpt lat="59.0895614773" lon="30.0014077127"><ele>77.52</ele><time>2026-04-22T11:35:17Z</time></trkpt><trkpt lat="59.0895508323" lon="30.0012928806"><ele>77.52</ele><time>2026-04-22T11:35:31Z</time></trkpt><trkpt lat="59.0894989483" lon="30.0012522284"><ele>77.52</ele><time>2026-04-22T11:35:42Z</time></trkpt><trkpt lat="59.0894618165" lon="30.0012123305"><ele>77.52</ele><time>2026-04-22T11:35:53Z</time></trkpt><trkpt lat="59.0894489083" lon="30.0011974946"><ele>77.04</ele><time>2026-04-22T11:36:06Z</time></trkpt><trkpt lat="59.0894343238" lon="30.0011376478"><ele>77.04</ele><time>2026-04-22T11:36:18Z</time></trkpt><trkpt lat="59.0894085914" lon="30.0010995101"><ele>77.04</ele><time>2026-04-22T11:36:33Z</time></trkpt><trkpt lat="59.0893923305" lon="30.0010401662"><ele>77.52</ele><time>2026-04-22T11:36:45Z</time></trkpt><trkpt lat="59.0893676039" lon="30.0010102428"><ele>77.52</ele><time>2026-04-22T11:36:58Z</time></trkpt><trkpt lat="59.0893400274" lon="30.0009489711"><ele>77.04</ele><time>2026-04-22T11:37:15Z</time></trkpt><trkpt lat="59.0893309750" lon="30.0009416789"><ele>77.04</ele><time>2026-04-22T11:37:36Z</time></trkpt><trkpt lat="59.0893201623" lon="30.0009008590"><ele>77.04</ele><time>2026-04-22T11:37:54Z</time></trkpt><trkpt lat="59.0892934240" lon="30.0008959137"><ele>77.04</ele><time>2026-04-22T11:38:12Z</time></trkpt><trkpt lat="59.0892702062" lon="30.0008665770"><ele>77.04</ele><time>2026-04-22T11:38:28Z</time></trkpt><trkpt lat="59.0892360918" lon="30.0007979292"><ele>77.52</ele><time>2026-04-22T11:38:41Z</time></trkpt><trkpt lat="59.0891890693" lon="30.0007752981"><ele>77.52</ele><time>2026-04-22T11:38:53Z</time></trkpt><trkpt lat="59.0891497582" lon="30.0007178821"><ele>77.52</ele><time>2026-04-22T11:39:07Z</time></trkpt><trkpt lat="59.0891004726" lon="30.0006872881"><ele>77.52</ele><time>2026-04-22T11:39:19Z</time></trkpt><trkpt lat="59.0890666936" lon="30.0006788224"><ele>77.04</ele><time>2026-04-22T11:39:33Z</time></trkpt><trkpt lat="59.0890475828" lon="30.0006661657"><ele>77.04</ele><time>2026-04-22T11:39:46Z</time></trkpt><trkpt lat="59.0890333336" lon="30.0006606337"><ele>77.04</ele><time>2026-04-22T11:40:01Z</time></trkpt><trkpt lat="59.0890070144" lon="30.0006423611"><ele>77.04</ele><time>2026-04-22T11:40:12Z</time></trkpt><trkpt lat="59.0889554657" lon="30.0006053131"><ele>77.04</ele><time>2026-04-22T11:40:21Z</time></trkpt><trkpt lat="59.0889057610" lon="30.0005596317"><ele>77.04</ele><time>2026-04-22T11:40:32Z</time></trkpt><trkpt lat="59.0888358559" lon="30.0004706997"><ele>77.04</ele><time>2026-04-22T11:40:46Z</time></trkpt><trkpt lat="59.0888307430" lon="30.0004558638"><ele>77.04</ele><time>2026-04-22T11:40:57Z</time></trkpt><trkpt lat="59.0887956228" lon="30.0003953464"><ele>77.04</ele><time>2026-04-22T11:41:10Z</time></trkpt><trkpt lat="59.0887852293" lon="30.0003941730"><ele>77.04</ele><time>2026-04-22T11:41:23Z</time></trkpt><trkpt lat="59.0887472592" lon="30.0004299637"><ele>76.56</ele><time>2026-04-22T11:41:42Z</time></trkpt><trkpt lat="59.0886698104" lon="30.0004410278"><ele>76.56</ele><time>2026-04-22T11:41:54Z</time></trkpt><trkpt lat="59.0886324272" lon="30.0004132837"><ele>76.56</ele><time>2026-04-22T11:42:02Z</time></trkpt><trkpt lat="59.0885778610" lon="30.0003327336"><ele>76.56</ele><time>2026-04-22T11:42:13Z</time></trkpt><trkpt lat="59.0885734186" lon="30.0003324822"><ele>76.56</ele><time>2026-04-22T11:42:15Z</time></trkpt><trkpt lat="59.0885231271" lon="30.0002724677"><ele>77.04</ele><time>2026-04-22T11:42:28Z</time></trkpt><trkpt lat="59.0884548146" lon="30.0001985393"><ele>77.04</ele><time>2026-04-22T11:42:41Z</time></trkpt><trkpt lat="59.0884150844" lon="30.0001513492"><ele>76.56</ele><time>2026-04-22T11:42:54Z</time></trkpt><trkpt lat="59.0883846581" lon="30.0001391117"><ele>77.04</ele><time>2026-04-22T11:43:09Z</time></trkpt><trkpt lat="59.0883511305" lon="30.0001397822"><ele>77.04</ele><time>2026-04-22T11:43:27Z</time></trkpt><trkpt lat="59.0883397311" lon="30.0001429673"><ele>77.04</ele><time>2026-04-22T11:43:50Z</time></trkpt><trkpt lat="59.0883373003" lon="30.0001267903"><ele>77.04</ele><time>2026-04-22T11:44:11Z</time></trkpt><trkpt lat="59.0883342829" lon="30.0001169834"><ele>77.52</ele><time>2026-04-22T11:44:38Z</time></trkpt><trkpt lat="59.0883240569" lon="30.0001153070"><ele>77.52</ele><time>2026-04-22T11:45:01Z</time></trkpt><trkpt lat="59.0883171000" lon="30.0001050811"><ele>77.52</ele><time>2026-04-22T11:45:20Z</time></trkpt><trkpt lat="59.0883113164" lon="30.0001075957"><ele>78.00</ele><time>2026-04-22T11:45:49Z</time></trkpt><trkpt lat="59.0883316007" lon="30.0000457373"><ele>78.00</ele><time>2026-04-22T11:46:03Z</time></trkpt><trkpt lat="59.0883390605" lon="29.9999332521"><ele>78.00</ele><time>2026-04-22T11:46:18Z</time></trkpt><trkpt lat="59.0883367136" lon="29.9997808691"><ele>78.00</ele><time>2026-04-22T11:46:31Z</time></trkpt><trkpt lat="59.0883180220" lon="29.9996856507"><ele>78.00</ele><time>2026-04-22T11:46:43Z</time></trkpt><trkpt lat="59.0883235540" lon="29.9996068608"><ele>78.00</ele><time>2026-04-22T11:46:56Z</time></trkpt><trkpt lat="59.0883219615" lon="29.9995590840"><ele>77.52</ele><time>2026-04-22T11:47:09Z</time></trkpt><trkpt lat="59.0883237217" lon="29.9994471855"><ele>77.52</ele><time>2026-04-22T11:47:22Z</time></trkpt><trkpt lat="59.0883284993" lon="29.9992933776"><ele>77.52</ele><time>2026-04-22T11:47:35Z</time></trkpt><trkpt lat="59.0883267391" lon="29.9991412461"><ele>78.48</ele><time>2026-04-22T11:47:49Z</time></trkpt><trkpt lat="59.0883200336" lon="29.9990652222"><ele>78.00</ele><time>2026-04-22T11:48:07Z</time></trkpt><trkpt lat="59.0883722529" lon="29.9991000071"><ele>78.48</ele><time>2026-04-22T11:48:24Z</time></trkpt><trkpt lat="59.0884083789" lon="29.9991317745"><ele>78.48</ele><time>2026-04-22T11:48:39Z</time></trkpt><trkpt lat="59.0884766076" lon="29.9991419166"><ele>78.48</ele><time>2026-04-22T11:48:56Z</time></trkpt><trkpt lat="59.0886478499" lon="29.9991935492"><ele>78.48</ele><time>2026-04-22T11:49:15Z</time></trkpt><trkpt lat="59.0886965487" lon="29.9991422519"><ele>78.48</ele><time>2026-04-22T11:49:28Z</time></trkpt><trkpt lat="59.0887235384" lon="29.9990981631"><ele>78.48</ele><time>2026-04-22T11:49:42Z</time></trkpt><trkpt lat="59.0887689684" lon="29.9991378933"><ele>78.48</ele><time>2026-04-22T11:49:56Z</time></trkpt><trkpt lat="59.0887967125" lon="29.9991347082"><ele>78.48</ele><time>2026-04-22T11:50:10Z</time></trkpt><trkpt lat="59.0888887458" lon="29.9992217124"><ele>78.48</ele><time>2026-04-22T11:50:22Z</time></trkpt><trkpt lat="59.0889185853" lon="29.9992485344"><ele>78.48</ele><time>2026-04-22T11:50:34Z</time></trkpt><trkpt lat="59.0889635962" lon="29.9993075430"><ele>78.48</ele><time>2026-04-22T11:50:47Z</time></trkpt><trkpt lat="59.0890076850" lon="29.9993589241"><ele>78.48</ele><time>2026-04-22T11:51:00Z</time></trkpt><trkpt lat="59.0890769195" lon="29.9994532205"><ele>78.00</ele><time>2026-04-22T11:51:15Z</time></trkpt><trkpt lat="59.0891386941" lon="29.9994769413"><ele>78.00</ele><time>2026-04-22T11:51:29Z</time></trkpt><trkpt lat="59.0891990438" lon="29.9994810484"><ele>78.00</ele><time>2026-04-22T11:51:44Z</time></trkpt><trkpt lat="59.0892536100" lon="29.9994346127"><ele>78.00</ele><time>2026-04-22T11:52:01Z</time></trkpt><trkpt lat="59.0892723016" lon="29.9994571600"><ele>78.00</ele><time>2026-04-22T11:52:17Z</time></trkpt><trkpt lat="59.0893656760" lon="29.9994939566"><ele>78.00</ele><time>2026-04-22T11:52:30Z</time></trkpt><trkpt lat="59.0894050710" lon="29.9994991533"><ele>78.00</ele><time>2026-04-22T11:52:42Z</time></trkpt><trkpt lat="59.0894556977" lon="29.9995200243"><ele>78.00</ele><time>2026-04-22T11:52:59Z</time></trkpt><trkpt lat="59.0894880518" lon="29.9994900171"><ele>78.00</ele><time>2026-04-22T11:53:14Z</time></trkpt><trkpt lat="59.0895282850" lon="29.9992814753"><ele>77.52</ele><time>2026-04-22T11:53:28Z</time></trkpt><trkpt lat="59.0895658359" lon="29.9992120732"><ele>77.52</ele><time>2026-04-22T11:53:40Z</time></trkpt><trkpt lat="59.0895771515" lon="29.9991426710"><ele>77.52</ele><time>2026-04-22T11:53:54Z</time></trkpt><trkpt lat="59.0896118525" lon="29.9990676530"><ele>77.52</ele><time>2026-04-22T11:54:07Z</time></trkpt><trkpt lat="59.0896013752" lon="29.9989815708"><ele>78.00</ele><time>2026-04-22T11:54:21Z</time></trkpt><trkpt lat="59.0896030515" lon="29.9989674054"><ele>78.00</ele><time>2026-04-22T11:54:39Z</time></trkpt><trkpt lat="59.0895558614" lon="29.9989233166"><ele>78.00</ele><time>2026-04-22T11:54:54Z</time></trkpt><trkpt lat="59.0895519219" lon="29.9989054631"><ele>78.00</ele><time>2026-04-22T11:55:16Z</time></trkpt><trkpt lat="59.0895463899" lon="29.9988910463"><ele>77.52</ele><time>2026-04-22T11:55:42Z</time></trkpt><trkpt lat="59.0895400196" lon="29.9988923036"><ele>77.52</ele><time>2026-04-22T11:56:10Z</time></trkpt><trkpt lat="59.0895777382" lon="29.9988025334"><ele>77.52</ele><time>2026-04-22T11:56:22Z</time></trkpt><trkpt lat="59.0895839408" lon="29.9986472167"><ele>77.52</ele><time>2026-04-22T11:56:37Z</time></trkpt><trkpt lat="59.0895519219" lon="29.9984379206"><ele>77.52</ele><time>2026-04-22T11:56:50Z</time></trkpt><trkpt lat="59.0895318054" lon="29.9982791673"><ele>77.52</ele><time>2026-04-22T11:57:05Z</time></trkpt><trkpt lat="59.0895297099" lon="29.9981405307"><ele>77.52</ele><time>2026-04-22T11:57:19Z</time></trkpt><trkpt lat="59.0895436238" lon="29.9980378523"><ele>77.52</ele><time>2026-04-22T11:57:32Z</time></trkpt><trkpt lat="59.0895405225" lon="29.9979824480"><ele>77.52</ele><time>2026-04-22T11:57:49Z</time></trkpt><trkpt lat="59.0895472281" lon="29.9979058374"><ele>77.52</ele><time>2026-04-22T11:58:03Z</time></trkpt><trkpt lat="59.0895531792" lon="29.9977532867"><ele>77.52</ele><time>2026-04-22T11:58:15Z</time></trkpt><trkpt lat="59.0895010438" lon="29.9975770991"><ele>77.04</ele><time>2026-04-22T11:58:29Z</time></trkpt><trkpt lat="59.0894626547" lon="29.9974589143"><ele>77.04</ele><time>2026-04-22T11:58:42Z</time></trkpt><trkpt lat="59.0894431248" lon="29.9973937031"><ele>77.04</ele><time>2026-04-22T11:58:55Z</time></trkpt><trkpt lat="59.0894339047" lon="29.9973487761"><ele>77.04</ele><time>2026-04-22T11:59:10Z</time></trkpt><trkpt lat="59.0893875528" lon="29.9972406495"><ele>77.04</ele><time>2026-04-22T11:59:24Z</time></trkpt><trkpt lat="59.0893036500" lon="29.9972171802"><ele>77.04</ele><time>2026-04-22T11:59:37Z</time></trkpt><trkpt lat="59.0892484132" lon="29.9971972313"><ele>77.04</ele><time>2026-04-22T11:59:45Z</time></trkpt><trkpt lat="59.0891985409" lon="29.9972275738"><ele>77.04</ele><time>2026-04-22T11:59:53Z</time></trkpt><trkpt lat="59.0891655162" lon="29.9972420745"><ele>77.04</ele><time>2026-04-22T12:00:05Z</time></trkpt><trkpt lat="59.0891233552" lon="29.9973481055"><ele>76.56</ele><time>2026-04-22T12:00:19Z</time></trkpt><trkpt lat="59.0890989639" lon="29.9974349421"><ele>76.56</ele><time>2026-04-22T12:00:33Z</time></trkpt><trkpt lat="59.0890917554" lon="29.9976451602"><ele>76.56</ele><time>2026-04-22T12:00:48Z</time></trkpt><trkpt lat="59.0890920069" lon="29.9977084436"><ele>76.56</ele><time>2026-04-22T12:01:04Z</time></trkpt><trkpt lat="59.0890875645" lon="29.9977225251"><ele>76.56</ele><time>2026-04-22T12:01:17Z</time></trkpt><trkpt lat="59.0890718903" lon="29.9977657758"><ele>76.56</ele><time>2026-04-22T12:01:33Z</time></trkpt><trkpt lat="59.0890656039" lon="29.9977699667"><ele>76.56</ele><time>2026-04-22T12:01:34Z</time></trkpt><trkpt lat="59.0890386980" lon="29.9977933522"><ele>76.56</ele><time>2026-04-22T12:01:45Z</time></trkpt><trkpt lat="59.0889741573" lon="29.9978553783"><ele>76.56</ele><time>2026-04-22T12:01:58Z</time></trkpt><trkpt lat="59.0889088623" lon="29.9979035743"><ele>76.56</ele><time>2026-04-22T12:02:12Z</time></trkpt><trkpt lat="59.0888512786" lon="29.9979409575"><ele>75.12</ele><time>2026-04-22T12:02:27Z</time></trkpt><trkpt lat="59.0888133924" lon="29.9979671929"><ele>75.12</ele><time>2026-04-22T12:02:40Z</time></trkpt><trkpt lat="59.0887393802" lon="29.9979842082"><ele>75.12</ele><time>2026-04-22T12:02:57Z</time></trkpt><trkpt lat="59.0887022484" lon="29.9979628343"><ele>75.12</ele><time>2026-04-22T12:03:13Z</time></trkpt><trkpt lat="59.0886524599" lon="29.9979084358"><ele>75.12</ele><time>2026-04-22T12:03:24Z</time></trkpt><trkpt lat="59.0886161663" lon="29.9978880677"><ele>75.12</ele><time>2026-04-22T12:03:35Z</time></trkpt><trkpt lat="59.0886118915" lon="29.9978885707"><ele>76.56</ele><time>2026-04-22T12:03:41Z</time></trkpt><trkpt lat="59.0885921940" lon="29.9978762493"><ele>76.56</ele><time>2026-04-22T12:04:03Z</time></trkpt><trkpt lat="59.0885497816" lon="29.9978913367"><ele>76.56</ele><time>2026-04-22T12:04:16Z</time></trkpt><trkpt lat="59.0884991549" lon="29.9978534505"><ele>76.56</ele><time>2026-04-22T12:04:29Z</time></trkpt><trkpt lat="59.0884554014" lon="29.9978210963"><ele>76.56</ele><time>2026-04-22T12:04:41Z</time></trkpt><trkpt lat="59.0883964766" lon="29.9978150614"><ele>76.56</ele><time>2026-04-22T12:04:52Z</time></trkpt><trkpt lat="59.0883372165" lon="29.9978370219"><ele>76.56</ele><time>2026-04-22T12:05:08Z</time></trkpt><trkpt lat="59.0883042756" lon="29.9978235271"><ele>76.56</ele><time>2026-04-22T12:05:20Z</time></trkpt><trkpt lat="59.0882734302" lon="29.9978169054"><ele>76.56</ele><time>2026-04-22T12:05:39Z</time></trkpt><trkpt lat="59.0882668085" lon="29.9978169054"><ele>76.56</ele><time>2026-04-22T12:06:07Z</time></trkpt><trkpt lat="59.0882062912" lon="29.9978465773"><ele>77.52</ele><time>2026-04-22T12:06:19Z</time></trkpt><trkpt lat="59.0881478693" lon="29.9978501815"><ele>77.52</ele><time>2026-04-22T12:06:32Z</time></trkpt><trkpt lat="59.0881124139" lon="29.9979067594"><ele>77.52</ele><time>2026-04-22T12:06:45Z</time></trkpt><trkpt lat="59.0880283434" lon="29.9980660994"><ele>77.52</ele><time>2026-04-22T12:06:58Z</time></trkpt><trkpt lat="59.0879679937" lon="29.9981187377"><ele>77.52</ele><time>2026-04-22T12:07:10Z</time></trkpt><trkpt lat="59.0879600309" lon="29.9981412850"><ele>77.52</ele><time>2026-04-22T12:07:25Z</time></trkpt><trkpt lat="59.0879591927" lon="29.9981433805"><ele>77.52</ele><time>2026-04-22T12:07:28Z</time></trkpt><trkpt lat="59.0879171155" lon="29.9981541932"><ele>77.52</ele><time>2026-04-22T12:07:38Z</time></trkpt><trkpt lat="59.0878969990" lon="29.9981829431"><ele>77.52</ele><time>2026-04-22T12:07:41Z</time></trkpt><trkpt lat="59.0878437739" lon="29.9983457197"><ele>77.52</ele><time>2026-04-22T12:07:52Z</time></trkpt><trkpt lat="59.0878161974" lon="29.9984346516"><ele>77.52</ele><time>2026-04-22T12:08:09Z</time></trkpt><trkpt lat="59.0878588613" lon="29.9985850230"><ele>77.52</ele><time>2026-04-22T12:08:23Z</time></trkpt><trkpt lat="59.0878785588" lon="29.9986140244"><ele>77.52</ele><time>2026-04-22T12:08:28Z</time></trkpt><trkpt lat="59.0879909601" lon="29.9986960832"><ele>78.00</ele><time>2026-04-22T12:08:42Z</time></trkpt><trkpt lat="59.0879839193" lon="29.9987432733"><ele>77.52</ele><time>2026-04-22T12:08:59Z</time></trkpt><trkpt lat="59.0879912116" lon="29.9987576902"><ele>77.52</ele><time>2026-04-22T12:09:22Z</time></trkpt><trkpt lat="59.0879829973" lon="29.9987718556"><ele>77.52</ele><time>2026-04-22T12:09:27Z</time></trkpt><trkpt lat="59.0878895391" lon="29.9989084806"><ele>77.52</ele><time>2026-04-22T12:09:39Z</time></trkpt><trkpt lat="59.0878810734" lon="29.9989356380"><ele>77.52</ele><time>2026-04-22T12:09:41Z</time></trkpt><trkpt lat="59.0878196340" lon="29.9990768731"><ele>77.52</ele><time>2026-04-22T12:09:53Z</time></trkpt><trkpt lat="59.0877768863" lon="29.9992738478"><ele>77.52</ele><time>2026-04-22T12:10:08Z</time></trkpt><trkpt lat="59.0877459571" lon="29.9994057789"><ele>77.52</ele><time>2026-04-22T12:10:20Z</time></trkpt><trkpt lat="59.0877136867" lon="29.9995204434"><ele>77.52</ele><time>2026-04-22T12:10:31Z</time></trkpt><trkpt lat="59.0876857750" lon="29.9996351078"><ele>77.52</ele><time>2026-04-22T12:10:42Z</time></trkpt><trkpt lat="59.0876989346" lon="29.9998021591"><ele>77.52</ele><time>2026-04-22T12:10:55Z</time></trkpt><trkpt lat="59.0876984317" lon="29.9998993892"><ele>77.52</ele><time>2026-04-22T12:11:09Z</time></trkpt><trkpt lat="59.0876956657" lon="29.9999441486"><ele>77.52</ele><time>2026-04-22T12:11:12Z</time></trkpt><trkpt lat="59.0876980126" lon="30.0000689551"><ele>77.52</ele><time>2026-04-22T12:11:22Z</time></trkpt><trkpt lat="59.0877492260" lon="30.0001311488"><ele>77.52</ele><time>2026-04-22T12:11:34Z</time></trkpt><trkpt lat="59.0877913032" lon="30.0001326576"><ele>77.52</ele><time>2026-04-22T12:11:46Z</time></trkpt><trkpt lat="59.0878037084" lon="30.0001431350"><ele>77.52</ele><time>2026-04-22T12:12:00Z</time></trkpt><trkpt lat="59.0878607053" lon="30.0002356712"><ele>77.52</ele><time>2026-04-22T12:12:14Z</time></trkpt><trkpt lat="59.0879281797" lon="30.0003746431"><ele>77.52</ele><time>2026-04-22T12:12:26Z</time></trkpt><trkpt lat="59.0879769623" lon="30.0004755612"><ele>77.52</ele><time>2026-04-22T12:12:40Z</time></trkpt><trkpt lat="59.0880089812" lon="30.0005347375"><ele>77.52</ele><time>2026-04-22T12:12:54Z</time></trkpt><trkpt lat="59.0880536567" lon="30.0005548541"><ele>77.04</ele><time>2026-04-22T12:13:04Z</time></trkpt><trkpt lat="59.0881038643" lon="30.0004695263"><ele>77.04</ele><time>2026-04-22T12:13:17Z</time></trkpt><trkpt lat="59.0881484561" lon="30.0004478171"><ele>77.04</ele><time>2026-04-22T12:13:27Z</time></trkpt><trkpt lat="59.0881829057" lon="30.0003715418"><ele>77.04</ele><time>2026-04-22T12:13:36Z</time></trkpt><trkpt lat="59.0882383101" lon="30.0002735574"><ele>77.04</ele><time>2026-04-22T12:13:50Z</time></trkpt><trkpt lat="59.0882723406" lon="30.0001536962"><ele>77.04</ele><time>2026-04-22T12:14:02Z</time></trkpt><trkpt lat="59.0882691555" lon="30.0001294725"><ele>77.04</ele><time>2026-04-22T12:14:16Z</time></trkpt><trkpt lat="59.0882735141" lon="30.0000520237"><ele>77.04</ele><time>2026-04-22T12:14:33Z</time></trkpt><trkpt lat="59.0882161818" lon="29.9999245349"><ele>77.04</ele><time>2026-04-22T12:14:45Z</time></trkpt><trkpt lat="59.0881546587" lon="29.9998282269"><ele>77.04</ele><time>2026-04-22T12:15:01Z</time></trkpt><trkpt lat="59.0881067980" lon="29.9998457450"><ele>77.04</ele><time>2026-04-22T12:15:14Z</time></trkpt><trkpt lat="59.0880948957" lon="29.9997901730"><ele>77.04</ele><time>2026-04-22T12:15:27Z</time></trkpt><trkpt lat="59.0880678222" lon="29.9997497723"><ele>77.04</ele><time>2026-04-22T12:15:40Z</time></trkpt><trkpt lat="59.0880373958" lon="29.9996977206"><ele>77.52</ele><time>2026-04-22T12:15:55Z</time></trkpt><trkpt lat="59.0879940614" lon="29.9996449985"><ele>77.52</ele><time>2026-04-22T12:16:09Z</time></trkpt><trkpt lat="59.0879478771" lon="29.9995930307"><ele>77.52</ele><time>2026-04-22T12:16:22Z</time></trkpt><trkpt lat="59.0879109129" lon="29.9995735008"><ele>77.52</ele><time>2026-04-22T12:16:37Z</time></trkpt><trkpt lat="59.0878491383" lon="29.9995501991"><ele>77.52</ele><time>2026-04-22T12:16:54Z</time></trkpt><trkpt lat="59.0877933148" lon="29.9995447509"><ele>77.52</ele><time>2026-04-22T12:17:06Z</time></trkpt><trkpt lat="59.0877311211" lon="29.9995440803"><ele>77.52</ele><time>2026-04-22T12:17:19Z</time></trkpt><trkpt lat="59.0877048858" lon="29.9994507898"><ele>77.52</ele><time>2026-04-22T12:17:31Z</time></trkpt><trkpt lat="59.0876758005" lon="29.9994100537"><ele>77.52</ele><time>2026-04-22T12:17:44Z</time></trkpt><trkpt lat="59.0875995252" lon="29.9993187748"><ele>77.52</ele><time>2026-04-22T12:17:59Z</time></trkpt><trkpt lat="59.0875768941" lon="29.9991846643"><ele>77.52</ele><time>2026-04-22T12:18:13Z</time></trkpt><trkpt lat="59.0875689313" lon="29.9989059661"><ele>77.52</ele><time>2026-04-22T12:18:27Z</time></trkpt><trkpt lat="59.0876124334" lon="29.9988182914"><ele>77.52</ele><time>2026-04-22T12:18:42Z</time></trkpt><trkpt lat="59.0875985194" lon="29.9988107476"><ele>78.00</ele><time>2026-04-22T12:19:05Z</time></trkpt><trkpt lat="59.0875940770" lon="29.9988141004"><ele>77.04</ele><time>2026-04-22T12:19:29Z</time></trkpt><trkpt lat="59.0875297040" lon="29.9987814948"><ele>76.56</ele><time>2026-04-22T12:19:43Z</time></trkpt><trkpt lat="59.0874888003" lon="29.9987704307"><ele>76.56</ele><time>2026-04-22T12:19:58Z</time></trkpt><trkpt lat="59.0873867087" lon="29.9987291917"><ele>76.56</ele><time>2026-04-22T12:20:13Z</time></trkpt><trkpt lat="59.0873175580" lon="29.9986602925"><ele>76.56</ele><time>2026-04-22T12:20:26Z</time></trkpt><trkpt lat="59.0873027220" lon="29.9986458756"><ele>76.56</ele><time>2026-04-22T12:20:28Z</time></trkpt><trkpt lat="59.0872075036" lon="29.9985478073"><ele>76.56</ele><time>2026-04-22T12:20:42Z</time></trkpt><trkpt lat="59.0871467348" lon="29.9984966777"><ele>77.04</ele><time>2026-04-22T12:20:54Z</time></trkpt><trkpt lat="59.0870662685" lon="29.9984457158"><ele>76.56</ele><time>2026-04-22T12:21:09Z</time></trkpt><trkpt lat="59.0869646799" lon="29.9984256830"><ele>76.56</ele><time>2026-04-22T12:21:23Z</time></trkpt><trkpt lat="59.0868298151" lon="29.9983840249"><ele>78.00</ele><time>2026-04-22T12:21:35Z</time></trkpt><trkpt lat="59.0867647715" lon="29.9982555304"><ele>78.00</ele><time>2026-04-22T12:21:48Z</time></trkpt><trkpt lat="59.0867019910" lon="29.9981703702"><ele>78.00</ele><time>2026-04-22T12:22:03Z</time></trkpt><trkpt lat="59.0867298190" lon="29.9982598051"><ele>78.00</ele><time>2026-04-22T12:22:16Z</time></trkpt><trkpt lat="59.0868045855" lon="29.9985121004"><ele>77.52</ele><time>2026-04-22T12:22:31Z</time></trkpt><trkpt lat="59.0867810324" lon="29.9985861126"><ele>78.48</ele><time>2026-04-22T12:22:45Z</time></trkpt><trkpt lat="59.0867157374" lon="29.9987623002"><ele>78.00</ele><time>2026-04-22T12:22:59Z</time></trkpt><trkpt lat="59.0866835508" lon="29.9987872783"><ele>78.00</ele><time>2026-04-22T12:23:06Z</time></trkpt><trkpt lat="59.0866178367" lon="29.9988778867"><ele>78.00</ele><time>2026-04-22T12:23:21Z</time></trkpt><trkpt lat="59.0866277274" lon="29.9988849275"><ele>78.00</ele><time>2026-04-22T12:23:38Z</time></trkpt><trkpt lat="59.0865536314" lon="29.9987693410"><ele>78.00</ele><time>2026-04-22T12:23:53Z</time></trkpt><trkpt lat="59.0864539705" lon="29.9987001903"><ele>78.48</ele><time>2026-04-22T12:24:07Z</time></trkpt><trkpt lat="59.0863646194" lon="29.9986706022"><ele>78.48</ele><time>2026-04-22T12:24:20Z</time></trkpt><trkpt lat="59.0862452611" lon="29.9985661637"><ele>78.48</ele><time>2026-04-22T12:24:34Z</time></trkpt><trkpt lat="59.0861621965" lon="29.9985615537"><ele>78.48</ele><time>2026-04-22T12:24:48Z</time></trkpt><trkpt lat="59.0861693211" lon="29.9986364041"><ele>78.48</ele><time>2026-04-22T12:25:06Z</time></trkpt><trkpt lat="59.0861896891" lon="29.9988896213"><ele>78.48</ele><time>2026-04-22T12:25:21Z</time></trkpt><trkpt lat="59.0860949736" lon="29.9990725983"><ele>78.48</ele><time>2026-04-22T12:25:34Z</time></trkpt><trkpt lat="59.0860870108" lon="29.9991378933"><ele>78.48</ele><time>2026-04-22T12:25:59Z</time></trkpt><trkpt lat="59.0860842448" lon="29.9991312716"><ele>78.97</ele><time>2026-04-22T12:26:28Z</time></trkpt><trkpt lat="59.0860759467" lon="29.9991333671"><ele>78.97</ele><time>2026-04-22T12:26:49Z</time></trkpt><trkpt lat="59.0859468654" lon="29.9991423357"><ele>78.97</ele><time>2026-04-22T12:27:01Z</time></trkpt><trkpt lat="59.0858651418" lon="29.9991676491"><ele>78.97</ele><time>2026-04-22T12:27:15Z</time></trkpt><trkpt lat="59.0857937280" lon="29.9991947226"><ele>78.97</ele><time>2026-04-22T12:27:27Z</time></trkpt><trkpt lat="59.0857389942" lon="29.9992419127"><ele>78.97</ele><time>2026-04-22T12:27:39Z</time></trkpt><trkpt lat="59.0856769681" lon="29.9992591795"><ele>78.97</ele><time>2026-04-22T12:27:54Z</time></trkpt><trkpt lat="59.0855814144" lon="29.9992203712"><ele>78.00</ele><time>2026-04-22T12:28:15Z</time></trkpt><trkpt lat="59.0855763853" lon="29.9991039466"><ele>78.00</ele><time>2026-04-22T12:28:31Z</time></trkpt><trkpt lat="59.0855642315" lon="29.9991240632"><ele>78.00</ele><time>2026-04-22T12:28:47Z</time></trkpt><trkpt lat="59.0855585318" lon="29.9990774598"><ele>78.00</ele><time>2026-04-22T12:29:01Z</time></trkpt><trkpt lat="59.0855427738" lon="29.9990600254"><ele>78.00</ele><time>2026-04-22T12:29:16Z</time></trkpt><trkpt lat="59.0855098329" lon="29.9990345445"><ele>78.00</ele><time>2026-04-22T12:29:30Z</time></trkpt><trkpt lat="59.0854970925" lon="29.9990554992"><ele>78.00</ele><time>2026-04-22T12:29:47Z</time></trkpt><trkpt lat="59.0854722820" lon="29.9990871828"><ele>78.00</ele><time>2026-04-22T12:30:02Z</time></trkpt><trkpt lat="59.0854403470" lon="29.9990963191"><ele>78.00</ele><time>2026-04-22T12:30:18Z</time></trkpt><trkpt lat="59.0854039695" lon="29.9990894459"><ele>78.00</ele><time>2026-04-22T12:30:30Z</time></trkpt><trkpt lat="59.0853711963" lon="29.9990622886"><ele>78.00</ele><time>2026-04-22T12:30:35Z</time></trkpt><trkpt lat="59.0853385907" lon="29.9990264140"><ele>78.00</ele><time>2026-04-22T12:30:46Z</time></trkpt><trkpt lat="59.0852986928" lon="29.9990041181"><ele>78.00</ele><time>2026-04-22T12:31:09Z</time></trkpt><trkpt lat="59.0852988604" lon="29.9988545012"><ele>78.00</ele><time>2026-04-22T12:31:21Z</time></trkpt><trkpt lat="59.0852527600" lon="29.9987370707"><ele>78.48</ele><time>2026-04-22T12:31:32Z</time></trkpt><trkpt lat="59.0852398518" lon="29.9985651579"><ele>78.48</ele><time>2026-04-22T12:31:43Z</time></trkpt><trkpt lat="59.0852064081" lon="29.9984455481"><ele>78.97</ele><time>2026-04-22T12:31:56Z</time></trkpt><trkpt lat="59.0851278696" lon="29.9983394332"><ele>78.97</ele><time>2026-04-22T12:32:10Z</time></trkpt><trkpt lat="59.0850955993" lon="29.9983384274"><ele>78.97</ele><time>2026-04-22T12:32:13Z</time></trkpt><trkpt lat="59.0850630775" lon="29.9982955959"><ele>78.97</ele><time>2026-04-22T12:32:27Z</time></trkpt><trkpt lat="59.0850033984" lon="29.9983054865"><ele>78.48</ele><time>2026-04-22T12:32:40Z</time></trkpt><trkpt lat="59.0848852135" lon="29.9983500782"><ele>79.45</ele><time>2026-04-22T12:32:55Z</time></trkpt><trkpt lat="59.0848405380" lon="29.9983396009"><ele>79.93</ele><time>2026-04-22T12:33:13Z</time></trkpt><trkpt lat="59.0848334134" lon="29.9982775748"><ele>79.45</ele><time>2026-04-22T12:33:24Z</time></trkpt><trkpt lat="59.0847965330" lon="29.9982562847"><ele>79.45</ele><time>2026-04-22T12:33:34Z</time></trkpt><trkpt lat="59.0847974550" lon="29.9982614815"><ele>79.45</ele><time>2026-04-22T12:33:35Z</time></trkpt><trkpt lat="59.0847610775" lon="29.9982200749"><ele>79.45</ele><time>2026-04-22T12:33:47Z</time></trkpt><trkpt lat="59.0847438108" lon="29.9981892295"><ele>79.45</ele><time>2026-04-22T12:33:59Z</time></trkpt><trkpt lat="59.0846995544" lon="29.9981282931"><ele>79.45</ele><time>2026-04-22T12:34:13Z</time></trkpt><trkpt lat="59.0846573096" lon="29.9980785046"><ele>78.97</ele><time>2026-04-22T12:34:26Z</time></trkpt><trkpt lat="59.0846499335" lon="29.9980469048"><ele>78.97</ele><time>2026-04-22T12:34:42Z</time></trkpt><trkpt lat="59.0846355166" lon="29.9979532789"><ele>78.97</ele><time>2026-04-22T12:34:54Z</time></trkpt><trkpt lat="59.0845794417" lon="29.9979172368"><ele>78.00</ele><time>2026-04-22T12:35:06Z</time></trkpt><trkpt lat="59.0845886618" lon="29.9978812784"><ele>78.00</ele><time>2026-04-22T12:35:22Z</time></trkpt><trkpt lat="59.0845854767" lon="29.9978548754"><ele>77.52</ele><time>2026-04-22T12:35:36Z</time></trkpt><trkpt lat="59.0845832974" lon="29.9978178274"><ele>77.52</ele><time>2026-04-22T12:35:49Z</time></trkpt><trkpt lat="59.0845502727" lon="29.9977625906"><ele>77.52</ele><time>2026-04-22T12:36:03Z</time></trkpt><trkpt lat="59.0845101234" lon="29.9977071863"><ele>79.93</ele><time>2026-04-22T12:36:18Z</time></trkpt><trkpt lat="59.0845116321" lon="29.9977381993"><ele>79.93</ele><time>2026-04-22T12:36:30Z</time></trkpt><trkpt lat="59.0844414756" lon="29.9978392851"><ele>78.97</ele><time>2026-04-22T12:36:41Z</time></trkpt><trkpt lat="59.0843426529" lon="29.9979420472"><ele>78.00</ele><time>2026-04-22T12:36:53Z</time></trkpt><trkpt lat="59.0843235422" lon="29.9980382714"><ele>78.00</ele><time>2026-04-22T12:37:09Z</time></trkpt><trkpt lat="59.0843106341" lon="29.9980903231"><ele>78.00</ele><time>2026-04-22T12:37:15Z</time></trkpt><trkpt lat="59.0843142383" lon="29.9983009603"><ele>78.48</ele><time>2026-04-22T12:37:29Z</time></trkpt><trkpt lat="59.0843246318" lon="29.9984612223"><ele>78.00</ele><time>2026-04-22T12:37:41Z</time></trkpt><trkpt lat="59.0843270626" lon="29.9985582009"><ele>76.56</ele><time>2026-04-22T12:37:56Z</time></trkpt><trkpt lat="59.0843261406" lon="29.9985154532"><ele>76.56</ele><time>2026-04-22T12:38:13Z</time></trkpt><trkpt lat="59.0843165852" lon="29.9984979350"><ele>79.45</ele><time>2026-04-22T12:38:25Z</time></trkpt><trkpt lat="59.0843063593" lon="29.9984302931"><ele>79.45</ele><time>2026-04-22T12:38:43Z</time></trkpt><trkpt lat="59.0842942055" lon="29.9983615614"><ele>79.45</ele><time>2026-04-22T12:39:00Z</time></trkpt><trkpt lat="59.0841852408" lon="29.9982282892"><ele>78.97</ele><time>2026-04-22T12:39:13Z</time></trkpt><trkpt lat="59.0841688123" lon="29.9981558695"><ele>78.97</ele><time>2026-04-22T12:39:32Z</time></trkpt><trkpt lat="59.0841756854" lon="29.9981554504"><ele>78.97</ele><time>2026-04-22T12:39:55Z</time></trkpt><trkpt lat="59.0841809660" lon="29.9981448054"><ele>78.97</ele><time>2026-04-22T12:40:05Z</time></trkpt><trkpt lat="59.0841958020" lon="29.9980761576"><ele>78.97</ele><time>2026-04-22T12:40:14Z</time></trkpt><trkpt lat="59.0842060279" lon="29.9979574699"><ele>78.97</ele><time>2026-04-22T12:40:25Z</time></trkpt><trkpt lat="59.0841698181" lon="29.9977527000"><ele>78.97</ele><time>2026-04-22T12:40:39Z</time></trkpt><trkpt lat="59.0842141584" lon="29.9976062682"><ele>78.97</ele><time>2026-04-22T12:40:51Z</time></trkpt><trkpt lat="59.0842179302" lon="29.9974455871"><ele>78.97</ele><time>2026-04-22T12:41:05Z</time></trkpt><trkpt lat="59.0842009149" lon="29.9972294178"><ele>79.93</ele><time>2026-04-22T12:41:18Z</time></trkpt><trkpt lat="59.0841675550" lon="29.9970565829"><ele>79.93</ele><time>2026-04-22T12:41:32Z</time></trkpt><trkpt lat="59.0840945486" lon="29.9969209637"><ele>79.93</ele><time>2026-04-22T12:41:46Z</time></trkpt><trkpt lat="59.0840816405" lon="29.9967577681"><ele>79.93</ele><time>2026-04-22T12:41:58Z</time></trkpt><trkpt lat="59.0840618592" lon="29.9965673313"><ele>79.93</ele><time>2026-04-22T12:42:13Z</time></trkpt><trkpt lat="59.0840464365" lon="29.9964273535"><ele>79.93</ele><time>2026-04-22T12:42:23Z</time></trkpt><trkpt lat="59.0840300918" lon="29.9962889683"><ele>79.93</ele><time>2026-04-22T12:42:38Z</time></trkpt><trkpt lat="59.0840408206" lon="29.9961749744"><ele>79.93</ele><time>2026-04-22T12:42:50Z</time></trkpt><trkpt lat="59.0840010066" lon="29.9960294645"><ele>79.93</ele><time>2026-04-22T12:43:05Z</time></trkpt><trkpt lat="59.0839716699" lon="29.9958553724"><ele>79.93</ele><time>2026-04-22T12:43:17Z</time></trkpt><trkpt lat="59.0839209594" lon="29.9956913386"><ele>79.93</ele><time>2026-04-22T12:43:30Z</time></trkpt><trkpt lat="59.0838582627" lon="29.9954914302"><ele>80.41</ele><time>2026-04-22T12:43:41Z</time></trkpt><trkpt lat="59.0838108212" lon="29.9953587446"><ele>80.41</ele><time>2026-04-22T12:43:52Z</time></trkpt><trkpt lat="59.0837734379" lon="29.9952549767"><ele>80.41</ele><time>2026-04-22T12:44:06Z</time></trkpt><trkpt lat="59.0837515611" lon="29.9951361213"><ele>80.41</ele><time>2026-04-22T12:44:20Z</time></trkpt><trkpt lat="59.0837154351" lon="29.9949687347"><ele>80.41</ele><time>2026-04-22T12:44:31Z</time></trkpt><trkpt lat="59.0836913791" lon="29.9949132465"><ele>80.89</ele><time>2026-04-22T12:44:42Z</time></trkpt><trkpt lat="59.0836919658" lon="29.9947140925"><ele>80.89</ele><time>2026-04-22T12:44:54Z</time></trkpt><trkpt lat="59.0836932231" lon="29.9945453648"><ele>81.37</ele><time>2026-04-22T12:45:07Z</time></trkpt><trkpt lat="59.0837029461" lon="29.9943807442"><ele>81.37</ele><time>2026-04-22T12:45:17Z</time></trkpt><trkpt lat="59.0837185364" lon="29.9942330550"><ele>81.37</ele><time>2026-04-22T12:45:31Z</time></trkpt><trkpt lat="59.0836770460" lon="29.9941779859"><ele>81.85</ele><time>2026-04-22T12:45:45Z</time></trkpt><trkpt lat="59.0836889483" lon="29.9941875413"><ele>81.85</ele><time>2026-04-22T12:46:06Z</time></trkpt><trkpt lat="59.0836948156" lon="29.9941871222"><ele>81.85</ele><time>2026-04-22T12:46:28Z</time></trkpt><trkpt lat="59.0837390721" lon="29.9941384234"><ele>81.85</ele><time>2026-04-22T12:46:40Z</time></trkpt><trkpt lat="59.0838565025" lon="29.9939556979"><ele>81.85</ele><time>2026-04-22T12:46:54Z</time></trkpt><trkpt lat="59.0838749427" lon="29.9939389341"><ele>81.85</ele><time>2026-04-22T12:47:10Z</time></trkpt><trkpt lat="59.0839466918" lon="29.9939407781"><ele>81.85</ele><time>2026-04-22T12:47:23Z</time></trkpt><trkpt lat="59.0840387251" lon="29.9940150417"><ele>81.85</ele><time>2026-04-22T12:47:37Z</time></trkpt><trkpt lat="59.0841340274" lon="29.9940862879"><ele>81.85</ele><time>2026-04-22T12:47:52Z</time></trkpt><trkpt lat="59.0841395594" lon="29.9940375891"><ele>81.85</ele><time>2026-04-22T12:48:10Z</time></trkpt><trkpt lat="59.0841481090" lon="29.9940094259"><ele>81.85</ele><time>2026-04-22T12:48:27Z</time></trkpt><trkpt lat="59.0841563232" lon="29.9940195680"><ele>80.89</ele><time>2026-04-22T12:48:50Z</time></trkpt><trkpt lat="59.0841652919" lon="29.9940179754"><ele>80.89</ele><time>2026-04-22T12:49:17Z</time></trkpt><trkpt lat="59.0841673873" lon="29.9940289557"><ele>80.89</ele><time>2026-04-22T12:49:40Z</time></trkpt><trkpt lat="59.0841885936" lon="29.9940519221"><ele>80.89</ele><time>2026-04-22T12:49:59Z</time></trkpt><trkpt lat="59.0842751786" lon="29.9941008724"><ele>80.89</ele><time>2026-04-22T12:50:10Z</time></trkpt><trkpt lat="59.0843438264" lon="29.9941741303"><ele>80.89</ele><time>2026-04-22T12:50:21Z</time></trkpt><trkpt lat="59.0844164975" lon="29.9941949174"><ele>80.89</ele><time>2026-04-22T12:50:33Z</time></trkpt><trkpt lat="59.0845544636" lon="29.9942043889"><ele>80.89</ele><time>2026-04-22T12:50:47Z</time></trkpt><trkpt lat="59.0846428927" lon="29.9942867830"><ele>80.89</ele><time>2026-04-22T12:50:58Z</time></trkpt><trkpt lat="59.0846843831" lon="29.9943897128"><ele>80.89</ele><time>2026-04-22T12:51:17Z</time></trkpt><trkpt lat="59.0846684575" lon="29.9944198877"><ele>80.89</ele><time>2026-04-22T12:51:36Z</time></trkpt><trkpt lat="59.0846712235" lon="29.9944201391"><ele>80.89</ele><time>2026-04-22T12:51:52Z</time></trkpt><trkpt lat="59.0846769232" lon="29.9944700953"><ele>80.89</ele><time>2026-04-22T12:52:11Z</time></trkpt><trkpt lat="59.0846755821" lon="29.9944861047"><ele>80.89</ele><time>2026-04-22T12:52:29Z</time></trkpt><trkpt lat="59.0846551303" lon="29.9945703428"><ele>80.41</ele><time>2026-04-22T12:52:46Z</time></trkpt><trkpt lat="59.0846251231" lon="29.9946075585"><ele>80.89</ele><time>2026-04-22T12:53:00Z</time></trkpt><trkpt lat="59.0845921822" lon="29.9947641324"><ele>80.89</ele><time>2026-04-22T12:53:13Z</time></trkpt><trkpt lat="59.0845954511" lon="29.9948741030"><ele>81.85</ele><time>2026-04-22T12:53:26Z</time></trkpt><trkpt lat="59.0846138913" lon="29.9951338582"><ele>81.85</ele><time>2026-04-22T12:53:40Z</time></trkpt><trkpt lat="59.0846547950" lon="29.9953869078"><ele>81.85</ele><time>2026-04-22T12:53:53Z</time></trkpt><trkpt lat="59.0847012307" lon="29.9955542106"><ele>81.85</ele><time>2026-04-22T12:54:06Z</time></trkpt><trkpt lat="59.0846749116" lon="29.9957312364"><ele>81.85</ele><time>2026-04-22T12:54:19Z</time></trkpt><trkpt lat="59.0846662782" lon="29.9959183205"><ele>81.85</ele><time>2026-04-22T12:54:30Z</time></trkpt><trkpt lat="59.0846818686" lon="29.9960479047"><ele>81.85</ele><time>2026-04-22T12:54:41Z</time></trkpt><trkpt lat="59.0847060084" lon="29.9961137027"><ele>80.41</ele><time>2026-04-22T12:54:56Z</time></trkpt><trkpt lat="59.0847420506" lon="29.9961835239"><ele>80.41</ele><time>2026-04-22T12:55:09Z</time></trkpt><trkpt lat="59.0847695433" lon="29.9962338991"><ele>80.41</ele><time>2026-04-22T12:55:14Z</time></trkpt><trkpt lat="59.0848339163" lon="29.9963588733"><ele>80.41</ele><time>2026-04-22T12:55:27Z</time></trkpt><trkpt lat="59.0848680306" lon="29.9964306224"><ele>80.41</ele><time>2026-04-22T12:55:40Z</time></trkpt><trkpt lat="59.0848550387" lon="29.9965105858"><ele>79.93</ele><time>2026-04-22T12:55:56Z</time></trkpt><trkpt lat="59.0847847145" lon="29.9965837598"><ele>79.93</ele><time>2026-04-22T12:56:09Z</time></trkpt><trkpt lat="59.0846910048" lon="29.9966076482"><ele>79.93</ele><time>2026-04-22T12:56:22Z</time></trkpt><trkpt lat="59.0845857281" lon="29.9966535810"><ele>79.93</ele><time>2026-04-22T12:56:34Z</time></trkpt><trkpt lat="59.0845525358" lon="29.9967032019"><ele>79.93</ele><time>2026-04-22T12:56:46Z</time></trkpt><trkpt lat="59.0845412202" lon="29.9968093168"><ele>79.93</ele><time>2026-04-22T12:56:59Z</time></trkpt><trkpt lat="59.0846031625" lon="29.9969414156"><ele>79.93</ele><time>2026-04-22T12:57:12Z</time></trkpt><trkpt lat="59.0846311580" lon="29.9970499612"><ele>79.93</ele><time>2026-04-22T12:57:25Z</time></trkpt><trkpt lat="59.0846775938" lon="29.9971008394"><ele>79.93</ele><time>2026-04-22T12:57:38Z</time></trkpt><trkpt lat="59.0847288072" lon="29.9970872607"><ele>79.93</ele><time>2026-04-22T12:57:48Z</time></trkpt><trkpt lat="59.0847770032" lon="29.9970595166"><ele>79.93</ele><time>2026-04-22T12:58:14Z</time></trkpt><trkpt lat="59.0848410409" lon="29.9970156793"><ele>79.45</ele><time>2026-04-22T12:58:25Z</time></trkpt><trkpt lat="59.0848780889" lon="29.9969900306"><ele>79.45</ele><time>2026-04-22T12:58:36Z</time></trkpt><trkpt lat="59.0849174839" lon="29.9970111530"><ele>79.45</ele><time>2026-04-22T12:58:46Z</time></trkpt><trkpt lat="59.0849430487" lon="29.9970330298"><ele>79.45</ele><time>2026-04-22T12:58:58Z</time></trkpt><trkpt lat="59.0850044042" lon="29.9970506318"><ele>79.45</ele><time>2026-04-22T12:59:09Z</time></trkpt><trkpt lat="59.0850639995" lon="29.9970238097"><ele>79.45</ele><time>2026-04-22T12:59:20Z</time></trkpt><trkpt lat="59.0851677675" lon="29.9971003365"><ele>78.97</ele><time>2026-04-22T12:59:31Z</time></trkpt><trkpt lat="59.0852116887" lon="29.9971389771"><ele>78.97</ele><time>2026-04-22T12:59:43Z</time></trkpt><trkpt lat="59.0852162987" lon="29.9971683137"><ele>78.97</ele><time>2026-04-22T12:59:54Z</time></trkpt><trkpt lat="59.0852391813" lon="29.9971937109"><ele>78.48</ele><time>2026-04-22T13:00:09Z</time></trkpt><trkpt lat="59.0852848627" lon="29.9971894361"><ele>78.48</ele><time>2026-04-22T13:00:23Z</time></trkpt><trkpt lat="59.0853361599" lon="29.9972629454"><ele>78.48</ele><time>2026-04-22T13:00:36Z</time></trkpt><trkpt lat="59.0854078252" lon="29.9974051025"><ele>78.48</ele><time>2026-04-22T13:00:49Z</time></trkpt><trkpt lat="59.0854765568" lon="29.9975661188"><ele>78.48</ele><time>2026-04-22T13:01:06Z</time></trkpt><trkpt lat="59.0854722820" lon="29.9977640994"><ele>79.45</ele><time>2026-04-22T13:01:22Z</time></trkpt><trkpt lat="59.0854630619" lon="29.9978302326"><ele>79.45</ele><time>2026-04-22T13:01:44Z</time></trkpt><trkpt lat="59.0854714438" lon="29.9978183303"><ele>79.45</ele><time>2026-04-22T13:02:03Z</time></trkpt><trkpt lat="59.0854549315" lon="29.9976814538"><ele>79.45</ele><time>2026-04-22T13:02:14Z</time></trkpt><trkpt lat="59.0854755510" lon="29.9975263886"><ele>78.97</ele><time>2026-04-22T13:02:27Z</time></trkpt><trkpt lat="59.0854938235" lon="29.9974855687"><ele>78.97</ele><time>2026-04-22T13:02:36Z</time></trkpt><trkpt lat="59.0855208132" lon="29.9972969759"><ele>78.97</ele><time>2026-04-22T13:02:50Z</time></trkpt><trkpt lat="59.0855408460" lon="29.9971296731"><ele>78.00</ele><time>2026-04-22T13:03:02Z</time></trkpt><trkpt lat="59.0855268482" lon="29.9969531503"><ele>78.00</ele><time>2026-04-22T13:03:13Z</time></trkpt><trkpt lat="59.0855066478" lon="29.9968061317"><ele>78.00</ele><time>2026-04-22T13:03:26Z</time></trkpt><trkpt lat="59.0855175443" lon="29.9967234861"><ele>78.00</ele><time>2026-04-22T13:03:37Z</time></trkpt><trkpt lat="59.0855633933" lon="29.9965964165"><ele>78.00</ele><time>2026-04-22T13:03:49Z</time></trkpt><trkpt lat="59.0855926462" lon="29.9964501522"><ele>78.00</ele><time>2026-04-22T13:04:00Z</time></trkpt><trkpt lat="59.0856153611" lon="29.9963278603"><ele>78.00</ele><time>2026-04-22T13:04:11Z</time></trkpt><trkpt lat="59.0856120922" lon="29.9961936660"><ele>78.00</ele><time>2026-04-22T13:04:25Z</time></trkpt><trkpt lat="59.0856146067" lon="29.9960577115"><ele>78.00</ele><time>2026-04-22T13:04:37Z</time></trkpt><trkpt lat="59.0855593700" lon="29.9958791770"><ele>78.00</ele><time>2026-04-22T13:04:50Z</time></trkpt><trkpt lat="59.0855548438" lon="29.9958709627"><ele>78.00</ele><time>2026-04-22T13:04:52Z</time></trkpt><trkpt lat="59.0855042171" lon="29.9957184959"><ele>78.00</ele><time>2026-04-22T13:05:04Z</time></trkpt><trkpt lat="59.0854990203" lon="29.9956197571"><ele>78.00</ele><time>2026-04-22T13:05:17Z</time></trkpt><trkpt lat="59.0854330547" lon="29.9955357704"><ele>78.00</ele><time>2026-04-22T13:05:28Z</time></trkpt><trkpt lat="59.0853841882" lon="29.9954747502"><ele>78.00</ele><time>2026-04-22T13:05:39Z</time></trkpt><trkpt lat="59.0853675082" lon="29.9952807091"><ele>78.00</ele><time>2026-04-22T13:05:51Z</time></trkpt><trkpt lat="59.0853488166" lon="29.9951678049"><ele>78.00</ele><time>2026-04-22T13:06:06Z</time></trkpt><trkpt lat="59.0853245929" lon="29.9951048568"><ele>78.00</ele><time>2026-04-22T13:06:20Z</time></trkpt><trkpt lat="59.0853137802" lon="29.9950125720"><ele>78.00</ele><time>2026-04-22T13:06:34Z</time></trkpt><trkpt lat="59.0852656681" lon="29.9949086364"><ele>78.00</ele><time>2026-04-22T13:06:46Z</time></trkpt><trkpt lat="59.0852648299" lon="29.9948657211"><ele>78.97</ele><time>2026-04-22T13:06:50Z</time></trkpt><trkpt lat="59.0852589626" lon="29.9948470294"><ele>78.97</ele><time>2026-04-22T13:07:04Z</time></trkpt><trkpt lat="59.0852732956" lon="29.9947781302"><ele>78.97</ele><time>2026-04-22T13:07:14Z</time></trkpt><trkpt lat="59.0852844436" lon="29.9947717600"><ele>78.97</ele><time>2026-04-22T13:07:27Z</time></trkpt><trkpt lat="59.0853014588" lon="29.9948141724"><ele>78.97</ele><time>2026-04-22T13:07:39Z</time></trkpt><trkpt lat="59.0853276104" lon="29.9948782939"><ele>78.97</ele><time>2026-04-22T13:07:51Z</time></trkpt><trkpt lat="59.0854343120" lon="29.9948466942"><ele>78.97</ele><time>2026-04-22T13:08:07Z</time></trkpt><trkpt lat="59.0854802448" lon="29.9948293436"><ele>78.97</ele><time>2026-04-22T13:08:22Z</time></trkpt><trkpt lat="59.0854868665" lon="29.9948446825"><ele>78.97</ele><time>2026-04-22T13:08:37Z</time></trkpt><trkpt lat="59.0855090786" lon="29.9948689900"><ele>78.48</ele><time>2026-04-22T13:08:42Z</time></trkpt><trkpt lat="59.0855497308" lon="29.9948874302"><ele>78.48</ele><time>2026-04-22T13:08:46Z</time></trkpt><trkpt lat="59.0855961666" lon="29.9949740153"><ele>78.48</ele><time>2026-04-22T13:08:58Z</time></trkpt><trkpt lat="59.0857198834" lon="29.9950549845"><ele>78.48</ele><time>2026-04-22T13:09:13Z</time></trkpt><trkpt lat="59.0857311152" lon="29.9950666353"><ele>78.48</ele><time>2026-04-22T13:09:17Z</time></trkpt><trkpt lat="59.0858296026" lon="29.9951152503"><ele>78.48</ele><time>2026-04-22T13:09:27Z</time></trkpt><trkpt lat="59.0858794749" lon="29.9951955490"><ele>78.48</ele><time>2026-04-22T13:09:38Z</time></trkpt><trkpt lat="59.0859503020" lon="29.9952688068"><ele>78.48</ele><time>2026-04-22T13:09:51Z</time></trkpt><trkpt lat="59.0860122442" lon="29.9953135662"><ele>78.48</ele><time>2026-04-22T13:09:59Z</time></trkpt><trkpt lat="59.0860486217" lon="29.9953331798"><ele>78.48</ele><time>2026-04-22T13:10:01Z</time></trkpt><trkpt lat="59.0862778667" lon="29.9953059386"><ele>78.48</ele><time>2026-04-22T13:10:13Z</time></trkpt><trkpt lat="59.0863848198" lon="29.9952606764"><ele>78.48</ele><time>2026-04-22T13:10:27Z</time></trkpt><trkpt lat="59.0864590835" lon="29.9952483550"><ele>79.45</ele><time>2026-04-22T13:10:40Z</time></trkpt><trkpt lat="59.0865377896" lon="29.9953077827"><ele>79.45</ele><time>2026-04-22T13:10:52Z</time></trkpt><trkpt lat="59.0865512006" lon="29.9953411426"><ele>79.45</ele><time>2026-04-22T13:11:15Z</time></trkpt><trkpt lat="59.0865532961" lon="29.9953463394"><ele>79.45</ele><time>2026-04-22T13:11:31Z</time></trkpt><trkpt lat="59.0865503624" lon="29.9953673780"><ele>79.45</ele><time>2026-04-22T13:11:56Z</time></trkpt><trkpt lat="59.0865738317" lon="29.9954253808"><ele>79.45</ele><time>2026-04-22T13:12:18Z</time></trkpt><trkpt lat="59.0866250452" lon="29.9954599142"><ele>79.93</ele><time>2026-04-22T13:12:30Z</time></trkpt><trkpt lat="59.0866743308" lon="29.9955205154"><ele>79.93</ele><time>2026-04-22T13:12:41Z</time></trkpt><trkpt lat="59.0867389552" lon="29.9955470022"><ele>79.93</ele><time>2026-04-22T13:12:55Z</time></trkpt><trkpt lat="59.0868043341" lon="29.9956074357"><ele>79.93</ele><time>2026-04-22T13:13:07Z</time></trkpt><trkpt lat="59.0868923441" lon="29.9955653585"><ele>79.93</ele><time>2026-04-22T13:13:18Z</time></trkpt><trkpt lat="59.0870040748" lon="29.9955395423"><ele>79.93</ele><time>2026-04-22T13:13:30Z</time></trkpt><trkpt lat="59.0871262830" lon="29.9955489300"><ele>79.93</ele><time>2026-04-22T13:13:43Z</time></trkpt><trkpt lat="59.0871427953" lon="29.9955369439"><ele>79.93</ele><time>2026-04-22T13:13:52Z</time></trkpt><trkpt lat="59.0871984512" lon="29.9955235329"><ele>79.93</ele><time>2026-04-22T13:14:09Z</time></trkpt><trkpt lat="59.0872525144" lon="29.9955467507"><ele>78.97</ele><time>2026-04-22T13:14:24Z</time></trkpt><trkpt lat="59.0873012133" lon="29.9954734091"><ele>78.48</ele><time>2026-04-22T13:14:36Z</time></trkpt><trkpt lat="59.0873340704" lon="29.9955162406"><ele>78.48</ele><time>2026-04-22T13:14:51Z</time></trkpt><trkpt lat="59.0874042269" lon="29.9954734929"><ele>78.48</ele><time>2026-04-22T13:15:06Z</time></trkpt><trkpt lat="59.0874671750" lon="29.9954628479"><ele>78.48</ele><time>2026-04-22T13:15:20Z</time></trkpt><trkpt lat="59.0875405166" lon="29.9954262190"><ele>78.48</ele><time>2026-04-22T13:15:30Z</time></trkpt><trkpt lat="59.0875789057" lon="29.9954061024"><ele>78.00</ele><time>2026-04-22T13:15:38Z</time></trkpt><trkpt lat="59.0876773093" lon="29.9953261390"><ele>78.00</ele><time>2026-04-22T13:15:51Z</time></trkpt><trkpt lat="59.0876897983" lon="29.9953341857"><ele>78.00</ele><time>2026-04-22T13:16:03Z</time></trkpt><trkpt lat="59.0876913071" lon="29.9953382928"><ele>78.00</ele><time>2026-04-22T13:16:07Z</time></trkpt><trkpt lat="59.0878071450" lon="29.9953035917"><ele>78.48</ele><time>2026-04-22T13:16:19Z</time></trkpt><trkpt lat="59.0878563467" lon="29.9952697288"><ele>78.00</ele><time>2026-04-22T13:16:33Z</time></trkpt><trkpt lat="59.0878907964" lon="29.9952190183"><ele>77.52</ele><time>2026-04-22T13:16:48Z</time></trkpt><trkpt lat="59.0879218094" lon="29.9952096306"><ele>77.52</ele><time>2026-04-22T13:17:09Z</time></trkpt><trkpt lat="59.0879351366" lon="29.9951803777"><ele>77.52</ele><time>2026-04-22T13:17:25Z</time></trkpt><trkpt lat="59.0879418422" lon="29.9951878376"><ele>77.52</ele><time>2026-04-22T13:17:50Z</time></trkpt><trkpt lat="59.0879723523" lon="29.9952217005"><ele>77.52</ele><time>2026-04-22T13:18:15Z</time></trkpt><trkpt lat="59.0880338755" lon="29.9954543822"><ele>77.52</ele><time>2026-04-22T13:18:28Z</time></trkpt><trkpt lat="59.0880617872" lon="29.9955544621"><ele>77.04</ele><time>2026-04-22T13:18:35Z</time></trkpt><trkpt lat="59.0881035291" lon="29.9956420530"><ele>77.04</ele><time>2026-04-22T13:18:46Z</time></trkpt><trkpt lat="59.0881651361" lon="29.9957801867"><ele>77.04</ele><time>2026-04-22T13:19:03Z</time></trkpt><trkpt lat="59.0882653836" lon="29.9959182367"><ele>77.04</ele><time>2026-04-22T13:19:16Z</time></trkpt><trkpt lat="59.0883596800" lon="29.9960150477"><ele>77.04</ele><time>2026-04-22T13:19:29Z</time></trkpt><trkpt lat="59.0884030145" lon="29.9960972741"><ele>76.56</ele><time>2026-04-22T13:19:43Z</time></trkpt><trkpt lat="59.0884953830" lon="29.9961831048"><ele>76.56</ele><time>2026-04-22T13:19:56Z</time></trkpt><trkpt lat="59.0885157511" lon="29.9961965159"><ele>76.56</ele><time>2026-04-22T13:20:07Z</time></trkpt><trkpt lat="59.0885072015" lon="29.9962507468"><ele>76.56</ele><time>2026-04-22T13:20:19Z</time></trkpt><trkpt lat="59.0885736700" lon="29.9962027185"><ele>76.56</ele><time>2026-04-22T13:20:32Z</time></trkpt><trkpt lat="59.0886249673" lon="29.9961264431"><ele>76.08</ele><time>2026-04-22T13:20:42Z</time></trkpt><trkpt lat="59.0886853170" lon="29.9960805941"><ele>76.08</ele><time>2026-04-22T13:20:53Z</time></trkpt><trkpt lat="59.0886887535" lon="29.9960989505"><ele>76.08</ele><time>2026-04-22T13:21:09Z</time></trkpt><trkpt lat="59.0887670405" lon="29.9960728828"><ele>76.08</ele><time>2026-04-22T13:21:22Z</time></trkpt><trkpt lat="59.0888033342" lon="29.9961304665"><ele>76.08</ele><time>2026-04-22T13:21:33Z</time></trkpt><trkpt lat="59.0888138115" lon="29.9961867090"><ele>76.08</ele><time>2026-04-22T13:21:46Z</time></trkpt><trkpt lat="59.0888467524" lon="29.9961896427"><ele>76.08</ele><time>2026-04-22T13:21:59Z</time></trkpt><trkpt lat="59.0888792742" lon="29.9961878825"><ele>76.08</ele><time>2026-04-22T13:22:12Z</time></trkpt><trkpt lat="59.0889061801" lon="29.9962610565"><ele>75.60</ele><time>2026-04-22T13:22:23Z</time></trkpt><trkpt lat="59.0889433119" lon="29.9963173829"><ele>75.60</ele><time>2026-04-22T13:22:37Z</time></trkpt><trkpt lat="59.0889697988" lon="29.9962878786"><ele>75.60</ele><time>2026-04-22T13:22:51Z</time></trkpt><trkpt lat="59.0890143905" lon="29.9962157104"><ele>75.60</ele><time>2026-04-22T13:23:04Z</time></trkpt><trkpt lat="59.0890870616" lon="29.9961971026"><ele>75.60</ele><time>2026-04-22T13:23:18Z</time></trkpt><trkpt lat="59.0891477466" lon="29.9961220007"><ele>75.60</ele><time>2026-04-22T13:23:31Z</time></trkpt><trkpt lat="59.0891586430" lon="29.9961575400"><ele>75.12</ele><time>2026-04-22T13:23:44Z</time></trkpt><trkpt lat="59.0892272908" lon="29.9961955100"><ele>75.12</ele><time>2026-04-22T13:23:58Z</time></trkpt><trkpt lat="59.0892884787" lon="29.9962672591"><ele>75.12</ele><time>2026-04-22T13:24:08Z</time></trkpt><trkpt lat="59.0893278737" lon="29.9963480607"><ele>75.12</ele><time>2026-04-22T13:24:25Z</time></trkpt><trkpt lat="59.0893532708" lon="29.9964265991"><ele>75.12</ele><time>2026-04-22T13:24:38Z</time></trkpt><trkpt lat="59.0894097649" lon="29.9965048023"><ele>75.12</ele><time>2026-04-22T13:24:50Z</time></trkpt><trkpt lat="59.0894442145" lon="29.9965170398"><ele>75.12</ele><time>2026-04-22T13:25:02Z</time></trkpt><trkpt lat="59.0894844476" lon="29.9965463765"><ele>75.12</ele><time>2026-04-22T13:25:17Z</time></trkpt><trkpt lat="59.0895136166" lon="29.9965960812"><ele>75.12</ele><time>2026-04-22T13:25:34Z</time></trkpt><trkpt lat="59.0895266086" lon="29.9966372363"><ele>75.12</ele><time>2026-04-22T13:25:52Z</time></trkpt><trkpt lat="59.0895400196" lon="29.9967007712"><ele>75.12</ele><time>2026-04-22T13:26:05Z</time></trkpt><trkpt lat="59.0895178914" lon="29.9967475422"><ele>75.12</ele><time>2026-04-22T13:26:18Z</time></trkpt><trkpt lat="59.0895209089" lon="29.9967808183"><ele>75.12</ele><time>2026-04-22T13:26:39Z</time></trkpt><trkpt lat="59.0895402711" lon="29.9968336243"><ele>75.12</ele><time>2026-04-22T13:26:52Z</time></trkpt><trkpt lat="59.0896164626" lon="29.9968272541"><ele>75.60</ele><time>2026-04-22T13:27:04Z</time></trkpt><trkpt lat="59.0897203144" lon="29.9967291858"><ele>75.12</ele><time>2026-04-22T13:27:17Z</time></trkpt><trkpt lat="59.0897702705" lon="29.9967271741"><ele>75.12</ele><time>2026-04-22T13:27:29Z</time></trkpt><trkpt lat="59.0898201428" lon="29.9967815727"><ele>75.12</ele><time>2026-04-22T13:27:40Z</time></trkpt><trkpt lat="59.0899106674" lon="29.9968290143"><ele>75.12</ele><time>2026-04-22T13:27:51Z</time></trkpt><trkpt lat="59.0899639763" lon="29.9967357237"><ele>75.12</ele><time>2026-04-22T13:28:03Z</time></trkpt><trkpt lat="59.0899983421" lon="29.9967115000"><ele>74.64</ele><time>2026-04-22T13:28:14Z</time></trkpt><trkpt lat="59.0900609549" lon="29.9967282638"><ele>74.16</ele><time>2026-04-22T13:28:26Z</time></trkpt><trkpt lat="59.0901250765" lon="29.9967457820"><ele>75.12</ele><time>2026-04-22T13:28:38Z</time></trkpt><trkpt lat="59.0901776310" lon="29.9967376515"><ele>75.12</ele><time>2026-04-22T13:28:53Z</time></trkpt><trkpt lat="59.0902414173" lon="29.9967327900"><ele>74.16</ele><time>2026-04-22T13:29:03Z</time></trkpt><trkpt lat="59.0902861767" lon="29.9967889488"><ele>74.16</ele><time>2026-04-22T13:29:18Z</time></trkpt><trkpt lat="59.0903623682" lon="29.9968273379"><ele>74.16</ele><time>2026-04-22T13:29:30Z</time></trkpt><trkpt lat="59.0904215444" lon="29.9969229754"><ele>74.16</ele><time>2026-04-22T13:29:44Z</time></trkpt><trkpt lat="59.0904272441" lon="29.9969795533"><ele>74.16</ele><time>2026-04-22T13:29:59Z</time></trkpt><trkpt lat="59.0904528089" lon="29.9969887733"><ele>74.16</ele><time>2026-04-22T13:30:12Z</time></trkpt><trkpt lat="59.0904694889" lon="29.9972128216"><ele>74.16</ele><time>2026-04-22T13:30:27Z</time></trkpt><trkpt lat="59.0904573351" lon="29.9974261411"><ele>74.16</ele><time>2026-04-22T13:30:39Z</time></trkpt><trkpt lat="59.0903959796" lon="29.9975026678"><ele>74.16</ele><time>2026-04-22T13:30:51Z</time></trkpt><trkpt lat="59.0903749410" lon="29.9975470919"><ele>74.16</ele><time>2026-04-22T13:31:03Z</time></trkpt><trkpt lat="59.0903460234" lon="29.9976147339"><ele>73.68</ele><time>2026-04-22T13:31:17Z</time></trkpt><trkpt lat="59.0903269127" lon="29.9978362676"><ele>73.68</ele><time>2026-04-22T13:31:29Z</time></trkpt><trkpt lat="59.0903610270" lon="29.9979350064"><ele>73.68</ele><time>2026-04-22T13:31:43Z</time></trkpt><trkpt lat="59.0903895255" lon="29.9979904108"><ele>73.68</ele><time>2026-04-22T13:31:57Z</time></trkpt><trkpt lat="59.0904301777" lon="29.9980521016"><ele>73.68</ele><time>2026-04-22T13:32:08Z</time></trkpt><trkpt lat="59.0904470254" lon="29.9981735554"><ele>75.60</ele><time>2026-04-22T13:32:19Z</time></trkpt><trkpt lat="59.0904901922" lon="29.9983629026"><ele>75.60</ele><time>2026-04-22T13:32:33Z</time></trkpt><trkpt lat="59.0905132424" lon="29.9984537624"><ele>75.60</ele><time>2026-04-22T13:32:45Z</time></trkpt><trkpt lat="59.0905566607" lon="29.9985792395"><ele>75.60</ele><time>2026-04-22T13:32:58Z</time></trkpt><trkpt lat="59.0906822216" lon="29.9986992683"><ele>74.64</ele><time>2026-04-22T13:33:11Z</time></trkpt><trkpt lat="59.0907750092" lon="29.9987172056"><ele>74.64</ele><time>2026-04-22T13:33:23Z</time></trkpt><trkpt lat="59.0908285696" lon="29.9986957479"><ele>74.64</ele><time>2026-04-22T13:33:35Z</time></trkpt><trkpt lat="59.0908586606" lon="29.9986486416"><ele>74.64</ele><time>2026-04-22T13:33:46Z</time></trkpt><trkpt lat="59.0908965468" lon="29.9986035470"><ele>74.64</ele><time>2026-04-22T13:33:58Z</time></trkpt><trkpt lat="59.0909700561" lon="29.9985496514"><ele>74.64</ele><time>2026-04-22T13:34:13Z</time></trkpt><trkpt lat="59.0911000594" lon="29.9985328875"><ele>74.64</ele><time>2026-04-22T13:34:27Z</time></trkpt><trkpt lat="59.0911422204" lon="29.9984875415"><ele>74.64</ele><time>2026-04-22T13:34:31Z</time></trkpt><trkpt lat="59.0912422165" lon="29.9984178040"><ele>74.64</ele><time>2026-04-22T13:34:42Z</time></trkpt><trkpt lat="59.0913019795" lon="29.9984737113"><ele>74.64</ele><time>2026-04-22T13:34:53Z</time></trkpt><trkpt lat="59.0913987067" lon="29.9984233361"><ele>74.16</ele><time>2026-04-22T13:35:07Z</time></trkpt><trkpt lat="59.0915393550" lon="29.9982719589"><ele>74.16</ele><time>2026-04-22T13:35:18Z</time></trkpt><trkpt lat="59.0915996209" lon="29.9981596414"><ele>74.16</ele><time>2026-04-22T13:35:30Z</time></trkpt><trkpt lat="59.0916384291" lon="29.9979917519"><ele>74.16</ele><time>2026-04-22T13:35:43Z</time></trkpt><trkpt lat="59.0916370042" lon="29.9978775904"><ele>74.16</ele><time>2026-04-22T13:35:53Z</time></trkpt><trkpt lat="59.0916487388" lon="29.9977183342"><ele>74.16</ele><time>2026-04-22T13:36:06Z</time></trkpt><trkpt lat="59.0916374233" lon="29.9975252151"><ele>74.16</ele><time>2026-04-22T13:36:17Z</time></trkpt><trkpt lat="59.0916669276" lon="29.9974805396"><ele>74.16</ele><time>2026-04-22T13:36:26Z</time></trkpt><trkpt lat="59.0916428715" lon="29.9972336087"><ele>75.12</ele><time>2026-04-22T13:36:40Z</time></trkpt><trkpt lat="59.0916263591" lon="29.9970664736"><ele>75.12</ele><time>2026-04-22T13:36:54Z</time></trkpt><trkpt lat="59.0916514210" lon="29.9969688244"><ele>75.12</ele><time>2026-04-22T13:37:06Z</time></trkpt><trkpt lat="59.0916427039" lon="29.9968938902"><ele>75.12</ele><time>2026-04-22T13:37:20Z</time></trkpt><trkpt lat="59.0916404407" lon="29.9967896193"><ele>75.12</ele><time>2026-04-22T13:37:29Z</time></trkpt><trkpt lat="59.0916276164" lon="29.9966596998"><ele>74.16</ele><time>2026-04-22T13:37:38Z</time></trkpt><trkpt lat="59.0916634910" lon="29.9965145253"><ele>74.16</ele><time>2026-04-22T13:37:49Z</time></trkpt><trkpt lat="59.0917034727" lon="29.9964390881"><ele>74.16</ele><time>2026-04-22T13:38:02Z</time></trkpt><trkpt lat="59.0917371679" lon="29.9963211548"><ele>74.16</ele><time>2026-04-22T13:38:15Z</time></trkpt><trkpt lat="59.0917353239" lon="29.9962236732"><ele>74.16</ele><time>2026-04-22T13:38:27Z</time></trkpt><trkpt lat="59.0917525068" lon="29.9961774889"><ele>74.16</ele><time>2026-04-22T13:38:32Z</time></trkpt><trkpt lat="59.0918030497" lon="29.9959946796"><ele>74.16</ele><time>2026-04-22T13:38:46Z</time></trkpt><trkpt lat="59.0918144491" lon="29.9957520235"><ele>74.16</ele><time>2026-04-22T13:38:57Z</time></trkpt><trkpt lat="59.0918450430" lon="29.9956834596"><ele>74.16</ele><time>2026-04-22T13:39:08Z</time></trkpt><trkpt lat="59.0918537602" lon="29.9956562184"><ele>74.16</ele><time>2026-04-22T13:39:26Z</time></trkpt><trkpt lat="59.0918649919" lon="29.9956471659"><ele>74.16</ele><time>2026-04-22T13:39:40Z</time></trkpt><trkpt lat="59.0918702725" lon="29.9956220202"><ele>74.16</ele><time>2026-04-22T13:40:00Z</time></trkpt><trkpt lat="59.0918934066" lon="29.9956633430"><ele>74.16</ele><time>2026-04-22T13:40:16Z</time></trkpt><trkpt lat="59.0918928199" lon="29.9956728145"><ele>75.12</ele><time>2026-04-22T13:40:37Z</time></trkpt><trkpt lat="59.0918960050" lon="29.9956687912"><ele>75.60</ele><time>2026-04-22T13:40:59Z</time></trkpt><trkpt lat="59.0918977652" lon="29.9956760835"><ele>75.60</ele><time>2026-04-22T13:41:24Z</time></trkpt><trkpt lat="59.0918892156" lon="29.9956838787"><ele>75.60</ele><time>2026-04-22T13:41:47Z</time></trkpt><trkpt lat="59.0918702725" lon="29.9956947751"><ele>75.60</ele><time>2026-04-22T13:42:04Z</time></trkpt><trkpt lat="59.0918731224" lon="29.9957373552"><ele>75.60</ele><time>2026-04-22T13:42:16Z</time></trkpt><trkpt lat="59.0918248426" lon="29.9957520235"><ele>75.60</ele><time>2026-04-22T13:42:28Z</time></trkpt><trkpt lat="59.0917968471" lon="29.9958194979"><ele>76.08</ele><time>2026-04-22T13:42:42Z</time></trkpt><trkpt lat="59.0917954221" lon="29.9958669394"><ele>76.08</ele><time>2026-04-22T13:42:58Z</time></trkpt><trkpt lat="59.0918144491" lon="29.9958982877"><ele>76.08</ele><time>2026-04-22T13:43:09Z</time></trkpt><trkpt lat="59.0918486472" lon="29.9961414468"><ele>76.08</ele><time>2026-04-22T13:43:21Z</time></trkpt><trkpt lat="59.0918521676" lon="29.9962064065"><ele>76.08</ele><time>2026-04-22T13:43:32Z</time></trkpt><trkpt lat="59.0918901376" lon="29.9963371642"><ele>76.08</ele><time>2026-04-22T13:43:44Z</time></trkpt><trkpt lat="59.0919198934" lon="29.9964499846"><ele>76.08</ele><time>2026-04-22T13:43:55Z</time></trkpt><trkpt lat="59.0919340588" lon="29.9965385813"><ele>75.12</ele><time>2026-04-22T13:44:00Z</time></trkpt><trkpt lat="59.0919603780" lon="29.9966408405"><ele>75.12</ele><time>2026-04-22T13:44:12Z</time></trkpt><trkpt lat="59.0919835959" lon="29.9967396632"><ele>75.12</ele><time>2026-04-22T13:44:23Z</time></trkpt><trkpt lat="59.0919768065" lon="29.9967830814"><ele>75.12</ele><time>2026-04-22T13:44:37Z</time></trkpt><trkpt lat="59.0919726156" lon="29.9968544114"><ele>75.12</ele><time>2026-04-22T13:44:52Z</time></trkpt><trkpt lat="59.0919452906" lon="29.9968726002"><ele>75.12</ele><time>2026-04-22T13:45:05Z</time></trkpt><trkpt lat="59.0919479728" lon="29.9968887772"><ele>75.12</ele><time>2026-04-22T13:45:17Z</time></trkpt><trkpt lat="59.0919637308" lon="29.9968792219"><ele>75.12</ele><time>2026-04-22T13:45:31Z</time></trkpt><trkpt lat="59.0920304507" lon="29.9967844225"><ele>75.12</ele><time>2026-04-22T13:45:44Z</time></trkpt><trkpt lat="59.0920503158" lon="29.9967367295"><ele>75.12</ele><time>2026-04-22T13:45:56Z</time></trkpt><trkpt lat="59.0921244118" lon="29.9967902899"><ele>75.12</ele><time>2026-04-22T13:46:09Z</time></trkpt><trkpt lat="59.0921546705" lon="29.9968315288"><ele>75.12</ele><time>2026-04-22T13:46:19Z</time></trkpt><trkpt lat="59.0921559278" lon="29.9969218858"><ele>75.12</ele><time>2026-04-22T13:46:28Z</time></trkpt><trkpt lat="59.0921590291" lon="29.9969579279"><ele>75.12</ele><time>2026-04-22T13:46:44Z</time></trkpt><trkpt lat="59.0921690036" lon="29.9969626218"><ele>75.12</ele><time>2026-04-22T13:47:00Z</time></trkpt><trkpt lat="59.0921946522" lon="29.9970781244"><ele>75.12</ele><time>2026-04-22T13:47:17Z</time></trkpt><trkpt lat="59.0921817441" lon="29.9971460178"><ele>75.12</ele><time>2026-04-22T13:47:28Z</time></trkpt><trkpt lat="59.0921743680" lon="29.9972080439"><ele>75.12</ele><time>2026-04-22T13:47:39Z</time></trkpt><trkpt lat="59.0921985079" lon="29.9972985685"><ele>75.12</ele><time>2026-04-22T13:47:51Z</time></trkpt><trkpt lat="59.0922083147" lon="29.9974180944"><ele>75.12</ele><time>2026-04-22T13:48:01Z</time></trkpt><trkpt lat="59.0922330413" lon="29.9975673761"><ele>75.12</ele><time>2026-04-22T13:48:14Z</time></trkpt><trkpt lat="59.0922429319" lon="29.9976229481"><ele>75.12</ele><time>2026-04-22T13:48:19Z</time></trkpt><trkpt lat="59.0922387410" lon="29.9977003131"><ele>75.12</ele><time>2026-04-22T13:48:24Z</time></trkpt><trkpt lat="59.0922342148" lon="29.9977806956"><ele>75.12</ele><time>2026-04-22T13:48:34Z</time></trkpt><trkpt lat="59.0922504757" lon="29.9979659356"><ele>75.12</ele><time>2026-04-22T13:48:46Z</time></trkpt><trkpt lat="59.0922705084" lon="29.9980993755"><ele>75.12</ele><time>2026-04-22T13:48:56Z</time></trkpt><trkpt lat="59.0923132561" lon="29.9982018862"><ele>75.12</ele><time>2026-04-22T13:49:09Z</time></trkpt><trkpt lat="59.0922954027" lon="29.9983691890"><ele>75.12</ele><time>2026-04-22T13:49:22Z</time></trkpt><trkpt lat="59.0923031140" lon="29.9985016230"><ele>75.12</ele><time>2026-04-22T13:49:33Z</time></trkpt><trkpt lat="59.0923209675" lon="29.9986607116"><ele>75.12</ele><time>2026-04-22T13:49:48Z</time></trkpt><trkpt lat="59.0923940577" lon="29.9988534115"><ele>75.12</ele><time>2026-04-22T13:50:02Z</time></trkpt><trkpt lat="59.0924210474" lon="29.9988525733"><ele>75.60</ele><time>2026-04-22T13:50:19Z</time></trkpt><trkpt lat="59.0924413316" lon="29.9987371545"><ele>75.60</ele><time>2026-04-22T13:50:31Z</time></trkpt><trkpt lat="59.0924564190" lon="29.9987326283"><ele>75.60</ele><time>2026-04-22T13:50:44Z</time></trkpt><trkpt lat="59.0924880188" lon="29.9987194687"><ele>75.60</ele><time>2026-04-22T13:50:57Z</time></trkpt><trkpt lat="59.0925078839" lon="29.9987162836"><ele>75.60</ele><time>2026-04-22T13:51:09Z</time></trkpt><trkpt lat="59.0925213788" lon="29.9987376574"><ele>75.60</ele><time>2026-04-22T13:51:26Z</time></trkpt><trkpt lat="59.0925383102" lon="29.9987448659"><ele>76.56</ele><time>2026-04-22T13:51:45Z</time></trkpt><trkpt lat="59.0925523080" lon="29.9987529963"><ele>76.56</ele><time>2026-04-22T13:51:53Z</time></trkpt><trkpt lat="59.0925972350" lon="29.9987109192"><ele>76.56</ele><time>2026-04-22T13:52:06Z</time></trkpt><trkpt lat="59.0926655475" lon="29.9985815026"><ele>75.12</ele><time>2026-04-22T13:52:19Z</time></trkpt><trkpt lat="59.0927756857" lon="29.9985035509"><ele>75.12</ele><time>2026-04-22T13:52:33Z</time></trkpt><trkpt lat="59.0928191040" lon="29.9984025490"><ele>75.12</ele><time>2026-04-22T13:52:48Z</time></trkpt><trkpt lat="59.0928917751" lon="29.9983068276"><ele>75.12</ele><time>2026-04-22T13:53:00Z</time></trkpt><trkpt lat="59.0929150768" lon="29.9982451368"><ele>75.12</ele><time>2026-04-22T13:53:15Z</time></trkpt><trkpt lat="59.0928751789" lon="29.9981899001"><ele>75.12</ele><time>2026-04-22T13:53:30Z</time></trkpt><trkpt lat="59.0928289108" lon="29.9981213361"><ele>75.12</ele><time>2026-04-22T13:53:42Z</time></trkpt><trkpt lat="59.0927958023" lon="29.9980111141"><ele>75.12</ele><time>2026-04-22T13:53:51Z</time></trkpt><trkpt lat="59.0927894320" lon="29.9979658518"><ele>75.12</ele><time>2026-04-22T13:54:02Z</time></trkpt><trkpt lat="59.0927931201" lon="29.9979163148"><ele>75.12</ele><time>2026-04-22T13:54:13Z</time></trkpt><trkpt lat="59.0927960537" lon="29.9978568032"><ele>75.12</ele><time>2026-04-22T13:54:27Z</time></trkpt><trkpt lat="59.0927991550" lon="29.9978508521"><ele>75.12</ele><time>2026-04-22T13:54:29Z</time></trkpt><trkpt lat="59.0927560721" lon="29.9977763370"><ele>75.12</ele><time>2026-04-22T13:54:40Z</time></trkpt><trkpt lat="59.0927064512" lon="29.9977091141"><ele>75.12</ele><time>2026-04-22T13:54:51Z</time></trkpt><trkpt lat="59.0927067865" lon="29.9975965451"><ele>75.12</ele><time>2026-04-22T13:55:04Z</time></trkpt><trkpt lat="59.0926569141" lon="29.9974358641"><ele>75.12</ele><time>2026-04-22T13:55:18Z</time></trkpt><trkpt lat="59.0926497895" lon="29.9972571619"><ele>75.12</ele><time>2026-04-22T13:55:31Z</time></trkpt><trkpt lat="59.0926270746" lon="29.9971817248"><ele>75.12</ele><time>2026-04-22T13:55:44Z</time></trkpt><trkpt lat="59.0925943013" lon="29.9970805552"><ele>75.12</ele><time>2026-04-22T13:55:57Z</time></trkpt><trkpt lat="59.0925411601" lon="29.9970023520"><ele>75.12</ele><time>2026-04-22T13:56:08Z</time></trkpt><trkpt lat="59.0925181098" lon="29.9969317764"><ele>75.12</ele><time>2026-04-22T13:56:24Z</time></trkpt><trkpt lat="59.0925170202" lon="29.9968788866"><ele>74.64</ele><time>2026-04-22T13:56:37Z</time></trkpt><trkpt lat="59.0925075486" lon="29.9967780523"><ele>74.64</ele><time>2026-04-22T13:56:46Z</time></trkpt><trkpt lat="59.0925083868" lon="29.9966121744"><ele>74.64</ele><time>2026-04-22T13:56:58Z</time></trkpt><trkpt lat="59.0924895275" lon="29.9964509904"><ele>74.64</ele><time>2026-04-22T13:57:11Z</time></trkpt><trkpt lat="59.0924909525" lon="29.9963248428"><ele>74.64</ele><time>2026-04-22T13:57:23Z</time></trkpt><trkpt lat="59.0924924612" lon="29.9962168839"><ele>74.64</ele><time>2026-04-22T13:57:38Z</time></trkpt><trkpt lat="59.0925258212" lon="29.9961405247"><ele>74.64</ele><time>2026-04-22T13:57:49Z</time></trkpt><trkpt lat="59.0925670601" lon="29.9960209988"><ele>74.64</ele><time>2026-04-22T13:58:01Z</time></trkpt><trkpt lat="59.0926331934" lon="29.9958425481"><ele>74.64</ele><time>2026-04-22T13:58:12Z</time></trkpt><trkpt lat="59.0926711634" lon="29.9957783427"><ele>74.16</ele><time>2026-04-22T13:58:28Z</time></trkpt><trkpt lat="59.0927166771" lon="29.9957041629"><ele>74.16</ele><time>2026-04-22T13:58:41Z</time></trkpt><trkpt lat="59.0927899349" lon="29.9956526980"><ele>74.16</ele><time>2026-04-22T13:59:02Z</time></trkpt><trkpt lat="59.0928165056" lon="29.9956044182"><ele>74.16</ele><time>2026-04-22T13:59:16Z</time></trkpt><trkpt lat="59.0928776935" lon="29.9954638537"><ele>74.16</ele><time>2026-04-22T13:59:34Z</time></trkpt><trkpt lat="59.0928832255" lon="29.9953695573"><ele>74.16</ele><time>2026-04-22T13:59:52Z</time></trkpt><trkpt lat="59.0928796213" lon="29.9953585770"><ele>74.64</ele><time>2026-04-22T14:00:09Z</time></trkpt><trkpt lat="59.0928890929" lon="29.9954035040"><ele>74.64</ele><time>2026-04-22T14:00:28Z</time></trkpt><trkpt lat="59.0930044279" lon="29.9954304937"><ele>74.64</ele><time>2026-04-22T14:00:44Z</time></trkpt><trkpt lat="59.0931786876" lon="29.9953784421"><ele>74.64</ele><time>2026-04-22T14:00:58Z</time></trkpt><trkpt lat="59.0932780970" lon="29.9953267258"><ele>74.64</ele><time>2026-04-22T14:01:16Z</time></trkpt><trkpt lat="59.0934114531" lon="29.9951963034"><ele>74.16</ele><time>2026-04-22T14:01:32Z</time></trkpt><trkpt lat="59.0934974514" lon="29.9950766936"><ele>74.64</ele><time>2026-04-22T14:01:49Z</time></trkpt><trkpt lat="59.0934975352" lon="29.9947985820"><ele>74.64</ele><time>2026-04-22T14:02:03Z</time></trkpt><trkpt lat="59.0935321525" lon="29.9946040381"><ele>74.64</ele><time>2026-04-22T14:02:15Z</time></trkpt><trkpt lat="59.0935792588" lon="29.9945187103"><ele>73.20</ele><time>2026-04-22T14:02:28Z</time></trkpt><trkpt lat="59.0936169773" lon="29.9944517389"><ele>73.20</ele><time>2026-04-22T14:02:36Z</time></trkpt><trkpt lat="59.0936386865" lon="29.9943845998"><ele>74.16</ele><time>2026-04-22T14:02:49Z</time></trkpt><trkpt lat="59.0936272871" lon="29.9941276945"><ele>74.16</ele><time>2026-04-22T14:03:02Z</time></trkpt><trkpt lat="59.0936132055" lon="29.9940522574"><ele>74.16</ele><time>2026-04-22T14:03:12Z</time></trkpt><trkpt lat="59.0935945138" lon="29.9939864594"><ele>74.16</ele><time>2026-04-22T14:03:47Z</time></trkpt><trkpt lat="59.0935764089" lon="29.9939208291"><ele>74.16</ele><time>2026-04-22T14:04:00Z</time></trkpt><trkpt lat="59.0935559571" lon="29.9938572105"><ele>74.16</ele><time>2026-04-22T14:04:05Z</time></trkpt><trkpt lat="59.0934962779" lon="29.9936180748"><ele>74.16</ele><time>2026-04-22T14:04:21Z</time></trkpt><trkpt lat="59.0934623312" lon="29.9934306554"><ele>74.16</ele><time>2026-04-22T14:04:34Z</time></trkpt><trkpt lat="59.0934243612" lon="29.9932378717"><ele>74.16</ele><time>2026-04-22T14:04:49Z</time></trkpt><trkpt lat="59.0933867265" lon="29.9930121470"><ele>74.64</ele><time>2026-04-22T14:05:04Z</time></trkpt><trkpt lat="59.0933523607" lon="29.9928163458"><ele>74.64</ele><time>2026-04-22T14:05:17Z</time></trkpt><trkpt lat="59.0933361836" lon="29.9926802237"><ele>73.68</ele><time>2026-04-22T14:05:29Z</time></trkpt><trkpt lat="59.0933297295" lon="29.9926170241"><ele>74.16</ele><time>2026-04-22T14:05:44Z</time></trkpt><trkpt lat="59.0933435597" lon="29.9926175270"><ele>74.64</ele><time>2026-04-22T14:06:08Z</time></trkpt><trkpt lat="59.0933496784" lon="29.9925827421"><ele>74.64</ele><time>2026-04-22T14:06:29Z</time></trkpt><trkpt lat="59.0932990517" lon="29.9924166128"><ele>74.64</ele><time>2026-04-22T14:06:44Z</time></trkpt><trkpt lat="59.0932574775" lon="29.9922120105"><ele>74.64</ele><time>2026-04-22T14:06:59Z</time></trkpt><trkpt lat="59.0932158194" lon="29.9919893872"><ele>74.64</ele><time>2026-04-22T14:07:14Z</time></trkpt><trkpt lat="59.0931857284" lon="29.9918927439"><ele>74.64</ele><time>2026-04-22T14:07:28Z</time></trkpt><trkpt lat="59.0931822080" lon="29.9917650875"><ele>74.64</ele><time>2026-04-22T14:07:43Z</time></trkpt><trkpt lat="59.0931744128" lon="29.9917123653"><ele>74.64</ele><time>2026-04-22T14:07:59Z</time></trkpt><trkpt lat="59.0931663662" lon="29.9917083420"><ele>74.64</ele><time>2026-04-22T14:08:27Z</time></trkpt><trkpt lat="59.0931686293" lon="29.9917012174"><ele>75.12</ele><time>2026-04-22T14:08:50Z</time></trkpt><trkpt lat="59.0931713954" lon="29.9916934222"><ele>75.12</ele><time>2026-04-22T14:09:16Z</time></trkpt><trkpt lat="59.0931801964" lon="29.9916884769"><ele>75.12</ele><time>2026-04-22T14:09:47Z</time></trkpt><trkpt lat="59.0931968763" lon="29.9917255249"><ele>75.60</ele><time>2026-04-22T14:10:04Z</time></trkpt><trkpt lat="59.0932387020" lon="29.9919723719"><ele>75.60</ele><time>2026-04-22T14:10:15Z</time></trkpt><trkpt lat="59.0932874009" lon="29.9922119267"><ele>75.12</ele><time>2026-04-22T14:10:27Z</time></trkpt><trkpt lat="59.0933427215" lon="29.9923803192"><ele>75.12</ele><time>2026-04-22T14:10:37Z</time></trkpt><trkpt lat="59.0933526959" lon="29.9925995898"><ele>75.12</ele><time>2026-04-22T14:10:50Z</time></trkpt><trkpt lat="59.0933588985" lon="29.9926990829"><ele>75.12</ele><time>2026-04-22T14:11:00Z</time></trkpt><trkpt lat="59.0934047475" lon="29.9928611051"><ele>75.60</ele><time>2026-04-22T14:11:17Z</time></trkpt><trkpt lat="59.0934073459" lon="29.9930104706"><ele>75.60</ele><time>2026-04-22T14:11:28Z</time></trkpt><trkpt lat="59.0934082679" lon="29.9930383824"><ele>75.60</ele><time>2026-04-22T14:11:43Z</time></trkpt><trkpt lat="59.0934293065" lon="29.9931600038"><ele>75.60</ele><time>2026-04-22T14:11:57Z</time></trkpt><trkpt lat="59.0934540331" lon="29.9932932761"><ele>75.60</ele><time>2026-04-22T14:12:10Z</time></trkpt><trkpt lat="59.0934626665" lon="29.9932981376"><ele>75.60</ele><time>2026-04-22T14:12:36Z</time></trkpt><trkpt lat="59.0934636723" lon="29.9933097046"><ele>75.60</ele><time>2026-04-22T14:13:00Z</time></trkpt><trkpt lat="59.0934647620" lon="29.9933593255"><ele>75.60</ele><time>2026-04-22T14:13:29Z</time></trkpt><trkpt lat="59.0934746526" lon="29.9933778495"><ele>75.60</ele><time>2026-04-22T14:13:42Z</time></trkpt><trkpt lat="59.0934257023" lon="29.9931952078"><ele>75.60</ele><time>2026-04-22T14:13:56Z</time></trkpt><trkpt lat="59.0933704656" lon="29.9929802120"><ele>75.60</ele><time>2026-04-22T14:14:10Z</time></trkpt><trkpt lat="59.0933639277" lon="29.9927503802"><ele>75.60</ele><time>2026-04-22T14:14:23Z</time></trkpt><trkpt lat="59.0933391172" lon="29.9925595243"><ele>75.60</ele><time>2026-04-22T14:14:35Z</time></trkpt><trkpt lat="59.0932931006" lon="29.9923053849"><ele>75.60</ele><time>2026-04-22T14:14:48Z</time></trkpt><trkpt lat="59.0932552982" lon="29.9920931552"><ele>75.60</ele><time>2026-04-22T14:15:00Z</time></trkpt><trkpt lat="59.0932108741" lon="29.9918634072"><ele>75.60</ele><time>2026-04-22T14:15:13Z</time></trkpt><trkpt lat="59.0932006482" lon="29.9917779118"><ele>74.16</ele><time>2026-04-22T14:15:19Z</time></trkpt><trkpt lat="59.0931300726" lon="29.9914835393"><ele>74.16</ele><time>2026-04-22T14:15:34Z</time></trkpt><trkpt lat="59.0930978861" lon="29.9912745785"><ele>74.16</ele><time>2026-04-22T14:15:47Z</time></trkpt><trkpt lat="59.0930678789" lon="29.9911138136"><ele>74.16</ele><time>2026-04-22T14:15:57Z</time></trkpt><trkpt lat="59.0930377878" lon="29.9909258075"><ele>74.16</ele><time>2026-04-22T14:16:08Z</time></trkpt><trkpt lat="59.0929823834" lon="29.9907193612"><ele>74.16</ele><time>2026-04-22T14:16:21Z</time></trkpt><trkpt lat="59.0929412283" lon="29.9904684909"><ele>74.16</ele><time>2026-04-22T14:16:33Z</time></trkpt><trkpt lat="59.0929030068" lon="29.9902845081"><ele>73.68</ele><time>2026-04-22T14:16:46Z</time></trkpt><trkpt lat="59.0928562358" lon="29.9900450371"><ele>73.68</ele><time>2026-04-22T14:16:59Z</time></trkpt><trkpt lat="59.0928582475" lon="29.9899970088"><ele>73.68</ele><time>2026-04-22T14:17:02Z</time></trkpt><trkpt lat="59.0928197745" lon="29.9897575378"><ele>73.68</ele><time>2026-04-22T14:17:15Z</time></trkpt><trkpt lat="59.0927739255" lon="29.9895644188"><ele>73.68</ele><time>2026-04-22T14:17:27Z</time></trkpt><trkpt lat="59.0927672200" lon="29.9895194080"><ele>73.68</ele><time>2026-04-22T14:17:46Z</time></trkpt><trkpt lat="59.0927626099" lon="29.9895093497"><ele>73.68</ele><time>2026-04-22T14:18:08Z</time></trkpt><trkpt lat="59.0927621070" lon="29.9895140436"><ele>73.68</ele><time>2026-04-22T14:18:33Z</time></trkpt><trkpt lat="59.0927596763" lon="29.9895009678"><ele>73.68</ele><time>2026-04-22T14:18:50Z</time></trkpt><trkpt lat="59.0927439183" lon="29.9894376844"><ele>73.20</ele><time>2026-04-22T14:19:11Z</time></trkpt><trkpt lat="59.0927357879" lon="29.9893775862"><ele>73.20</ele><time>2026-04-22T14:19:30Z</time></trkpt><trkpt lat="59.0927195270" lon="29.9891071022"><ele>73.20</ele><time>2026-04-22T14:19:43Z</time></trkpt><trkpt lat="59.0927010030" lon="29.9890081119"><ele>73.20</ele><time>2026-04-22T14:19:49Z</time></trkpt><trkpt lat="59.0926468559" lon="29.9887991510"><ele>73.20</ele><time>2026-04-22T14:20:02Z</time></trkpt><trkpt lat="59.0925891045" lon="29.9885792099"><ele>73.20</ele><time>2026-04-22T14:20:16Z</time></trkpt><trkpt lat="59.0925694071" lon="29.9885049462"><ele>73.20</ele><time>2026-04-22T14:20:21Z</time></trkpt><trkpt lat="59.0925209597" lon="29.9882746954"><ele>73.20</ele><time>2026-04-22T14:20:34Z</time></trkpt><trkpt lat="59.0924628731" lon="29.9880117550"><ele>73.20</ele><time>2026-04-22T14:20:48Z</time></trkpt><trkpt lat="59.0924164373" lon="29.9877612200"><ele>72.72</ele><time>2026-04-22T14:21:01Z</time></trkpt><trkpt lat="59.0923901182" lon="29.9875460565"><ele>73.68</ele><time>2026-04-22T14:21:14Z</time></trkpt><trkpt lat="59.0923390724" lon="29.9873081781"><ele>73.68</ele><time>2026-04-22T14:21:27Z</time></trkpt><trkpt lat="59.0923093166" lon="29.9871351756"><ele>73.68</ele><time>2026-04-22T14:21:39Z</time></trkpt><trkpt lat="59.0923124179" lon="29.9871159811"><ele>73.68</ele><time>2026-04-22T14:22:08Z</time></trkpt><trkpt lat="59.0923139267" lon="29.9871252012"><ele>74.16</ele><time>2026-04-22T14:22:34Z</time></trkpt><trkpt lat="59.0923156030" lon="29.9871288054"><ele>74.16</ele><time>2026-04-22T14:23:04Z</time></trkpt><trkpt lat="59.0923170280" lon="29.9871323258"><ele>75.12</ele><time>2026-04-22T14:23:29Z</time></trkpt><trkpt lat="59.0923157707" lon="29.9871482514"><ele>75.12</ele><time>2026-04-22T14:23:55Z</time></trkpt><trkpt lat="59.0923104063" lon="29.9870957807"><ele>75.12</ele><time>2026-04-22T14:24:16Z</time></trkpt><trkpt lat="59.0922731906" lon="29.9868895859"><ele>74.16</ele><time>2026-04-22T14:24:33Z</time></trkpt><trkpt lat="59.0922554210" lon="29.9867709819"><ele>74.16</ele><time>2026-04-22T14:24:45Z</time></trkpt><trkpt lat="59.0922460333" lon="29.9866883364"><ele>74.16</ele><time>2026-04-22T14:25:02Z</time></trkpt><trkpt lat="59.0922417585" lon="29.9867107999"><ele>74.16</ele><time>2026-04-22T14:25:20Z</time></trkpt><trkpt lat="59.0922375675" lon="29.9867060222"><ele>74.16</ele><time>2026-04-22T14:25:48Z</time></trkpt><trkpt lat="59.0922325384" lon="29.9867053516"><ele>74.16</ele><time>2026-04-22T14:26:03Z</time></trkpt><trkpt lat="59.0922332928" lon="29.9867030885"><ele>74.16</ele><time>2026-04-22T14:26:30Z</time></trkpt><trkpt lat="59.0922315326" lon="29.9866992328"><ele>74.16</ele><time>2026-04-22T14:26:51Z</time></trkpt><trkpt lat="59.0922219772" lon="29.9866936170"><ele>74.16</ele><time>2026-04-22T14:27:04Z</time></trkpt></trkseg></trk></gpx>